<?xml version='1.0' encoding='UTF-8'?>
<gpx version="1.1" creator="https://www.komoot.de" xmlns="http://www.topografix.com/GPX/1/1" xmlns:xsi="http://www.w3.org/2001/XMLSchema-instance" xsi:schemaLocation="http://www.topografix.com/GPX/1/1 http://www.topografix.com/GPX/1/1/gpx.xsd">
  <metadata>
    <name>52_500SchwaderlochBinzg</name>
    <author>
      <link href="https://www.komoot.de">
        <text>komoot</text>
        <type>text/html</type>
      </link>
    </author>
  </metadata>
  <trk>
    <name>52_500SchwaderlochBinzg</name>
    <trkseg>
      <trkpt lat="47.541376" lon="7.870819">
        <ele>341.063069</ele>
        <time>2021-11-13T08:51:30.724Z</time>
      </trkpt>
      <trkpt lat="47.541410" lon="7.870791">
        <ele>341.063069</ele>
        <time>2021-11-13T08:51:31.283Z</time>
      </trkpt>
      <trkpt lat="47.541576" lon="7.870664">
        <ele>341.063069</ele>
        <time>2021-11-13T08:51:35.426Z</time>
      </trkpt>
      <trkpt lat="47.541796" lon="7.871042">
        <ele>341.063069</ele>
        <time>2021-11-13T08:51:42.606Z</time>
      </trkpt>
      <trkpt lat="47.541953" lon="7.871286">
        <ele>341.063069</ele>
        <time>2021-11-13T08:51:47.354Z</time>
      </trkpt>
      <trkpt lat="47.542039" lon="7.871556">
        <ele>341.415641</ele>
        <time>2021-11-13T08:51:51.868Z</time>
      </trkpt>
      <trkpt lat="47.542067" lon="7.871664">
        <ele>341.713604</ele>
        <time>2021-11-13T08:51:53.458Z</time>
      </trkpt>
      <trkpt lat="47.542091" lon="7.871721">
        <ele>341.886624</ele>
        <time>2021-11-13T08:51:54.035Z</time>
      </trkpt>
      <trkpt lat="47.542218" lon="7.871866">
        <ele>342.498378</ele>
        <time>2021-11-13T08:51:59.261Z</time>
      </trkpt>
      <trkpt lat="47.542394" lon="7.872341">
        <ele>343.893909</ele>
        <time>2021-11-13T08:52:09.321Z</time>
      </trkpt>
      <trkpt lat="47.542436" lon="7.872494">
        <ele>344.319294</ele>
        <time>2021-11-13T08:52:12.651Z</time>
      </trkpt>
      <trkpt lat="47.542537" lon="7.872430">
        <ele>344.738411</ele>
        <time>2021-11-13T08:52:14.687Z</time>
      </trkpt>
      <trkpt lat="47.542714" lon="7.872334">
        <ele>345.457555</ele>
        <time>2021-11-13T08:52:21.800Z</time>
      </trkpt>
      <trkpt lat="47.542814" lon="7.872280">
        <ele>345.863642</ele>
        <time>2021-11-13T08:52:24.677Z</time>
      </trkpt>
      <trkpt lat="47.542919" lon="7.872226">
        <ele>346.287701</ele>
        <time>2021-11-13T08:52:28.517Z</time>
      </trkpt>
      <trkpt lat="47.543013" lon="7.872182">
        <ele>346.663815</ele>
        <time>2021-11-13T08:52:32.148Z</time>
      </trkpt>
      <trkpt lat="47.543233" lon="7.872082">
        <ele>347.541802</ele>
        <time>2021-11-13T08:52:39.246Z</time>
      </trkpt>
      <trkpt lat="47.543251" lon="7.872152">
        <ele>347.734720</ele>
        <time>2021-11-13T08:52:42.660Z</time>
      </trkpt>
      <trkpt lat="47.543332" lon="7.872237">
        <ele>348.240660</ele>
        <time>2021-11-13T08:52:46.070Z</time>
      </trkpt>
      <trkpt lat="47.544390" lon="7.872423">
        <ele>355.055875</ele>
        <time>2021-11-13T08:53:27.702Z</time>
      </trkpt>
      <trkpt lat="47.544883" lon="7.872555">
        <ele>358.260548</ele>
        <time>2021-11-13T08:53:50.044Z</time>
      </trkpt>
      <trkpt lat="47.545131" lon="7.872664">
        <ele>359.927666</ele>
        <time>2021-11-13T08:54:01.048Z</time>
      </trkpt>
      <trkpt lat="47.545375" lon="7.872836">
        <ele>361.700347</ele>
        <time>2021-11-13T08:54:11.989Z</time>
      </trkpt>
      <trkpt lat="47.545478" lon="7.872968">
        <ele>362.593799</ele>
        <time>2021-11-13T08:54:18.797Z</time>
      </trkpt>
      <trkpt lat="47.545515" lon="7.873015">
        <ele>362.913541</ele>
        <time>2021-11-13T08:54:20.753Z</time>
      </trkpt>
      <trkpt lat="47.545746" lon="7.873302">
        <ele>364.891343</ele>
        <time>2021-11-13T08:54:33.953Z</time>
      </trkpt>
      <trkpt lat="47.545934" lon="7.873549">
        <ele>366.539808</ele>
        <time>2021-11-13T08:54:44.053Z</time>
      </trkpt>
      <trkpt lat="47.546077" lon="7.873763">
        <ele>367.873254</ele>
        <time>2021-11-13T08:54:53.249Z</time>
      </trkpt>
      <trkpt lat="47.546135" lon="7.873859">
        <ele>368.443773</ele>
        <time>2021-11-13T08:54:56.489Z</time>
      </trkpt>
      <trkpt lat="47.546309" lon="7.874154">
        <ele>370.178549</ele>
        <time>2021-11-13T08:55:07.603Z</time>
      </trkpt>
      <trkpt lat="47.547126" lon="7.875801">
        <ele>375.866136</ele>
        <time>2021-11-13T08:55:53.364Z</time>
      </trkpt>
      <trkpt lat="47.547574" lon="7.876801">
        <ele>377.880232</ele>
        <time>2021-11-13T08:56:12.360Z</time>
      </trkpt>
      <trkpt lat="47.547992" lon="7.877974">
        <ele>377.148541</ele>
        <time>2021-11-13T08:56:25.161Z</time>
      </trkpt>
      <trkpt lat="47.548234" lon="7.878638">
        <ele>376.732283</ele>
        <time>2021-11-13T08:56:30.473Z</time>
      </trkpt>
      <trkpt lat="47.548422" lon="7.878959">
        <ele>376.084867</ele>
        <time>2021-11-13T08:56:33.316Z</time>
      </trkpt>
      <trkpt lat="47.548718" lon="7.879258">
        <ele>374.595452</ele>
        <time>2021-11-13T08:56:36.854Z</time>
      </trkpt>
      <trkpt lat="47.549140" lon="7.879391">
        <ele>372.801755</ele>
        <time>2021-11-13T08:56:41.041Z</time>
      </trkpt>
      <trkpt lat="47.549318" lon="7.879398">
        <ele>372.061470</ele>
        <time>2021-11-13T08:56:42.668Z</time>
      </trkpt>
      <trkpt lat="47.549327" lon="7.879547">
        <ele>371.641693</ele>
        <time>2021-11-13T08:56:43.654Z</time>
      </trkpt>
      <trkpt lat="47.549726" lon="7.880786">
        <ele>367.965598</ele>
        <time>2021-11-13T08:56:52.588Z</time>
      </trkpt>
      <trkpt lat="47.549927" lon="7.881490">
        <ele>366.104293</ele>
        <time>2021-11-13T08:56:57.621Z</time>
      </trkpt>
      <trkpt lat="47.550234" lon="7.883221">
        <ele>361.579181</ele>
        <time>2021-11-13T08:57:10.021Z</time>
      </trkpt>
      <trkpt lat="47.550332" lon="7.884727">
        <ele>357.200421</ele>
        <time>2021-11-13T08:57:19.866Z</time>
      </trkpt>
      <trkpt lat="47.550391" lon="7.885109">
        <ele>356.066291</ele>
        <time>2021-11-13T08:57:22.398Z</time>
      </trkpt>
      <trkpt lat="47.550548" lon="7.885799">
        <ele>353.650977</ele>
        <time>2021-11-13T08:57:27.003Z</time>
      </trkpt>
      <trkpt lat="47.550677" lon="7.886476">
        <ele>350.962534</ele>
        <time>2021-11-13T08:57:31.433Z</time>
      </trkpt>
      <trkpt lat="47.550758" lon="7.887295">
        <ele>347.799118</ele>
        <time>2021-11-13T08:57:36.575Z</time>
      </trkpt>
      <trkpt lat="47.550789" lon="7.887816">
        <ele>345.800280</ele>
        <time>2021-11-13T08:57:39.807Z</time>
      </trkpt>
      <trkpt lat="47.550831" lon="7.888611">
        <ele>342.542488</ele>
        <time>2021-11-13T08:57:44.763Z</time>
      </trkpt>
      <trkpt lat="47.550833" lon="7.889069">
        <ele>340.606483</ele>
        <time>2021-11-13T08:57:47.573Z</time>
      </trkpt>
      <trkpt lat="47.550915" lon="7.890600">
        <ele>334.114611</ele>
        <time>2021-11-13T08:57:56.966Z</time>
      </trkpt>
      <trkpt lat="47.550904" lon="7.891725">
        <ele>330.729547</ele>
        <time>2021-11-13T08:58:03.969Z</time>
      </trkpt>
      <trkpt lat="47.550892" lon="7.893176">
        <ele>326.640592</ele>
        <time>2021-11-13T08:58:13.582Z</time>
      </trkpt>
      <trkpt lat="47.550908" lon="7.894308">
        <ele>325.193447</ele>
        <time>2021-11-13T08:58:22.787Z</time>
      </trkpt>
      <trkpt lat="47.550878" lon="7.895158">
        <ele>324.460012</ele>
        <time>2021-11-13T08:58:29.972Z</time>
      </trkpt>
      <trkpt lat="47.550838" lon="7.895509">
        <ele>324.153279</ele>
        <time>2021-11-13T08:58:33.136Z</time>
      </trkpt>
      <trkpt lat="47.550660" lon="7.896255">
        <ele>323.261155</ele>
        <time>2021-11-13T08:58:39.624Z</time>
      </trkpt>
      <trkpt lat="47.550639" lon="7.896345">
        <ele>323.089958</ele>
        <time>2021-11-13T08:58:40.811Z</time>
      </trkpt>
      <trkpt lat="47.550648" lon="7.896481">
        <ele>322.844286</ele>
        <time>2021-11-13T08:58:41.767Z</time>
      </trkpt>
      <trkpt lat="47.550819" lon="7.898109">
        <ele>319.882260</ele>
        <time>2021-11-13T08:58:53.514Z</time>
      </trkpt>
      <trkpt lat="47.550801" lon="7.900244">
        <ele>314.349326</ele>
        <time>2021-11-13T08:59:07.352Z</time>
      </trkpt>
      <trkpt lat="47.550769" lon="7.901362">
        <ele>311.144767</ele>
        <time>2021-11-13T08:59:14.623Z</time>
      </trkpt>
      <trkpt lat="47.550757" lon="7.901591">
        <ele>310.576784</ele>
        <time>2021-11-13T08:59:16.760Z</time>
      </trkpt>
      <trkpt lat="47.550688" lon="7.902451">
        <ele>308.435175</ele>
        <time>2021-11-13T08:59:25.193Z</time>
      </trkpt>
      <trkpt lat="47.550498" lon="7.903445">
        <ele>305.880501</ele>
        <time>2021-11-13T08:59:35.444Z</time>
      </trkpt>
      <trkpt lat="47.550302" lon="7.904164">
        <ele>303.957257</ele>
        <time>2021-11-13T08:59:42.703Z</time>
      </trkpt>
      <trkpt lat="47.550166" lon="7.904464">
        <ele>303.055872</ele>
        <time>2021-11-13T08:59:46.088Z</time>
      </trkpt>
      <trkpt lat="47.550025" lon="7.904774">
        <ele>302.123476</ele>
        <time>2021-11-13T08:59:49.629Z</time>
      </trkpt>
      <trkpt lat="47.549868" lon="7.905010">
        <ele>301.296967</ele>
        <time>2021-11-13T08:59:52.761Z</time>
      </trkpt>
      <trkpt lat="47.549867" lon="7.905155">
        <ele>300.935282</ele>
        <time>2021-11-13T08:59:54.158Z</time>
      </trkpt>
      <trkpt lat="47.550067" lon="7.905245">
        <ele>300.162851</ele>
        <time>2021-11-13T08:59:57.083Z</time>
      </trkpt>
      <trkpt lat="47.550283" lon="7.905413">
        <ele>299.261329</ele>
        <time>2021-11-13T09:00:00.533Z</time>
      </trkpt>
      <trkpt lat="47.550497" lon="7.905558">
        <ele>298.391725</ele>
        <time>2021-11-13T09:00:03.891Z</time>
      </trkpt>
      <trkpt lat="47.549539" lon="7.908625">
        <ele>293.144780</ele>
        <time>2021-11-13T09:00:28.348Z</time>
      </trkpt>
      <trkpt lat="47.549520" lon="7.908678">
        <ele>293.087606</ele>
        <time>2021-11-13T09:00:28.859Z</time>
      </trkpt>
      <trkpt lat="47.549337" lon="7.909285">
        <ele>292.454251</ele>
        <time>2021-11-13T09:00:34.246Z</time>
      </trkpt>
      <trkpt lat="47.549206" lon="7.909719">
        <ele>292.001315</ele>
        <time>2021-11-13T09:00:38.180Z</time>
      </trkpt>
      <trkpt lat="47.549195" lon="7.909756">
        <ele>291.962797</ele>
        <time>2021-11-13T09:00:38.478Z</time>
      </trkpt>
      <trkpt lat="47.549102" lon="7.910058">
        <ele>291.646549</ele>
        <time>2021-11-13T09:00:41.205Z</time>
      </trkpt>
      <trkpt lat="47.549012" lon="7.910340">
        <ele>291.349366</ele>
        <time>2021-11-13T09:00:43.700Z</time>
      </trkpt>
      <trkpt lat="47.548412" lon="7.912168">
        <ele>289.801954</ele>
        <time>2021-11-13T09:01:00.030Z</time>
      </trkpt>
      <trkpt lat="47.548027" lon="7.913334">
        <ele>289.072963</ele>
        <time>2021-11-13T09:01:10.791Z</time>
      </trkpt>
      <trkpt lat="47.547994" lon="7.913433">
        <ele>289.049355</ele>
        <time>2021-11-13T09:01:11.712Z</time>
      </trkpt>
      <trkpt lat="47.547423" lon="7.915080">
        <ele>288.653470</ele>
        <time>2021-11-13T09:01:29.200Z</time>
      </trkpt>
      <trkpt lat="47.547113" lon="7.915971">
        <ele>288.842944</ele>
        <time>2021-11-13T09:01:39.838Z</time>
      </trkpt>
      <trkpt lat="47.547091" lon="7.916039">
        <ele>288.868291</ele>
        <time>2021-11-13T09:01:40.888Z</time>
      </trkpt>
      <trkpt lat="47.547032" lon="7.916218">
        <ele>288.935249</ele>
        <time>2021-11-13T09:01:43.159Z</time>
      </trkpt>
      <trkpt lat="47.546821" lon="7.916867">
        <ele>289.177387</ele>
        <time>2021-11-13T09:01:51.573Z</time>
      </trkpt>
      <trkpt lat="47.546262" lon="7.919081">
        <ele>289.813697</ele>
        <time>2021-11-13T09:02:19.235Z</time>
      </trkpt>
      <trkpt lat="47.546128" lon="7.919617">
        <ele>289.942498</ele>
        <time>2021-11-13T09:02:24.663Z</time>
      </trkpt>
      <trkpt lat="47.545973" lon="7.920313">
        <ele>290.143911</ele>
        <time>2021-11-13T09:02:32.082Z</time>
      </trkpt>
      <trkpt lat="47.545913" lon="7.920765">
        <ele>290.492847</ele>
        <time>2021-11-13T09:02:36.840Z</time>
      </trkpt>
      <trkpt lat="47.545881" lon="7.921096">
        <ele>290.746130</ele>
        <time>2021-11-13T09:02:40.807Z</time>
      </trkpt>
      <trkpt lat="47.545810" lon="7.921755">
        <ele>291.251625</ele>
        <time>2021-11-13T09:02:49.417Z</time>
      </trkpt>
      <trkpt lat="47.545778" lon="7.921947">
        <ele>291.401428</ele>
        <time>2021-11-13T09:02:52.370Z</time>
      </trkpt>
      <trkpt lat="47.545714" lon="7.922249">
        <ele>291.641195</ele>
        <time>2021-11-13T09:02:56.224Z</time>
      </trkpt>
      <trkpt lat="47.545699" lon="7.922325">
        <ele>291.701174</ele>
        <time>2021-11-13T09:02:57.421Z</time>
      </trkpt>
      <trkpt lat="47.545690" lon="7.922369">
        <ele>291.736000</ele>
        <time>2021-11-13T09:02:58.493Z</time>
      </trkpt>
      <trkpt lat="47.545641" lon="7.922610">
        <ele>291.926654</ele>
        <time>2021-11-13T09:03:01.848Z</time>
      </trkpt>
      <trkpt lat="47.545587" lon="7.922895">
        <ele>292.238287</ele>
        <time>2021-11-13T09:03:06.680Z</time>
      </trkpt>
      <trkpt lat="47.545553" lon="7.923142">
        <ele>292.844726</ele>
        <time>2021-11-13T09:03:10.291Z</time>
      </trkpt>
      <trkpt lat="47.545536" lon="7.923407">
        <ele>293.485111</ele>
        <time>2021-11-13T09:03:15.167Z</time>
      </trkpt>
      <trkpt lat="47.545521" lon="7.923709">
        <ele>294.213599</ele>
        <time>2021-11-13T09:03:20.334Z</time>
      </trkpt>
      <trkpt lat="47.545481" lon="7.924396">
        <ele>295.872458</ele>
        <time>2021-11-13T09:03:34.937Z</time>
      </trkpt>
      <trkpt lat="47.545466" lon="7.924880">
        <ele>297.038048</ele>
        <time>2021-11-13T09:03:46.243Z</time>
      </trkpt>
      <trkpt lat="47.545446" lon="7.925350">
        <ele>298.170977</ele>
        <time>2021-11-13T09:03:56.618Z</time>
      </trkpt>
      <trkpt lat="47.545417" lon="7.925848">
        <ele>299.093085</ele>
        <time>2021-11-13T09:04:07.097Z</time>
      </trkpt>
      <trkpt lat="47.545409" lon="7.926773">
        <ele>300.586528</ele>
        <time>2021-11-13T09:04:24.298Z</time>
      </trkpt>
      <trkpt lat="47.545407" lon="7.927001">
        <ele>300.954643</ele>
        <time>2021-11-13T09:04:28.107Z</time>
      </trkpt>
      <trkpt lat="47.545406" lon="7.927306">
        <ele>301.447041</ele>
        <time>2021-11-13T09:04:32.712Z</time>
      </trkpt>
      <trkpt lat="47.545421" lon="7.927686">
        <ele>302.061561</ele>
        <time>2021-11-13T09:04:38.247Z</time>
      </trkpt>
      <trkpt lat="47.545475" lon="7.928419">
        <ele>302.586352</ele>
        <time>2021-11-13T09:04:47.565Z</time>
      </trkpt>
      <trkpt lat="47.545563" lon="7.929641">
        <ele>301.492927</ele>
        <time>2021-11-13T09:04:57.444Z</time>
      </trkpt>
      <trkpt lat="47.545661" lon="7.930955">
        <ele>300.318305</ele>
        <time>2021-11-13T09:05:06.840Z</time>
      </trkpt>
      <trkpt lat="47.545696" lon="7.931497">
        <ele>299.839602</ele>
        <time>2021-11-13T09:05:10.809Z</time>
      </trkpt>
      <trkpt lat="47.545721" lon="7.931992">
        <ele>299.403180</ele>
        <time>2021-11-13T09:05:14.601Z</time>
      </trkpt>
      <trkpt lat="47.545724" lon="7.932758">
        <ele>298.729699</ele>
        <time>2021-11-13T09:05:20.811Z</time>
      </trkpt>
      <trkpt lat="47.545702" lon="7.933290">
        <ele>298.261087</ele>
        <time>2021-11-13T09:05:25.454Z</time>
      </trkpt>
      <trkpt lat="47.545674" lon="7.933625">
        <ele>298.206704</ele>
        <time>2021-11-13T09:05:28.654Z</time>
      </trkpt>
      <trkpt lat="47.545457" lon="7.935110">
        <ele>299.104824</ele>
        <time>2021-11-13T09:05:46.789Z</time>
      </trkpt>
      <trkpt lat="47.545074" lon="7.936484">
        <ele>300.279537</ele>
        <time>2021-11-13T09:06:08.316Z</time>
      </trkpt>
      <trkpt lat="47.544903" lon="7.936917">
        <ele>300.869446</ele>
        <time>2021-11-13T09:06:15.633Z</time>
      </trkpt>
      <trkpt lat="47.544705" lon="7.937395">
        <ele>301.528928</ele>
        <time>2021-11-13T09:06:23.817Z</time>
      </trkpt>
      <trkpt lat="47.544472" lon="7.937932">
        <ele>302.279598</ele>
        <time>2021-11-13T09:06:33.224Z</time>
      </trkpt>
      <trkpt lat="47.543826" lon="7.939433">
        <ele>304.339003</ele>
        <time>2021-11-13T09:07:00.106Z</time>
      </trkpt>
      <trkpt lat="47.543435" lon="7.940670">
        <ele>305.892399</ele>
        <time>2021-11-13T09:07:20.066Z</time>
      </trkpt>
      <trkpt lat="47.543161" lon="7.942213">
        <ele>306.538839</ele>
        <time>2021-11-13T09:07:40.915Z</time>
      </trkpt>
      <trkpt lat="47.543007" lon="7.943867">
        <ele>306.393649</ele>
        <time>2021-11-13T09:07:56.460Z</time>
      </trkpt>
      <trkpt lat="47.542913" lon="7.945267">
        <ele>305.112647</ele>
        <time>2021-11-13T09:08:07.366Z</time>
      </trkpt>
      <trkpt lat="47.542872" lon="7.945781">
        <ele>304.641389</ele>
        <time>2021-11-13T09:08:11.182Z</time>
      </trkpt>
      <trkpt lat="47.542875" lon="7.946089">
        <ele>304.326847</ele>
        <time>2021-11-13T09:08:13.417Z</time>
      </trkpt>
      <trkpt lat="47.542902" lon="7.946514">
        <ele>303.862623</ele>
        <time>2021-11-13T09:08:16.512Z</time>
      </trkpt>
      <trkpt lat="47.542943" lon="7.946806">
        <ele>303.538280</ele>
        <time>2021-11-13T09:08:18.725Z</time>
      </trkpt>
      <trkpt lat="47.542974" lon="7.946965">
        <ele>303.358302</ele>
        <time>2021-11-13T09:08:20.031Z</time>
      </trkpt>
      <trkpt lat="47.542979" lon="7.946989">
        <ele>303.330988</ele>
        <time>2021-11-13T09:08:20.188Z</time>
      </trkpt>
      <trkpt lat="47.542989" lon="7.947104">
        <ele>303.204893</ele>
        <time>2021-11-13T09:08:21.058Z</time>
      </trkpt>
      <trkpt lat="47.542984" lon="7.947304">
        <ele>302.987247</ele>
        <time>2021-11-13T09:08:22.636Z</time>
      </trkpt>
      <trkpt lat="47.542979" lon="7.947370">
        <ele>302.915023</ele>
        <time>2021-11-13T09:08:23.137Z</time>
      </trkpt>
      <trkpt lat="47.542935" lon="7.947564">
        <ele>302.692461</ele>
        <time>2021-11-13T09:08:24.703Z</time>
      </trkpt>
      <trkpt lat="47.542892" lon="7.947789">
        <ele>302.438159</ele>
        <time>2021-11-13T09:08:26.622Z</time>
      </trkpt>
      <trkpt lat="47.542875" lon="7.948001">
        <ele>302.205991</ele>
        <time>2021-11-13T09:08:28.437Z</time>
      </trkpt>
      <trkpt lat="47.542838" lon="7.948225">
        <ele>301.955207</ele>
        <time>2021-11-13T09:08:30.222Z</time>
      </trkpt>
      <trkpt lat="47.542826" lon="7.948298">
        <ele>301.873500</ele>
        <time>2021-11-13T09:08:30.844Z</time>
      </trkpt>
      <trkpt lat="47.542755" lon="7.948881">
        <ele>301.509790</ele>
        <time>2021-11-13T09:08:35.659Z</time>
      </trkpt>
      <trkpt lat="47.542719" lon="7.949175">
        <ele>301.407530</ele>
        <time>2021-11-13T09:08:38.068Z</time>
      </trkpt>
      <trkpt lat="47.542609" lon="7.949914">
        <ele>301.148542</ele>
        <time>2021-11-13T09:08:44.846Z</time>
      </trkpt>
      <trkpt lat="47.542560" lon="7.950202">
        <ele>301.046896</ele>
        <time>2021-11-13T09:08:47.708Z</time>
      </trkpt>
      <trkpt lat="47.542554" lon="7.950231">
        <ele>301.036515</ele>
        <time>2021-11-13T09:08:47.984Z</time>
      </trkpt>
      <trkpt lat="47.542546" lon="7.950274">
        <ele>301.021250</ele>
        <time>2021-11-13T09:08:48.389Z</time>
      </trkpt>
      <trkpt lat="47.542444" lon="7.950687">
        <ele>300.870743</ele>
        <time>2021-11-13T09:08:52.851Z</time>
      </trkpt>
      <trkpt lat="47.542357" lon="7.951037">
        <ele>300.743097</ele>
        <time>2021-11-13T09:08:56.495Z</time>
      </trkpt>
      <trkpt lat="47.542192" lon="7.951713">
        <ele>300.610945</ele>
        <time>2021-11-13T09:09:03.435Z</time>
      </trkpt>
      <trkpt lat="47.542169" lon="7.951815">
        <ele>300.592388</ele>
        <time>2021-11-13T09:09:04.363Z</time>
      </trkpt>
      <trkpt lat="47.541991" lon="7.952667">
        <ele>300.438493</ele>
        <time>2021-11-13T09:09:12.644Z</time>
      </trkpt>
      <trkpt lat="47.541791" lon="7.953601">
        <ele>300.269414</ele>
        <time>2021-11-13T09:09:21.695Z</time>
      </trkpt>
      <trkpt lat="47.541773" lon="7.953695">
        <ele>300.305338</ele>
        <time>2021-11-13T09:09:22.631Z</time>
      </trkpt>
      <trkpt lat="47.541735" lon="7.953892">
        <ele>300.399463</ele>
        <time>2021-11-13T09:09:24.514Z</time>
      </trkpt>
      <trkpt lat="47.541660" lon="7.954250">
        <ele>300.571667</ele>
        <time>2021-11-13T09:09:28.272Z</time>
      </trkpt>
      <trkpt lat="47.541530" lon="7.954936">
        <ele>300.899000</ele>
        <time>2021-11-13T09:09:35.493Z</time>
      </trkpt>
      <trkpt lat="47.541482" lon="7.955294">
        <ele>301.066680</ele>
        <time>2021-11-13T09:09:39.542Z</time>
      </trkpt>
      <trkpt lat="47.541465" lon="7.955512">
        <ele>301.167496</ele>
        <time>2021-11-13T09:09:41.877Z</time>
      </trkpt>
      <trkpt lat="47.541442" lon="7.955866">
        <ele>301.330877</ele>
        <time>2021-11-13T09:09:47.170Z</time>
      </trkpt>
      <trkpt lat="47.541410" lon="7.956569">
        <ele>302.230441</ele>
        <time>2021-11-13T09:09:58.470Z</time>
      </trkpt>
      <trkpt lat="47.541404" lon="7.956677">
        <ele>302.455513</ele>
        <time>2021-11-13T09:10:00.576Z</time>
      </trkpt>
      <trkpt lat="47.541280" lon="7.957569">
        <ele>304.347054</ele>
        <time>2021-11-13T09:10:16.224Z</time>
      </trkpt>
      <trkpt lat="47.541237" lon="7.957756">
        <ele>304.757365</ele>
        <time>2021-11-13T09:10:20.571Z</time>
      </trkpt>
      <trkpt lat="47.541141" lon="7.958127">
        <ele>305.582597</ele>
        <time>2021-11-13T09:10:28.123Z</time>
      </trkpt>
      <trkpt lat="47.540957" lon="7.959132">
        <ele>307.742025</ele>
        <time>2021-11-13T09:10:49.565Z</time>
      </trkpt>
      <trkpt lat="47.540954" lon="7.959705">
        <ele>308.926634</ele>
        <time>2021-11-13T09:11:00.992Z</time>
      </trkpt>
      <trkpt lat="47.540979" lon="7.959950">
        <ele>309.438881</ele>
        <time>2021-11-13T09:11:06.442Z</time>
      </trkpt>
      <trkpt lat="47.541002" lon="7.960092">
        <ele>309.740772</ele>
        <time>2021-11-13T09:11:09.036Z</time>
      </trkpt>
      <trkpt lat="47.541060" lon="7.960321">
        <ele>310.246411</ele>
        <time>2021-11-13T09:11:13.758Z</time>
      </trkpt>
      <trkpt lat="47.541153" lon="7.960814">
        <ele>311.304641</ele>
        <time>2021-11-13T09:11:22.327Z</time>
      </trkpt>
      <trkpt lat="47.541242" lon="7.961294">
        <ele>312.333700</ele>
        <time>2021-11-13T09:11:30.286Z</time>
      </trkpt>
      <trkpt lat="47.541316" lon="7.962197">
        <ele>313.149449</ele>
        <time>2021-11-13T09:11:43.401Z</time>
      </trkpt>
      <trkpt lat="47.541314" lon="7.962377">
        <ele>313.285890</ele>
        <time>2021-11-13T09:11:46.043Z</time>
      </trkpt>
      <trkpt lat="47.541308" lon="7.962513">
        <ele>313.389184</ele>
        <time>2021-11-13T09:11:47.393Z</time>
      </trkpt>
      <trkpt lat="47.541293" lon="7.962730">
        <ele>313.554509</ele>
        <time>2021-11-13T09:11:49.755Z</time>
      </trkpt>
      <trkpt lat="47.541258" lon="7.962975">
        <ele>313.744307</ele>
        <time>2021-11-13T09:11:53.147Z</time>
      </trkpt>
      <trkpt lat="47.541217" lon="7.963187">
        <ele>313.911447</ele>
        <time>2021-11-13T09:11:55.203Z</time>
      </trkpt>
      <trkpt lat="47.541123" lon="7.963520">
        <ele>314.185006</ele>
        <time>2021-11-13T09:11:59.985Z</time>
      </trkpt>
      <trkpt lat="47.541019" lon="7.963815">
        <ele>314.437241</ele>
        <time>2021-11-13T09:12:04.243Z</time>
      </trkpt>
      <trkpt lat="47.541129" lon="7.964008">
        <ele>314.608724</ele>
        <time>2021-11-13T09:12:06.975Z</time>
      </trkpt>
      <trkpt lat="47.541169" lon="7.964123">
        <ele>314.681076</ele>
        <time>2021-11-13T09:12:08.141Z</time>
      </trkpt>
      <trkpt lat="47.541095" lon="7.964204">
        <ele>314.757305</ele>
        <time>2021-11-13T09:12:10.540Z</time>
      </trkpt>
      <trkpt lat="47.540896" lon="7.964711">
        <ele>315.085303</ele>
        <time>2021-11-13T09:12:17.568Z</time>
      </trkpt>
      <trkpt lat="47.540214" lon="7.967628">
        <ele>317.193784</ele>
        <time>2021-11-13T09:12:55.415Z</time>
      </trkpt>
      <trkpt lat="47.539783" lon="7.969587">
        <ele>319.430555</ele>
        <time>2021-11-13T09:13:25.114Z</time>
      </trkpt>
      <trkpt lat="47.539262" lon="7.971768">
        <ele>322.936862</ele>
        <time>2021-11-13T09:14:04.065Z</time>
      </trkpt>
      <trkpt lat="47.538706" lon="7.974459">
        <ele>327.271302</ele>
        <time>2021-11-13T09:14:49.862Z</time>
      </trkpt>
      <trkpt lat="47.538242" lon="7.976347">
        <ele>330.043643</ele>
        <time>2021-11-13T09:15:20.680Z</time>
      </trkpt>
      <trkpt lat="47.538107" lon="7.977240">
        <ele>330.843487</ele>
        <time>2021-11-13T09:15:34.373Z</time>
      </trkpt>
      <trkpt lat="47.537955" lon="7.978125">
        <ele>331.594504</ele>
        <time>2021-11-13T09:15:47.917Z</time>
      </trkpt>
      <trkpt lat="47.537583" lon="7.979760">
        <ele>331.435107</ele>
        <time>2021-11-13T09:16:06.215Z</time>
      </trkpt>
      <trkpt lat="47.537461" lon="7.980118">
        <ele>330.978283</ele>
        <time>2021-11-13T09:16:09.223Z</time>
      </trkpt>
      <trkpt lat="47.537107" lon="7.981082">
        <ele>329.728205</ele>
        <time>2021-11-13T09:16:17.034Z</time>
      </trkpt>
      <trkpt lat="47.536959" lon="7.981602">
        <ele>328.946743</ele>
        <time>2021-11-13T09:16:20.873Z</time>
      </trkpt>
      <trkpt lat="47.536896" lon="7.981697">
        <ele>328.704182</ele>
        <time>2021-11-13T09:16:21.800Z</time>
      </trkpt>
      <trkpt lat="47.536842" lon="7.981878">
        <ele>328.343733</ele>
        <time>2021-11-13T09:16:23.135Z</time>
      </trkpt>
      <trkpt lat="47.536775" lon="7.982096">
        <ele>327.907436</ele>
        <time>2021-11-13T09:16:24.739Z</time>
      </trkpt>
      <trkpt lat="47.536764" lon="7.982225">
        <ele>327.670595</ele>
        <time>2021-11-13T09:16:25.633Z</time>
      </trkpt>
      <trkpt lat="47.536530" lon="7.982859">
        <ele>326.354451</ele>
        <time>2021-11-13T09:16:30.555Z</time>
      </trkpt>
      <trkpt lat="47.536410" lon="7.983244">
        <ele>325.582039</ele>
        <time>2021-11-13T09:16:33.539Z</time>
      </trkpt>
      <trkpt lat="47.536199" lon="7.983737">
        <ele>324.518785</ele>
        <time>2021-11-13T09:16:37.828Z</time>
      </trkpt>
      <trkpt lat="47.536026" lon="7.984206">
        <ele>324.299291</ele>
        <time>2021-11-13T09:16:42.127Z</time>
      </trkpt>
      <trkpt lat="47.535614" lon="7.985212">
        <ele>323.915156</ele>
        <time>2021-11-13T09:16:53.065Z</time>
      </trkpt>
      <trkpt lat="47.535270" lon="7.985985">
        <ele>323.612898</ele>
        <time>2021-11-13T09:17:03.287Z</time>
      </trkpt>
      <trkpt lat="47.534974" lon="7.986602">
        <ele>323.141143</ele>
        <time>2021-11-13T09:17:10.775Z</time>
      </trkpt>
      <trkpt lat="47.534590" lon="7.987330">
        <ele>322.542855</ele>
        <time>2021-11-13T09:17:18.432Z</time>
      </trkpt>
      <trkpt lat="47.534466" lon="7.987626">
        <ele>322.317259</ele>
        <time>2021-11-13T09:17:21.266Z</time>
      </trkpt>
      <trkpt lat="47.534363" lon="7.987895">
        <ele>322.116984</ele>
        <time>2021-11-13T09:17:23.679Z</time>
      </trkpt>
      <trkpt lat="47.534584" lon="7.987988">
        <ele>321.896607</ele>
        <time>2021-11-13T09:17:26.159Z</time>
      </trkpt>
      <trkpt lat="47.534795" lon="7.988078">
        <ele>321.422336</ele>
        <time>2021-11-13T09:17:28.627Z</time>
      </trkpt>
      <trkpt lat="47.534985" lon="7.988144">
        <ele>320.965281</ele>
        <time>2021-11-13T09:17:30.687Z</time>
      </trkpt>
      <trkpt lat="47.535196" lon="7.988134">
        <ele>320.470864</ele>
        <time>2021-11-13T09:17:33.041Z</time>
      </trkpt>
      <trkpt lat="47.535393" lon="7.988043">
        <ele>319.987572</ele>
        <time>2021-11-13T09:17:35.270Z</time>
      </trkpt>
      <trkpt lat="47.535735" lon="7.987639">
        <ele>318.963071</ele>
        <time>2021-11-13T09:17:39.877Z</time>
      </trkpt>
      <trkpt lat="47.535862" lon="7.987408">
        <ele>318.492036</ele>
        <time>2021-11-13T09:17:41.916Z</time>
      </trkpt>
      <trkpt lat="47.535935" lon="7.987272">
        <ele>318.217317</ele>
        <time>2021-11-13T09:17:43.153Z</time>
      </trkpt>
      <trkpt lat="47.536140" lon="7.986963">
        <ele>317.575377</ele>
        <time>2021-11-13T09:17:46.148Z</time>
      </trkpt>
      <trkpt lat="47.536465" lon="7.986660">
        <ele>316.987974</ele>
        <time>2021-11-13T09:17:50.323Z</time>
      </trkpt>
      <trkpt lat="47.536685" lon="7.986543">
        <ele>316.630425</ele>
        <time>2021-11-13T09:17:52.880Z</time>
      </trkpt>
      <trkpt lat="47.536796" lon="7.986519">
        <ele>316.458838</ele>
        <time>2021-11-13T09:17:54.120Z</time>
      </trkpt>
      <trkpt lat="47.537167" lon="7.986470">
        <ele>315.889099</ele>
        <time>2021-11-13T09:17:58.578Z</time>
      </trkpt>
      <trkpt lat="47.537409" lon="7.986449">
        <ele>315.518296</ele>
        <time>2021-11-13T09:18:01.584Z</time>
      </trkpt>
      <trkpt lat="47.537821" lon="7.986433">
        <ele>314.904546</ele>
        <time>2021-11-13T09:18:06.689Z</time>
      </trkpt>
      <trkpt lat="47.537897" lon="7.986428">
        <ele>314.900147</ele>
        <time>2021-11-13T09:18:07.854Z</time>
      </trkpt>
      <trkpt lat="47.538277" lon="7.986431">
        <ele>314.878172</ele>
        <time>2021-11-13T09:18:12.602Z</time>
      </trkpt>
      <trkpt lat="47.538514" lon="7.986428">
        <ele>314.864466</ele>
        <time>2021-11-13T09:18:15.732Z</time>
      </trkpt>
      <trkpt lat="47.538630" lon="7.986438">
        <ele>314.857746</ele>
        <time>2021-11-13T09:18:17.909Z</time>
      </trkpt>
      <trkpt lat="47.539274" lon="7.986488">
        <ele>314.820454</ele>
        <time>2021-11-13T09:18:28.167Z</time>
      </trkpt>
      <trkpt lat="47.539415" lon="7.986507">
        <ele>314.812266</ele>
        <time>2021-11-13T09:18:30.887Z</time>
      </trkpt>
      <trkpt lat="47.539549" lon="7.986535">
        <ele>314.804441</ele>
        <time>2021-11-13T09:18:32.943Z</time>
      </trkpt>
      <trkpt lat="47.539952" lon="7.986630">
        <ele>314.731442</ele>
        <time>2021-11-13T09:18:39.595Z</time>
      </trkpt>
      <trkpt lat="47.540347" lon="7.986737">
        <ele>314.651840</ele>
        <time>2021-11-13T09:18:45.288Z</time>
      </trkpt>
      <trkpt lat="47.540335" lon="7.986933">
        <ele>314.625503</ele>
        <time>2021-11-13T09:18:47.126Z</time>
      </trkpt>
      <trkpt lat="47.540321" lon="7.987087">
        <ele>314.604708</ele>
        <time>2021-11-13T09:18:48.450Z</time>
      </trkpt>
      <trkpt lat="47.539978" lon="7.988189">
        <ele>314.438371</ele>
        <time>2021-11-13T09:18:59.636Z</time>
      </trkpt>
      <trkpt lat="47.539990" lon="7.989097">
        <ele>314.110102</ele>
        <time>2021-11-13T09:19:07.472Z</time>
      </trkpt>
      <trkpt lat="47.540011" lon="7.990131">
        <ele>313.736183</ele>
        <time>2021-11-13T09:19:16.569Z</time>
      </trkpt>
      <trkpt lat="47.540018" lon="7.990553">
        <ele>313.583600</ele>
        <time>2021-11-13T09:19:20.321Z</time>
      </trkpt>
      <trkpt lat="47.540056" lon="7.990982">
        <ele>313.495228</ele>
        <time>2021-11-13T09:19:24.237Z</time>
      </trkpt>
      <trkpt lat="47.540104" lon="7.991287">
        <ele>313.523667</ele>
        <time>2021-11-13T09:19:27.124Z</time>
      </trkpt>
      <trkpt lat="47.540140" lon="7.991504">
        <ele>313.543958</ele>
        <time>2021-11-13T09:19:43.740Z</time>
      </trkpt>
      <trkpt lat="47.540194" lon="7.991768">
        <ele>313.569007</ele>
        <time>2021-11-13T09:19:46.377Z</time>
      </trkpt>
      <trkpt lat="47.540262" lon="7.992244">
        <ele>313.613188</ele>
        <time>2021-11-13T09:19:51.172Z</time>
      </trkpt>
      <trkpt lat="47.540316" lon="7.993620">
        <ele>313.890149</ele>
        <time>2021-11-13T09:20:06.995Z</time>
      </trkpt>
      <trkpt lat="47.540089" lon="7.994896">
        <ele>315.235968</ele>
        <time>2021-11-13T09:20:23.720Z</time>
      </trkpt>
      <trkpt lat="47.540013" lon="7.995140">
        <ele>315.510035</ele>
        <time>2021-11-13T09:20:27.647Z</time>
      </trkpt>
      <trkpt lat="47.539876" lon="7.995796">
        <ele>316.210375</ele>
        <time>2021-11-13T09:20:37.274Z</time>
      </trkpt>
      <trkpt lat="47.539838" lon="7.996117">
        <ele>316.761861</ele>
        <time>2021-11-13T09:20:43.011Z</time>
      </trkpt>
      <trkpt lat="47.539726" lon="7.997265">
        <ele>320.489433</ele>
        <time>2021-11-13T09:21:07.160Z</time>
      </trkpt>
      <trkpt lat="47.539590" lon="7.998122">
        <ele>323.318590</ele>
        <time>2021-11-13T09:21:27.195Z</time>
      </trkpt>
      <trkpt lat="47.539569" lon="7.998315">
        <ele>323.946827</ele>
        <time>2021-11-13T09:21:32.887Z</time>
      </trkpt>
      <trkpt lat="47.539365" lon="8.001150">
        <ele>337.568593</ele>
        <time>2021-11-13T09:22:59.588Z</time>
      </trkpt>
      <trkpt lat="47.539400" lon="8.001871">
        <ele>340.442142</ele>
        <time>2021-11-13T09:23:21.564Z</time>
      </trkpt>
      <trkpt lat="47.539437" lon="8.002525">
        <ele>342.889652</ele>
        <time>2021-11-13T09:23:40.034Z</time>
      </trkpt>
      <trkpt lat="47.539437" lon="8.002963">
        <ele>344.523083</ele>
        <time>2021-11-13T09:23:51.031Z</time>
      </trkpt>
      <trkpt lat="47.539434" lon="8.003156">
        <ele>345.243028</ele>
        <time>2021-11-13T09:23:55.713Z</time>
      </trkpt>
      <trkpt lat="47.539492" lon="8.004516">
        <ele>348.495444</ele>
        <time>2021-11-13T09:24:22.586Z</time>
      </trkpt>
      <trkpt lat="47.539590" lon="8.005890">
        <ele>349.186907</ele>
        <time>2021-11-13T09:24:37.120Z</time>
      </trkpt>
      <trkpt lat="47.539569" lon="8.007914">
        <ele>349.296143</ele>
        <time>2021-11-13T09:24:53.894Z</time>
      </trkpt>
      <trkpt lat="47.539645" lon="8.009866">
        <ele>349.464690</ele>
        <time>2021-11-13T09:25:14.723Z</time>
      </trkpt>
      <trkpt lat="47.539703" lon="8.011107">
        <ele>350.350953</ele>
        <time>2021-11-13T09:25:31.336Z</time>
      </trkpt>
      <trkpt lat="47.539798" lon="8.012369">
        <ele>351.210949</ele>
        <time>2021-11-13T09:25:49.798Z</time>
      </trkpt>
      <trkpt lat="47.539903" lon="8.015200">
        <ele>351.812850</ele>
        <time>2021-11-13T09:26:23.912Z</time>
      </trkpt>
      <trkpt lat="47.539908" lon="8.015397">
        <ele>351.572252</ele>
        <time>2021-11-13T09:26:26.184Z</time>
      </trkpt>
      <trkpt lat="47.539918" lon="8.015722">
        <ele>351.175193</ele>
        <time>2021-11-13T09:26:28.688Z</time>
      </trkpt>
      <trkpt lat="47.539979" lon="8.017566">
        <ele>347.968471</ele>
        <time>2021-11-13T09:26:41.563Z</time>
      </trkpt>
      <trkpt lat="47.540012" lon="8.018657">
        <ele>343.419500</ele>
        <time>2021-11-13T09:26:48.299Z</time>
      </trkpt>
      <trkpt lat="47.540031" lon="8.019456">
        <ele>340.089313</ele>
        <time>2021-11-13T09:26:53.117Z</time>
      </trkpt>
      <trkpt lat="47.540052" lon="8.019825">
        <ele>338.546843</ele>
        <time>2021-11-13T09:26:55.342Z</time>
      </trkpt>
      <trkpt lat="47.540098" lon="8.020321">
        <ele>336.340800</ele>
        <time>2021-11-13T09:26:58.337Z</time>
      </trkpt>
      <trkpt lat="47.540134" lon="8.020585">
        <ele>335.141949</ele>
        <time>2021-11-13T09:26:59.932Z</time>
      </trkpt>
      <trkpt lat="47.540204" lon="8.020975">
        <ele>333.345673</ele>
        <time>2021-11-13T09:27:02.354Z</time>
      </trkpt>
      <trkpt lat="47.540354" lon="8.022332">
        <ele>327.224977</ele>
        <time>2021-11-13T09:27:10.799Z</time>
      </trkpt>
      <trkpt lat="47.540454" lon="8.023022">
        <ele>325.411868</ele>
        <time>2021-11-13T09:27:15.350Z</time>
      </trkpt>
      <trkpt lat="47.540537" lon="8.023536">
        <ele>324.432325</ele>
        <time>2021-11-13T09:27:18.964Z</time>
      </trkpt>
      <trkpt lat="47.540490" lon="8.024315">
        <ele>322.982742</ele>
        <time>2021-11-13T09:27:24.603Z</time>
      </trkpt>
      <trkpt lat="47.540408" lon="8.025334">
        <ele>321.361824</ele>
        <time>2021-11-13T09:27:32.796Z</time>
      </trkpt>
      <trkpt lat="47.540306" lon="8.026756">
        <ele>320.899416</ele>
        <time>2021-11-13T09:27:45.698Z</time>
      </trkpt>
      <trkpt lat="47.540273" lon="8.028579">
        <ele>320.665708</ele>
        <time>2021-11-13T09:28:03.567Z</time>
      </trkpt>
      <trkpt lat="47.540275" lon="8.029790">
        <ele>320.831820</ele>
        <time>2021-11-13T09:28:16.136Z</time>
      </trkpt>
      <trkpt lat="47.540324" lon="8.030594">
        <ele>321.053018</ele>
        <time>2021-11-13T09:28:25.137Z</time>
      </trkpt>
      <trkpt lat="47.540394" lon="8.031575">
        <ele>322.047013</ele>
        <time>2021-11-13T09:28:36.802Z</time>
      </trkpt>
      <trkpt lat="47.541006" lon="8.038351">
        <ele>330.278967</ele>
        <time>2021-11-13T09:30:17.532Z</time>
      </trkpt>
      <trkpt lat="47.541015" lon="8.038511">
        <ele>330.623392</ele>
        <time>2021-11-13T09:30:20.965Z</time>
      </trkpt>
      <trkpt lat="47.541029" lon="8.038776">
        <ele>331.255219</ele>
        <time>2021-11-13T09:30:28.096Z</time>
      </trkpt>
      <trkpt lat="47.540973" lon="8.039326">
        <ele>332.577348</ele>
        <time>2021-11-13T09:30:42.005Z</time>
      </trkpt>
      <trkpt lat="47.540755" lon="8.039911">
        <ele>334.165688</ele>
        <time>2021-11-13T09:30:57.506Z</time>
      </trkpt>
      <trkpt lat="47.540612" lon="8.040244">
        <ele>335.103810</ele>
        <time>2021-11-13T09:31:05.640Z</time>
      </trkpt>
      <trkpt lat="47.540564" lon="8.040358">
        <ele>335.423177</ele>
        <time>2021-11-13T09:31:07.561Z</time>
      </trkpt>
      <trkpt lat="47.540240" lon="8.040995">
        <ele>336.676024</ele>
        <time>2021-11-13T09:31:18.898Z</time>
      </trkpt>
      <trkpt lat="47.540116" lon="8.041253">
        <ele>336.673404</ele>
        <time>2021-11-13T09:31:22.381Z</time>
      </trkpt>
      <trkpt lat="47.540079" lon="8.041350">
        <ele>336.672482</ele>
        <time>2021-11-13T09:31:23.533Z</time>
      </trkpt>
      <trkpt lat="47.540031" lon="8.041477">
        <ele>336.671278</ele>
        <time>2021-11-13T09:31:24.729Z</time>
      </trkpt>
      <trkpt lat="47.539998" lon="8.041644">
        <ele>336.669838</ele>
        <time>2021-11-13T09:31:27.067Z</time>
      </trkpt>
      <trkpt lat="47.539983" lon="8.041866">
        <ele>336.667992</ele>
        <time>2021-11-13T09:31:30.411Z</time>
      </trkpt>
      <trkpt lat="47.539991" lon="8.042065">
        <ele>336.666343</ele>
        <time>2021-11-13T09:31:34.971Z</time>
      </trkpt>
      <trkpt lat="47.540021" lon="8.042268">
        <ele>336.664624</ele>
        <time>2021-11-13T09:31:40.100Z</time>
      </trkpt>
      <trkpt lat="47.540034" lon="8.042303">
        <ele>336.664293</ele>
        <time>2021-11-13T09:31:40.950Z</time>
      </trkpt>
      <trkpt lat="47.540072" lon="8.042391">
        <ele>336.663429</ele>
        <time>2021-11-13T09:31:43.257Z</time>
      </trkpt>
      <trkpt lat="47.540094" lon="8.042446">
        <ele>336.662900</ele>
        <time>2021-11-13T09:31:43.732Z</time>
      </trkpt>
      <trkpt lat="47.540115" lon="8.042499">
        <ele>336.662391</ele>
        <time>2021-11-13T09:31:44.144Z</time>
      </trkpt>
      <trkpt lat="47.540230" lon="8.042774">
        <ele>336.659715</ele>
        <time>2021-11-13T09:31:46.661Z</time>
      </trkpt>
      <trkpt lat="47.540311" lon="8.043099">
        <ele>336.656849</ele>
        <time>2021-11-13T09:31:49.290Z</time>
      </trkpt>
      <trkpt lat="47.540358" lon="8.043349">
        <ele>337.372843</ele>
        <time>2021-11-13T09:31:51.359Z</time>
      </trkpt>
      <trkpt lat="47.540373" lon="8.043434">
        <ele>337.718048</ele>
        <time>2021-11-13T09:31:52.076Z</time>
      </trkpt>
      <trkpt lat="47.540392" lon="8.043542">
        <ele>338.156575</ele>
        <time>2021-11-13T09:31:53.463Z</time>
      </trkpt>
      <trkpt lat="47.540394" lon="8.043626">
        <ele>338.486833</ele>
        <time>2021-11-13T09:31:55.252Z</time>
      </trkpt>
      <trkpt lat="47.540360" lon="8.044061">
        <ele>340.207454</ele>
        <time>2021-11-13T09:32:01.378Z</time>
      </trkpt>
      <trkpt lat="47.540345" lon="8.044329">
        <ele>341.264093</ele>
        <time>2021-11-13T09:32:09.657Z</time>
      </trkpt>
      <trkpt lat="47.540316" lon="8.044416">
        <ele>341.645336</ele>
        <time>2021-11-13T09:32:11.170Z</time>
      </trkpt>
      <trkpt lat="47.540484" lon="8.044413">
        <ele>342.623239</ele>
        <time>2021-11-13T09:32:18.993Z</time>
      </trkpt>
      <trkpt lat="47.540494" lon="8.044412">
        <ele>342.681576</ele>
        <time>2021-11-13T09:32:19.659Z</time>
      </trkpt>
      <trkpt lat="47.540685" lon="8.044388">
        <ele>343.797270</ele>
        <time>2021-11-13T09:32:28.303Z</time>
      </trkpt>
      <trkpt lat="47.540801" lon="8.044393">
        <ele>344.472726</ele>
        <time>2021-11-13T09:32:34.296Z</time>
      </trkpt>
      <trkpt lat="47.540913" lon="8.044428">
        <ele>345.138962</ele>
        <time>2021-11-13T09:32:41.951Z</time>
      </trkpt>
      <trkpt lat="47.540994" lon="8.044486">
        <ele>345.662607</ele>
        <time>2021-11-13T09:32:45.440Z</time>
      </trkpt>
      <trkpt lat="47.541082" lon="8.044576">
        <ele>346.285018</ele>
        <time>2021-11-13T09:32:50.446Z</time>
      </trkpt>
      <trkpt lat="47.541181" lon="8.044757">
        <ele>347.245630</ele>
        <time>2021-11-13T09:33:02.401Z</time>
      </trkpt>
      <trkpt lat="47.541272" lon="8.045010">
        <ele>349.050051</ele>
        <time>2021-11-13T09:33:11.855Z</time>
      </trkpt>
      <trkpt lat="47.541383" lon="8.045289">
        <ele>351.088476</ele>
        <time>2021-11-13T09:33:26.822Z</time>
      </trkpt>
      <trkpt lat="47.541649" lon="8.045944">
        <ele>355.899814</ele>
        <time>2021-11-13T09:33:55.252Z</time>
      </trkpt>
      <trkpt lat="47.541824" lon="8.046281">
        <ele>358.576000</ele>
        <time>2021-11-13T09:34:11.762Z</time>
      </trkpt>
      <trkpt lat="47.542028" lon="8.046678">
        <ele>361.716426</ele>
        <time>2021-11-13T09:34:29.910Z</time>
      </trkpt>
      <trkpt lat="47.542173" lon="8.047001">
        <ele>363.928911</ele>
        <time>2021-11-13T09:34:41.852Z</time>
      </trkpt>
      <trkpt lat="47.542191" lon="8.047035">
        <ele>363.963112</ele>
        <time>2021-11-13T09:34:42.222Z</time>
      </trkpt>
      <trkpt lat="47.542760" lon="8.048321">
        <ele>365.180202</ele>
        <time>2021-11-13T09:35:10.562Z</time>
      </trkpt>
      <trkpt lat="47.543032" lon="8.048967">
        <ele>365.782847</ele>
        <time>2021-11-13T09:35:16.172Z</time>
      </trkpt>
      <trkpt lat="47.543197" lon="8.049360">
        <ele>364.953380</ele>
        <time>2021-11-13T09:35:19.121Z</time>
      </trkpt>
      <trkpt lat="47.543527" lon="8.049937">
        <ele>360.587198</ele>
        <time>2021-11-13T09:35:23.859Z</time>
      </trkpt>
      <trkpt lat="47.543707" lon="8.050192">
        <ele>358.457051</ele>
        <time>2021-11-13T09:35:26.033Z</time>
      </trkpt>
      <trkpt lat="47.543727" lon="8.050310">
        <ele>357.754643</ele>
        <time>2021-11-13T09:35:26.896Z</time>
      </trkpt>
      <trkpt lat="47.543814" lon="8.050409">
        <ele>356.816363</ele>
        <time>2021-11-13T09:35:27.808Z</time>
      </trkpt>
      <trkpt lat="47.544563" lon="8.050992">
        <ele>349.339214</ele>
        <time>2021-11-13T09:35:35.014Z</time>
      </trkpt>
      <trkpt lat="47.545273" lon="8.051296">
        <ele>341.557752</ele>
        <time>2021-11-13T09:35:41.212Z</time>
      </trkpt>
      <trkpt lat="47.545750" lon="8.051406">
        <ele>336.474998</ele>
        <time>2021-11-13T09:35:45.366Z</time>
      </trkpt>
      <trkpt lat="47.545930" lon="8.051448">
        <ele>334.556438</ele>
        <time>2021-11-13T09:35:46.919Z</time>
      </trkpt>
      <trkpt lat="47.546837" lon="8.051463">
        <ele>329.326482</ele>
        <time>2021-11-13T09:35:55.166Z</time>
      </trkpt>
      <trkpt lat="47.547714" lon="8.051557">
        <ele>326.058264</ele>
        <time>2021-11-13T09:36:04.411Z</time>
      </trkpt>
      <trkpt lat="47.548185" lon="8.051677">
        <ele>324.939472</ele>
        <time>2021-11-13T09:36:11.197Z</time>
      </trkpt>
      <trkpt lat="47.548744" lon="8.051887">
        <ele>324.762961</ele>
        <time>2021-11-13T09:36:19.453Z</time>
      </trkpt>
      <trkpt lat="47.549149" lon="8.052064">
        <ele>324.633720</ele>
        <time>2021-11-13T09:36:25.446Z</time>
      </trkpt>
      <trkpt lat="47.549738" lon="8.052404">
        <ele>324.448116</ele>
        <time>2021-11-13T09:36:34.372Z</time>
      </trkpt>
      <trkpt lat="47.550740" lon="8.052995">
        <ele>324.454877</ele>
        <time>2021-11-13T09:36:49.683Z</time>
      </trkpt>
      <trkpt lat="47.550973" lon="8.053161">
        <ele>324.456498</ele>
        <time>2021-11-13T09:36:53.777Z</time>
      </trkpt>
      <trkpt lat="47.551303" lon="8.053465">
        <ele>324.458934</ele>
        <time>2021-11-13T09:36:59.939Z</time>
      </trkpt>
      <trkpt lat="47.551306" lon="8.053467">
        <ele>324.458955</ele>
        <time>2021-11-13T09:37:00.047Z</time>
      </trkpt>
      <trkpt lat="47.551894" lon="8.054228">
        <ele>324.677737</ele>
        <time>2021-11-13T09:37:12.540Z</time>
      </trkpt>
      <trkpt lat="47.552120" lon="8.054543">
        <ele>324.769829</ele>
        <time>2021-11-13T09:37:17.840Z</time>
      </trkpt>
      <trkpt lat="47.552487" lon="8.054973">
        <ele>324.908696</ele>
        <time>2021-11-13T09:37:25.435Z</time>
      </trkpt>
      <trkpt lat="47.552622" lon="8.055105">
        <ele>324.956702</ele>
        <time>2021-11-13T09:37:28.005Z</time>
      </trkpt>
      <trkpt lat="47.552751" lon="8.055232">
        <ele>324.990687</ele>
        <time>2021-11-13T09:37:30.481Z</time>
      </trkpt>
      <trkpt lat="47.553934" lon="8.056292">
        <ele>324.888797</ele>
        <time>2021-11-13T09:37:50.520Z</time>
      </trkpt>
      <trkpt lat="47.553955" lon="8.056423">
        <ele>324.882100</ele>
        <time>2021-11-13T09:37:51.787Z</time>
      </trkpt>
      <trkpt lat="47.553918" lon="8.056534">
        <ele>324.875942</ele>
        <time>2021-11-13T09:37:52.980Z</time>
      </trkpt>
      <trkpt lat="47.553951" lon="8.056569">
        <ele>324.872952</ele>
        <time>2021-11-13T09:37:53.616Z</time>
      </trkpt>
      <trkpt lat="47.554076" lon="8.056308">
        <ele>324.830543</ele>
        <time>2021-11-13T09:37:56.588Z</time>
      </trkpt>
      <trkpt lat="47.554427" lon="8.056633">
        <ele>324.567711</ele>
        <time>2021-11-13T09:38:02.337Z</time>
      </trkpt>
      <trkpt lat="47.555655" lon="8.057811">
        <ele>323.550186</ele>
        <time>2021-11-13T09:38:21.064Z</time>
      </trkpt>
      <trkpt lat="47.555706" lon="8.057851">
        <ele>323.472763</ele>
        <time>2021-11-13T09:38:21.695Z</time>
      </trkpt>
      <trkpt lat="47.555845" lon="8.057959">
        <ele>323.262179</ele>
        <time>2021-11-13T09:38:23.581Z</time>
      </trkpt>
      <trkpt lat="47.555950" lon="8.058038">
        <ele>323.104178</ele>
        <time>2021-11-13T09:38:25.133Z</time>
      </trkpt>
      <trkpt lat="47.556038" lon="8.058094">
        <ele>322.975678</ele>
        <time>2021-11-13T09:38:26.171Z</time>
      </trkpt>
      <trkpt lat="47.556114" lon="8.058137">
        <ele>322.866526</ele>
        <time>2021-11-13T09:38:27.048Z</time>
      </trkpt>
      <trkpt lat="47.556243" lon="8.058197">
        <ele>322.685118</ele>
        <time>2021-11-13T09:38:28.701Z</time>
      </trkpt>
      <trkpt lat="47.556650" lon="8.058347">
        <ele>322.122399</ele>
        <time>2021-11-13T09:38:33.522Z</time>
      </trkpt>
      <trkpt lat="47.556854" lon="8.058408">
        <ele>321.843170</ele>
        <time>2021-11-13T09:38:35.774Z</time>
      </trkpt>
      <trkpt lat="47.557401" lon="8.058403">
        <ele>321.191137</ele>
        <time>2021-11-13T09:38:42.280Z</time>
      </trkpt>
      <trkpt lat="47.557498" lon="8.058378">
        <ele>321.114286</ele>
        <time>2021-11-13T09:38:43.325Z</time>
      </trkpt>
      <trkpt lat="47.557861" lon="8.058282">
        <ele>320.826466</ele>
        <time>2021-11-13T09:38:47.732Z</time>
      </trkpt>
      <trkpt lat="47.557986" lon="8.058487">
        <ele>320.680931</ele>
        <time>2021-11-13T09:38:50.204Z</time>
      </trkpt>
      <trkpt lat="47.558135" lon="8.058789">
        <ele>320.483871</ele>
        <time>2021-11-13T09:38:53.223Z</time>
      </trkpt>
      <trkpt lat="47.558705" lon="8.059935">
        <ele>319.941116</ele>
        <time>2021-11-13T09:39:06.377Z</time>
      </trkpt>
      <trkpt lat="47.559127" lon="8.060780">
        <ele>320.073625</ele>
        <time>2021-11-13T09:39:17.894Z</time>
      </trkpt>
      <trkpt lat="47.559315" lon="8.061147">
        <ele>320.131705</ele>
        <time>2021-11-13T09:39:22.911Z</time>
      </trkpt>
      <trkpt lat="47.559454" lon="8.061437">
        <ele>320.176543</ele>
        <time>2021-11-13T09:39:26.770Z</time>
      </trkpt>
      <trkpt lat="47.559486" lon="8.061505">
        <ele>320.186992</ele>
        <time>2021-11-13T09:39:27.681Z</time>
      </trkpt>
      <trkpt lat="47.559532" lon="8.061606">
        <ele>320.202352</ele>
        <time>2021-11-13T09:39:28.966Z</time>
      </trkpt>
      <trkpt lat="47.559623" lon="8.061812">
        <ele>320.233387</ele>
        <time>2021-11-13T09:39:31.586Z</time>
      </trkpt>
      <trkpt lat="47.559747" lon="8.061982">
        <ele>320.263918</ele>
        <time>2021-11-13T09:39:34.287Z</time>
      </trkpt>
      <trkpt lat="47.559896" lon="8.062191">
        <ele>320.300833</ele>
        <time>2021-11-13T09:39:37.440Z</time>
      </trkpt>
      <trkpt lat="47.560225" lon="8.062994">
        <ele>320.414896</ele>
        <time>2021-11-13T09:39:47.458Z</time>
      </trkpt>
      <trkpt lat="47.560335" lon="8.063169">
        <ele>320.443934</ele>
        <time>2021-11-13T09:39:49.968Z</time>
      </trkpt>
      <trkpt lat="47.560392" lon="8.063300">
        <ele>320.462860</ele>
        <time>2021-11-13T09:39:51.580Z</time>
      </trkpt>
      <trkpt lat="47.560719" lon="8.063873">
        <ele>320.553975</ele>
        <time>2021-11-13T09:39:59.502Z</time>
      </trkpt>
      <trkpt lat="47.560806" lon="8.064037">
        <ele>320.549547</ele>
        <time>2021-11-13T09:40:01.536Z</time>
      </trkpt>
      <trkpt lat="47.560887" lon="8.064271">
        <ele>320.530364</ele>
        <time>2021-11-13T09:40:04.278Z</time>
      </trkpt>
      <trkpt lat="47.561017" lon="8.064820">
        <ele>320.487926</ele>
        <time>2021-11-13T09:40:09.946Z</time>
      </trkpt>
      <trkpt lat="47.561108" lon="8.065242">
        <ele>320.455611</ele>
        <time>2021-11-13T09:40:14.066Z</time>
      </trkpt>
      <trkpt lat="47.561253" lon="8.066385">
        <ele>320.370780</ele>
        <time>2021-11-13T09:40:25.059Z</time>
      </trkpt>
      <trkpt lat="47.561276" lon="8.067022">
        <ele>320.679340</ele>
        <time>2021-11-13T09:40:31.311Z</time>
      </trkpt>
      <trkpt lat="47.561265" lon="8.067435">
        <ele>320.903799</ele>
        <time>2021-11-13T09:40:35.693Z</time>
      </trkpt>
      <trkpt lat="47.561229" lon="8.067903">
        <ele>321.159597</ele>
        <time>2021-11-13T09:40:41.437Z</time>
      </trkpt>
      <trkpt lat="47.561187" lon="8.068256">
        <ele>321.354255</ele>
        <time>2021-11-13T09:40:45.843Z</time>
      </trkpt>
      <trkpt lat="47.561130" lon="8.068650">
        <ele>321.573084</ele>
        <time>2021-11-13T09:40:51.086Z</time>
      </trkpt>
      <trkpt lat="47.560998" lon="8.069237">
        <ele>322.082205</ele>
        <time>2021-11-13T09:41:00.233Z</time>
      </trkpt>
      <trkpt lat="47.560904" lon="8.069780">
        <ele>322.939616</ele>
        <time>2021-11-13T09:41:09.193Z</time>
      </trkpt>
      <trkpt lat="47.560864" lon="8.070015">
        <ele>323.310306</ele>
        <time>2021-11-13T09:41:13.225Z</time>
      </trkpt>
      <trkpt lat="47.560739" lon="8.070551">
        <ele>324.177696</ele>
        <time>2021-11-13T09:41:22.839Z</time>
      </trkpt>
      <trkpt lat="47.560584" lon="8.070919">
        <ele>324.841197</ele>
        <time>2021-11-13T09:41:30.152Z</time>
      </trkpt>
      <trkpt lat="47.560553" lon="8.071099">
        <ele>325.125334</ele>
        <time>2021-11-13T09:41:33.344Z</time>
      </trkpt>
      <trkpt lat="47.560524" lon="8.071179">
        <ele>325.264232</ele>
        <time>2021-11-13T09:41:35.104Z</time>
      </trkpt>
      <trkpt lat="47.560318" lon="8.072316">
        <ele>326.781149</ele>
        <time>2021-11-13T09:41:54.005Z</time>
      </trkpt>
      <trkpt lat="47.559811" lon="8.074398">
        <ele>329.306887</ele>
        <time>2021-11-13T09:42:24.845Z</time>
      </trkpt>
      <trkpt lat="47.559426" lon="8.075372">
        <ele>330.466976</ele>
        <time>2021-11-13T09:42:40.295Z</time>
      </trkpt>
      <trkpt lat="47.559046" lon="8.076086">
        <ele>331.401528</ele>
        <time>2021-11-13T09:42:53.319Z</time>
      </trkpt>
      <trkpt lat="47.558613" lon="8.076826">
        <ele>332.342522</ele>
        <time>2021-11-13T09:43:07.902Z</time>
      </trkpt>
      <trkpt lat="47.557793" lon="8.078299">
        <ele>334.117455</ele>
        <time>2021-11-13T09:43:35.660Z</time>
      </trkpt>
      <trkpt lat="47.557256" lon="8.079416">
        <ele>332.734247</ele>
        <time>2021-11-13T09:43:47.508Z</time>
      </trkpt>
      <trkpt lat="47.557099" lon="8.079786">
        <ele>332.235519</ele>
        <time>2021-11-13T09:43:50.746Z</time>
      </trkpt>
      <trkpt lat="47.556853" lon="8.080477">
        <ele>331.344032</ele>
        <time>2021-11-13T09:43:56.132Z</time>
      </trkpt>
      <trkpt lat="47.556470" lon="8.081563">
        <ele>327.714814</ele>
        <time>2021-11-13T09:44:04.147Z</time>
      </trkpt>
      <trkpt lat="47.556083" lon="8.083354">
        <ele>321.618380</ele>
        <time>2021-11-13T09:44:15.951Z</time>
      </trkpt>
      <trkpt lat="47.555956" lon="8.084115">
        <ele>319.076231</ele>
        <time>2021-11-13T09:44:20.954Z</time>
      </trkpt>
      <trkpt lat="47.555899" lon="8.084472">
        <ele>317.886570</ele>
        <time>2021-11-13T09:44:23.274Z</time>
      </trkpt>
      <trkpt lat="47.555764" lon="8.085769">
        <ele>313.760805</ele>
        <time>2021-11-13T09:44:31.738Z</time>
      </trkpt>
      <trkpt lat="47.555733" lon="8.086819">
        <ele>312.163606</ele>
        <time>2021-11-13T09:44:38.667Z</time>
      </trkpt>
      <trkpt lat="47.555737" lon="8.087083">
        <ele>311.762307</ele>
        <time>2021-11-13T09:44:40.465Z</time>
      </trkpt>
      <trkpt lat="47.555780" lon="8.087557">
        <ele>311.035496</ele>
        <time>2021-11-13T09:44:43.955Z</time>
      </trkpt>
      <trkpt lat="47.555809" lon="8.087783">
        <ele>310.685893</ele>
        <time>2021-11-13T09:44:46.390Z</time>
      </trkpt>
      <trkpt lat="47.555829" lon="8.087941">
        <ele>310.441596</ele>
        <time>2021-11-13T09:44:47.987Z</time>
      </trkpt>
      <trkpt lat="47.555887" lon="8.088299">
        <ele>309.882091</ele>
        <time>2021-11-13T09:44:51.551Z</time>
      </trkpt>
      <trkpt lat="47.555939" lon="8.088552">
        <ele>310.343049</ele>
        <time>2021-11-13T09:44:54.347Z</time>
      </trkpt>
      <trkpt lat="47.555991" lon="8.088778">
        <ele>310.887640</ele>
        <time>2021-11-13T09:44:57.782Z</time>
      </trkpt>
      <trkpt lat="47.555997" lon="8.088801">
        <ele>310.943881</ele>
        <time>2021-11-13T09:44:58.375Z</time>
      </trkpt>
      <trkpt lat="47.556065" lon="8.089084">
        <ele>311.629032</ele>
        <time>2021-11-13T09:45:02.667Z</time>
      </trkpt>
      <trkpt lat="47.556111" lon="8.089266">
        <ele>312.072289</ele>
        <time>2021-11-13T09:45:06.475Z</time>
      </trkpt>
      <trkpt lat="47.556151" lon="8.089459">
        <ele>312.532769</ele>
        <time>2021-11-13T09:45:11.118Z</time>
      </trkpt>
      <trkpt lat="47.556137" lon="8.089730">
        <ele>313.152666</ele>
        <time>2021-11-13T09:45:16.336Z</time>
      </trkpt>
      <trkpt lat="47.556110" lon="8.089809">
        <ele>313.354636</ele>
        <time>2021-11-13T09:45:18.608Z</time>
      </trkpt>
      <trkpt lat="47.556193" lon="8.089926">
        <ele>313.741795</ele>
        <time>2021-11-13T09:45:22.585Z</time>
      </trkpt>
      <trkpt lat="47.556259" lon="8.090058">
        <ele>314.116483</ele>
        <time>2021-11-13T09:45:25.628Z</time>
      </trkpt>
      <trkpt lat="47.556527" lon="8.090721">
        <ele>315.879131</ele>
        <time>2021-11-13T09:45:43.884Z</time>
      </trkpt>
      <trkpt lat="47.556692" lon="8.091113">
        <ele>317.329201</ele>
        <time>2021-11-13T09:45:55.667Z</time>
      </trkpt>
      <trkpt lat="47.556850" lon="8.091457">
        <ele>318.643836</ele>
        <time>2021-11-13T09:46:06.176Z</time>
      </trkpt>
      <trkpt lat="47.557677" lon="8.092776">
        <ele>324.330412</ele>
        <time>2021-11-13T09:46:46.229Z</time>
      </trkpt>
      <trkpt lat="47.558531" lon="8.094661">
        <ele>330.140292</ele>
        <time>2021-11-13T09:47:29.412Z</time>
      </trkpt>
      <trkpt lat="47.558776" lon="8.095210">
        <ele>332.114530</ele>
        <time>2021-11-13T09:47:43.750Z</time>
      </trkpt>
      <trkpt lat="47.558857" lon="8.095293">
        <ele>332.647204</ele>
        <time>2021-11-13T09:47:48.573Z</time>
      </trkpt>
      <trkpt lat="47.558983" lon="8.095482">
        <ele>333.616954</ele>
        <time>2021-11-13T09:47:55.309Z</time>
      </trkpt>
      <trkpt lat="47.559606" lon="8.096837">
        <ele>339.601728</ele>
        <time>2021-11-13T09:48:44.253Z</time>
      </trkpt>
      <trkpt lat="47.560171" lon="8.097877">
        <ele>342.957342</ele>
        <time>2021-11-13T09:49:22.048Z</time>
      </trkpt>
      <trkpt lat="47.560787" lon="8.098864">
        <ele>345.796649</ele>
        <time>2021-11-13T09:49:50.295Z</time>
      </trkpt>
      <trkpt lat="47.561466" lon="8.099697">
        <ele>345.047177</ele>
        <time>2021-11-13T09:50:06.585Z</time>
      </trkpt>
      <trkpt lat="47.562207" lon="8.100413">
        <ele>343.084582</ele>
        <time>2021-11-13T09:50:19.177Z</time>
      </trkpt>
      <trkpt lat="47.563031" lon="8.100935">
        <ele>340.642778</ele>
        <time>2021-11-13T09:50:32.080Z</time>
      </trkpt>
      <trkpt lat="47.563202" lon="8.101042">
        <ele>340.098991</ele>
        <time>2021-11-13T09:50:34.667Z</time>
      </trkpt>
      <trkpt lat="47.564165" lon="8.101615">
        <ele>337.127526</ele>
        <time>2021-11-13T09:50:45.629Z</time>
      </trkpt>
      <trkpt lat="47.565727" lon="8.102512">
        <ele>334.052991</ele>
        <time>2021-11-13T09:51:04.817Z</time>
      </trkpt>
      <trkpt lat="47.566684" lon="8.102974">
        <ele>331.600273</ele>
        <time>2021-11-13T09:51:15.418Z</time>
      </trkpt>
      <trkpt lat="47.567683" lon="8.103272">
        <ele>329.091213</ele>
        <time>2021-11-13T09:51:26.038Z</time>
      </trkpt>
      <trkpt lat="47.569557" lon="8.103677">
        <ele>324.215392</ele>
        <time>2021-11-13T09:51:46.286Z</time>
      </trkpt>
      <trkpt lat="47.569953" lon="8.103767">
        <ele>322.731136</ele>
        <time>2021-11-13T09:51:50.614Z</time>
      </trkpt>
      <trkpt lat="47.570159" lon="8.103813">
        <ele>321.959330</ele>
        <time>2021-11-13T09:51:52.645Z</time>
      </trkpt>
      <trkpt lat="47.570286" lon="8.103898">
        <ele>321.443072</ele>
        <time>2021-11-13T09:51:54.029Z</time>
      </trkpt>
      <trkpt lat="47.570517" lon="8.104111">
        <ele>320.435164</ele>
        <time>2021-11-13T09:51:56.591Z</time>
      </trkpt>
      <trkpt lat="47.570786" lon="8.104202">
        <ele>319.412940</ele>
        <time>2021-11-13T09:51:59.183Z</time>
      </trkpt>
      <trkpt lat="47.570863" lon="8.104203">
        <ele>319.127658</ele>
        <time>2021-11-13T09:51:59.938Z</time>
      </trkpt>
      <trkpt lat="47.571016" lon="8.104322">
        <ele>318.493970</ele>
        <time>2021-11-13T09:52:01.619Z</time>
      </trkpt>
      <trkpt lat="47.571140" lon="8.104418">
        <ele>318.079132</ele>
        <time>2021-11-13T09:52:02.908Z</time>
      </trkpt>
      <trkpt lat="47.571149" lon="8.104460">
        <ele>317.990969</ele>
        <time>2021-11-13T09:52:03.224Z</time>
      </trkpt>
      <trkpt lat="47.571165" lon="8.104498">
        <ele>317.901356</ele>
        <time>2021-11-13T09:52:03.563Z</time>
      </trkpt>
      <trkpt lat="47.571190" lon="8.104530">
        <ele>317.803405</ele>
        <time>2021-11-13T09:52:03.880Z</time>
      </trkpt>
      <trkpt lat="47.571252" lon="8.104556">
        <ele>317.612339</ele>
        <time>2021-11-13T09:52:04.523Z</time>
      </trkpt>
      <trkpt lat="47.571285" lon="8.104547">
        <ele>317.512840</ele>
        <time>2021-11-13T09:52:04.838Z</time>
      </trkpt>
      <trkpt lat="47.571319" lon="8.104520">
        <ele>317.398461</ele>
        <time>2021-11-13T09:52:05.202Z</time>
      </trkpt>
      <trkpt lat="47.571345" lon="8.104476">
        <ele>317.281444</ele>
        <time>2021-11-13T09:52:05.565Z</time>
      </trkpt>
      <trkpt lat="47.571404" lon="8.104462">
        <ele>317.104263</ele>
        <time>2021-11-13T09:52:06.105Z</time>
      </trkpt>
      <trkpt lat="47.571506" lon="8.104457">
        <ele>316.801635</ele>
        <time>2021-11-13T09:52:07.149Z</time>
      </trkpt>
      <trkpt lat="47.571606" lon="8.104456">
        <ele>316.505096</ele>
        <time>2021-11-13T09:52:08.126Z</time>
      </trkpt>
      <trkpt lat="47.571788" lon="8.104486">
        <ele>315.962081</ele>
        <time>2021-11-13T09:52:09.830Z</time>
      </trkpt>
      <trkpt lat="47.572479" lon="8.104559">
        <ele>313.907847</ele>
        <time>2021-11-13T09:52:17.214Z</time>
      </trkpt>
      <trkpt lat="47.573291" lon="8.104448">
        <ele>313.979117</ele>
        <time>2021-11-13T09:52:28.730Z</time>
      </trkpt>
      <trkpt lat="47.573366" lon="8.104434">
        <ele>314.083872</ele>
        <time>2021-11-13T09:52:31.134Z</time>
      </trkpt>
      <trkpt lat="47.573446" lon="8.104418">
        <ele>314.195740</ele>
        <time>2021-11-13T09:52:33.290Z</time>
      </trkpt>
      <trkpt lat="47.573480" lon="8.104411">
        <ele>314.243309</ele>
        <time>2021-11-13T09:52:34.125Z</time>
      </trkpt>
      <trkpt lat="47.573668" lon="8.104380">
        <ele>314.505444</ele>
        <time>2021-11-13T09:52:38.124Z</time>
      </trkpt>
      <trkpt lat="47.573831" lon="8.104354">
        <ele>314.732632</ele>
        <time>2021-11-13T09:52:42.773Z</time>
      </trkpt>
      <trkpt lat="47.574232" lon="8.104312">
        <ele>315.289718</ele>
        <time>2021-11-13T09:52:52.487Z</time>
      </trkpt>
      <trkpt lat="47.574708" lon="8.104323">
        <ele>315.830359</ele>
        <time>2021-11-13T09:53:03.598Z</time>
      </trkpt>
      <trkpt lat="47.574899" lon="8.104362">
        <ele>315.979975</ele>
        <time>2021-11-13T09:53:08.993Z</time>
      </trkpt>
      <trkpt lat="47.575253" lon="8.104463">
        <ele>316.259723</ele>
        <time>2021-11-13T09:53:16.157Z</time>
      </trkpt>
      <trkpt lat="47.576181" lon="8.104949">
        <ele>317.023478</ele>
        <time>2021-11-13T09:53:30.719Z</time>
      </trkpt>
      <trkpt lat="47.576601" lon="8.105189">
        <ele>317.097311</ele>
        <time>2021-11-13T09:53:36.591Z</time>
      </trkpt>
      <trkpt lat="47.576841" lon="8.105315">
        <ele>317.112371</ele>
        <time>2021-11-13T09:53:39.967Z</time>
      </trkpt>
      <trkpt lat="47.577500" lon="8.105730">
        <ele>317.154722</ele>
        <time>2021-11-13T09:53:50.446Z</time>
      </trkpt>
      <trkpt lat="47.578068" lon="8.106263">
        <ele>317.527460</ele>
        <time>2021-11-13T09:54:01.958Z</time>
      </trkpt>
      <trkpt lat="47.578187" lon="8.106429">
        <ele>317.775267</ele>
        <time>2021-11-13T09:54:05.163Z</time>
      </trkpt>
      <trkpt lat="47.578335" lon="8.106654">
        <ele>318.096763</ele>
        <time>2021-11-13T09:54:09.320Z</time>
      </trkpt>
      <trkpt lat="47.579759" lon="8.109482">
        <ele>322.171419</ele>
        <time>2021-11-13T09:55:02.777Z</time>
      </trkpt>
      <trkpt lat="47.579823" lon="8.109617">
        <ele>322.383815</ele>
        <time>2021-11-13T09:55:05.591Z</time>
      </trkpt>
      <trkpt lat="47.579991" lon="8.109948">
        <ele>322.917018</ele>
        <time>2021-11-13T09:55:11.566Z</time>
      </trkpt>
      <trkpt lat="47.580212" lon="8.110399">
        <ele>323.682180</ele>
        <time>2021-11-13T09:55:19.748Z</time>
      </trkpt>
      <trkpt lat="47.580364" lon="8.110708">
        <ele>324.254280</ele>
        <time>2021-11-13T09:55:25.559Z</time>
      </trkpt>
      <trkpt lat="47.580670" lon="8.111332">
        <ele>325.408343</ele>
        <time>2021-11-13T09:55:37.446Z</time>
      </trkpt>
      <trkpt lat="47.581045" lon="8.112180">
        <ele>326.925184</ele>
        <time>2021-11-13T09:55:53.745Z</time>
      </trkpt>
      <trkpt lat="47.581182" lon="8.112552">
        <ele>327.671364</ele>
        <time>2021-11-13T09:56:01.187Z</time>
      </trkpt>
      <trkpt lat="47.581277" lon="8.112870">
        <ele>328.445866</ele>
        <time>2021-11-13T09:56:07.618Z</time>
      </trkpt>
      <trkpt lat="47.581391" lon="8.113276">
        <ele>329.425196</ele>
        <time>2021-11-13T09:56:16.551Z</time>
      </trkpt>
      <trkpt lat="47.581427" lon="8.113428">
        <ele>329.783944</ele>
        <time>2021-11-13T09:56:19.662Z</time>
      </trkpt>
      <trkpt lat="47.581503" lon="8.113781">
        <ele>330.609112</ele>
        <time>2021-11-13T09:56:27.118Z</time>
      </trkpt>
      <trkpt lat="47.581610" lon="8.114392">
        <ele>332.014856</ele>
        <time>2021-11-13T09:56:39.439Z</time>
      </trkpt>
      <trkpt lat="47.581698" lon="8.115075">
        <ele>333.483300</ele>
        <time>2021-11-13T09:56:52.479Z</time>
      </trkpt>
      <trkpt lat="47.581747" lon="8.115421">
        <ele>334.057518</ele>
        <time>2021-11-13T09:56:58.951Z</time>
      </trkpt>
      <trkpt lat="47.581851" lon="8.116146">
        <ele>335.261379</ele>
        <time>2021-11-13T09:57:11.613Z</time>
      </trkpt>
      <trkpt lat="47.582058" lon="8.118074">
        <ele>338.773085</ele>
        <time>2021-11-13T09:57:40.605Z</time>
      </trkpt>
      <trkpt lat="47.581997" lon="8.119489">
        <ele>342.017571</ele>
        <time>2021-11-13T09:58:07.819Z</time>
      </trkpt>
      <trkpt lat="47.581925" lon="8.120891">
        <ele>344.802195</ele>
        <time>2021-11-13T09:58:40.171Z</time>
      </trkpt>
      <trkpt lat="47.581872" lon="8.121939">
        <ele>346.528917</ele>
        <time>2021-11-13T09:59:00.779Z</time>
      </trkpt>
      <trkpt lat="47.581853" lon="8.122293">
        <ele>347.112386</ele>
        <time>2021-11-13T09:59:06.521Z</time>
      </trkpt>
      <trkpt lat="47.581616" lon="8.126107">
        <ele>344.421312</ele>
        <time>2021-11-13T09:59:36.131Z</time>
      </trkpt>
      <trkpt lat="47.581682" lon="8.126961">
        <ele>342.958736</ele>
        <time>2021-11-13T09:59:41.725Z</time>
      </trkpt>
      <trkpt lat="47.581995" lon="8.128036">
        <ele>340.966520</ele>
        <time>2021-11-13T09:59:50.063Z</time>
      </trkpt>
      <trkpt lat="47.582054" lon="8.128175">
        <ele>340.905333</ele>
        <time>2021-11-13T09:59:51.251Z</time>
      </trkpt>
      <trkpt lat="47.582271" lon="8.128732">
        <ele>341.184473</ele>
        <time>2021-11-13T09:59:57.257Z</time>
      </trkpt>
      <trkpt lat="47.582333" lon="8.128926">
        <ele>341.277634</ele>
        <time>2021-11-13T09:59:59.903Z</time>
      </trkpt>
      <trkpt lat="47.582383" lon="8.129121">
        <ele>341.368165</ele>
        <time>2021-11-13T10:00:01.855Z</time>
      </trkpt>
      <trkpt lat="47.582452" lon="8.129518">
        <ele>341.546076</ele>
        <time>2021-11-13T10:00:07.393Z</time>
      </trkpt>
      <trkpt lat="47.582476" lon="8.129918">
        <ele>341.720347</ele>
        <time>2021-11-13T10:00:12.898Z</time>
      </trkpt>
      <trkpt lat="47.582502" lon="8.130347">
        <ele>341.907267</ele>
        <time>2021-11-13T10:00:19.366Z</time>
      </trkpt>
      <trkpt lat="47.582401" lon="8.132729">
        <ele>343.691661</ele>
        <time>2021-11-13T10:00:58.882Z</time>
      </trkpt>
      <trkpt lat="47.582405" lon="8.133220">
        <ele>344.077247</ele>
        <time>2021-11-13T10:01:02.769Z</time>
      </trkpt>
      <trkpt lat="47.582445" lon="8.133813">
        <ele>342.429389</ele>
        <time>2021-11-13T10:01:06.998Z</time>
      </trkpt>
      <trkpt lat="47.582702" lon="8.135441">
        <ele>337.329526</ele>
        <time>2021-11-13T10:01:17.637Z</time>
      </trkpt>
      <trkpt lat="47.583161" lon="8.137044">
        <ele>330.226349</ele>
        <time>2021-11-13T10:01:28.189Z</time>
      </trkpt>
      <trkpt lat="47.583437" lon="8.137880">
        <ele>326.103341</ele>
        <time>2021-11-13T10:01:33.905Z</time>
      </trkpt>
      <trkpt lat="47.583514" lon="8.138100">
        <ele>325.005427</ele>
        <time>2021-11-13T10:01:35.472Z</time>
      </trkpt>
      <trkpt lat="47.583879" lon="8.139148">
        <ele>320.287367</ele>
        <time>2021-11-13T10:01:42.628Z</time>
      </trkpt>
      <trkpt lat="47.584040" lon="8.139585">
        <ele>318.336431</ele>
        <time>2021-11-13T10:01:45.752Z</time>
      </trkpt>
      <trkpt lat="47.584156" lon="8.139467">
        <ele>317.519263</ele>
        <time>2021-11-13T10:01:47.011Z</time>
      </trkpt>
      <trkpt lat="47.584278" lon="8.139277">
        <ele>316.491467</ele>
        <time>2021-11-13T10:01:48.763Z</time>
      </trkpt>
      <trkpt lat="47.584308" lon="8.139232">
        <ele>316.243571</ele>
        <time>2021-11-13T10:01:49.141Z</time>
      </trkpt>
      <trkpt lat="47.584365" lon="8.139157">
        <ele>315.800884</ele>
        <time>2021-11-13T10:01:49.816Z</time>
      </trkpt>
      <trkpt lat="47.584557" lon="8.139005">
        <ele>314.536569</ele>
        <time>2021-11-13T10:01:51.998Z</time>
      </trkpt>
      <trkpt lat="47.584806" lon="8.138964">
        <ele>313.339043</ele>
        <time>2021-11-13T10:01:54.331Z</time>
      </trkpt>
      <trkpt lat="47.585340" lon="8.139503">
        <ele>311.103618</ele>
        <time>2021-11-13T10:02:00.452Z</time>
      </trkpt>
      <trkpt lat="47.585467" lon="8.139649">
        <ele>310.547516</ele>
        <time>2021-11-13T10:02:02.056Z</time>
      </trkpt>
      <trkpt lat="47.585520" lon="8.139610">
        <ele>310.342770</ele>
        <time>2021-11-13T10:02:02.647Z</time>
      </trkpt>
      <trkpt lat="47.586064" lon="8.139426">
        <ele>308.411966</ele>
        <time>2021-11-13T10:02:08.417Z</time>
      </trkpt>
      <trkpt lat="47.586400" lon="8.139320">
        <ele>307.444050</ele>
        <time>2021-11-13T10:02:12.247Z</time>
      </trkpt>
      <trkpt lat="47.586494" lon="8.139309">
        <ele>307.383010</ele>
        <time>2021-11-13T10:02:13.217Z</time>
      </trkpt>
      <trkpt lat="47.588355" lon="8.138811">
        <ele>306.532215</ele>
        <time>2021-11-13T10:02:39.082Z</time>
      </trkpt>
      <trkpt lat="47.588762" lon="8.138925">
        <ele>306.847225</ele>
        <time>2021-11-13T10:02:46.495Z</time>
      </trkpt>
      <trkpt lat="47.588849" lon="8.139014">
        <ele>306.927611</ele>
        <time>2021-11-13T10:02:48.627Z</time>
      </trkpt>
      <trkpt lat="47.588921" lon="8.138996">
        <ele>306.983142</ele>
        <time>2021-11-13T10:02:56.927Z</time>
      </trkpt>
      <trkpt lat="47.588961" lon="8.138999">
        <ele>307.013602</ele>
        <time>2021-11-13T10:03:01.474Z</time>
      </trkpt>
      <trkpt lat="47.588988" lon="8.138979">
        <ele>307.036556</ele>
        <time>2021-11-13T10:03:04.906Z</time>
      </trkpt>
      <trkpt lat="47.589010" lon="8.138950">
        <ele>307.058944</ele>
        <time>2021-11-13T10:03:08.393Z</time>
      </trkpt>
      <trkpt lat="47.589034" lon="8.138899">
        <ele>307.090842</ele>
        <time>2021-11-13T10:03:13.115Z</time>
      </trkpt>
      <trkpt lat="47.589035" lon="8.138792">
        <ele>307.145731</ele>
        <time>2021-11-13T10:03:21.504Z</time>
      </trkpt>
      <trkpt lat="47.589075" lon="8.137452">
        <ele>307.973254</ele>
        <time>2021-11-13T10:03:43.860Z</time>
      </trkpt>
      <trkpt lat="47.589120" lon="8.136200">
        <ele>309.279521</ele>
        <time>2021-11-13T10:04:01.157Z</time>
      </trkpt>
      <trkpt lat="47.589138" lon="8.135853">
        <ele>309.642116</ele>
        <time>2021-11-13T10:04:07.025Z</time>
      </trkpt>
      <trkpt lat="47.589491" lon="8.135869">
        <ele>310.187678</ele>
        <time>2021-11-13T10:04:15.038Z</time>
      </trkpt>
      <trkpt lat="47.589730" lon="8.135855">
        <ele>310.543773</ele>
        <time>2021-11-13T10:04:20.165Z</time>
      </trkpt>
      <trkpt lat="47.589749" lon="8.135792">
        <ele>310.603668</ele>
        <time>2021-11-13T10:04:20.934Z</time>
      </trkpt>
      <trkpt lat="47.589862" lon="8.134673">
        <ele>311.585663</ele>
        <time>2021-11-13T10:04:36.240Z</time>
      </trkpt>
      <trkpt lat="47.589882" lon="8.134609">
        <ele>311.646881</ele>
        <time>2021-11-13T10:04:37.311Z</time>
      </trkpt>
      <trkpt lat="47.589915" lon="8.134585">
        <ele>311.694180</ele>
        <time>2021-11-13T10:04:37.727Z</time>
      </trkpt>
      <trkpt lat="47.590548" lon="8.134710">
        <ele>312.515944</ele>
        <time>2021-11-13T10:04:50.416Z</time>
      </trkpt>
      <trkpt lat="47.590681" lon="8.134711">
        <ele>312.687096</ele>
        <time>2021-11-13T10:04:52.873Z</time>
      </trkpt>
      <trkpt lat="47.590729" lon="8.134772">
        <ele>312.768448</ele>
        <time>2021-11-13T10:04:54.312Z</time>
      </trkpt>
      <trkpt lat="47.591316" lon="8.134958">
        <ele>313.349310</ele>
        <time>2021-11-13T10:05:06.053Z</time>
      </trkpt>
      <trkpt lat="47.591403" lon="8.134907">
        <ele>313.438921</ele>
        <time>2021-11-13T10:05:07.304Z</time>
      </trkpt>
      <trkpt lat="47.591423" lon="8.134826">
        <ele>313.494644</ele>
        <time>2021-11-13T10:05:08.207Z</time>
      </trkpt>
      <trkpt lat="47.591492" lon="8.134487">
        <ele>313.723394</ele>
        <time>2021-11-13T10:05:12.141Z</time>
      </trkpt>
      <trkpt lat="47.591534" lon="8.134213">
        <ele>313.904912</ele>
        <time>2021-11-13T10:05:15.409Z</time>
      </trkpt>
      <trkpt lat="47.591641" lon="8.133972">
        <ele>314.091306</ele>
        <time>2021-11-13T10:05:18.692Z</time>
      </trkpt>
      <trkpt lat="47.592031" lon="8.133513">
        <ele>314.587847</ele>
        <time>2021-11-13T10:05:28.726Z</time>
      </trkpt>
      <trkpt lat="47.592062" lon="8.133399">
        <ele>314.696142</ele>
        <time>2021-11-13T10:05:30.715Z</time>
      </trkpt>
      <trkpt lat="47.592009" lon="8.133338">
        <ele>314.783791</ele>
        <time>2021-11-13T10:05:31.887Z</time>
      </trkpt>
      <trkpt lat="47.592009" lon="8.133338">
        <ele>314.783791</ele>
        <time>2021-11-13T10:05:31.965Z</time>
      </trkpt>
      <trkpt lat="47.592009" lon="8.133338">
        <ele>314.783791</ele>
        <time>2021-11-13T10:05:32.042Z</time>
      </trkpt>
      <trkpt lat="47.591957" lon="8.133278">
        <ele>314.869868</ele>
        <time>2021-11-13T10:05:33.273Z</time>
      </trkpt>
      <trkpt lat="47.591905" lon="8.133207">
        <ele>314.962214</ele>
        <time>2021-11-13T10:05:34.860Z</time>
      </trkpt>
      <trkpt lat="47.591548" lon="8.132722">
        <ele>315.594751</ele>
        <time>2021-11-13T10:05:45.775Z</time>
      </trkpt>
      <trkpt lat="47.591517" lon="8.132683">
        <ele>315.647862</ele>
        <time>2021-11-13T10:05:46.735Z</time>
      </trkpt>
      <trkpt lat="47.591370" lon="8.132496">
        <ele>315.900891</ele>
        <time>2021-11-13T10:05:50.635Z</time>
      </trkpt>
      <trkpt lat="47.591175" lon="8.132110">
        <ele>316.325808</ele>
        <time>2021-11-13T10:05:57.175Z</time>
      </trkpt>
      <trkpt lat="47.591151" lon="8.131993">
        <ele>316.433553</ele>
        <time>2021-11-13T10:05:58.869Z</time>
      </trkpt>
      <trkpt lat="47.591151" lon="8.131993">
        <ele>316.433553</ele>
        <time>2021-11-13T10:05:58.892Z</time>
      </trkpt>
      <trkpt lat="47.591136" lon="8.131905">
        <ele>316.513524</ele>
        <time>2021-11-13T10:06:00.000Z</time>
      </trkpt>
      <trkpt lat="47.591143" lon="8.131579">
        <ele>316.800893</ele>
        <time>2021-11-13T10:06:03.755Z</time>
      </trkpt>
      <trkpt lat="47.591199" lon="8.131358">
        <ele>316.977709</ele>
        <time>2021-11-13T10:06:06.286Z</time>
      </trkpt>
      <trkpt lat="47.591247" lon="8.131227">
        <ele>317.080767</ele>
        <time>2021-11-13T10:06:07.786Z</time>
      </trkpt>
      <trkpt lat="47.591347" lon="8.130977">
        <ele>317.281694</ele>
        <time>2021-11-13T10:06:11.420Z</time>
      </trkpt>
      <trkpt lat="47.591364" lon="8.130933">
        <ele>317.316747</ele>
        <time>2021-11-13T10:06:11.903Z</time>
      </trkpt>
      <trkpt lat="47.591433" lon="8.130739">
        <ele>317.468359</ele>
        <time>2021-11-13T10:06:14.311Z</time>
      </trkpt>
      <trkpt lat="47.591479" lon="8.130581">
        <ele>317.587321</ele>
        <time>2021-11-13T10:06:16.704Z</time>
      </trkpt>
      <trkpt lat="47.591505" lon="8.130439">
        <ele>317.689034</ele>
        <time>2021-11-13T10:06:18.527Z</time>
      </trkpt>
      <trkpt lat="47.591505" lon="8.130232">
        <ele>317.832126</ele>
        <time>2021-11-13T10:06:20.832Z</time>
      </trkpt>
      <trkpt lat="47.591483" lon="8.130025">
        <ele>317.976983</ele>
        <time>2021-11-13T10:06:23.709Z</time>
      </trkpt>
      <trkpt lat="47.591460" lon="8.129923">
        <ele>318.051329</ele>
        <time>2021-11-13T10:06:25.516Z</time>
      </trkpt>
      <trkpt lat="47.591347" lon="8.129594">
        <ele>318.306550</ele>
        <time>2021-11-13T10:06:31.603Z</time>
      </trkpt>
      <trkpt lat="47.591213" lon="8.129277">
        <ele>318.565168</ele>
        <time>2021-11-13T10:06:37.926Z</time>
      </trkpt>
      <trkpt lat="47.590649" lon="8.127923">
        <ele>320.775791</ele>
        <time>2021-11-13T10:07:07.083Z</time>
      </trkpt>
      <trkpt lat="47.590625" lon="8.127864">
        <ele>320.878657</ele>
        <time>2021-11-13T10:07:08.502Z</time>
      </trkpt>
      <trkpt lat="47.590409" lon="8.127398">
        <ele>321.722843</ele>
        <time>2021-11-13T10:07:20.338Z</time>
      </trkpt>
      <trkpt lat="47.589672" lon="8.126374">
        <ele>323.874989</ele>
        <time>2021-11-13T10:07:52.732Z</time>
      </trkpt>
      <trkpt lat="47.589591" lon="8.126262">
        <ele>324.104003</ele>
        <time>2021-11-13T10:07:55.984Z</time>
      </trkpt>
      <trkpt lat="47.589278" lon="8.125788">
        <ele>325.029107</ele>
        <time>2021-11-13T10:08:09.136Z</time>
      </trkpt>
      <trkpt lat="47.589070" lon="8.125392">
        <ele>325.729075</ele>
        <time>2021-11-13T10:08:18.112Z</time>
      </trkpt>
      <trkpt lat="47.589078" lon="8.125315">
        <ele>325.837724</ele>
        <time>2021-11-13T10:08:19.725Z</time>
      </trkpt>
      <trkpt lat="47.589001" lon="8.125276">
        <ele>326.005973</ele>
        <time>2021-11-13T10:08:21.736Z</time>
      </trkpt>
      <trkpt lat="47.588922" lon="8.125160">
        <ele>326.235871</ele>
        <time>2021-11-13T10:08:24.339Z</time>
      </trkpt>
      <trkpt lat="47.588669" lon="8.124663">
        <ele>326.528299</ele>
        <time>2021-11-13T10:08:34.132Z</time>
      </trkpt>
      <trkpt lat="47.588469" lon="8.124106">
        <ele>326.679910</ele>
        <time>2021-11-13T10:08:43.466Z</time>
      </trkpt>
      <trkpt lat="47.588307" lon="8.123639">
        <ele>326.806085</ele>
        <time>2021-11-13T10:08:50.828Z</time>
      </trkpt>
      <trkpt lat="47.588080" lon="8.122981">
        <ele>326.983661</ele>
        <time>2021-11-13T10:09:01.082Z</time>
      </trkpt>
      <trkpt lat="47.587930" lon="8.122557">
        <ele>327.047647</ele>
        <time>2021-11-13T10:09:07.419Z</time>
      </trkpt>
      <trkpt lat="47.587823" lon="8.122266">
        <ele>327.045208</ele>
        <time>2021-11-13T10:09:11.804Z</time>
      </trkpt>
      <trkpt lat="47.587722" lon="8.121983">
        <ele>327.042852</ele>
        <time>2021-11-13T10:09:15.929Z</time>
      </trkpt>
      <trkpt lat="47.587613" lon="8.121661">
        <ele>327.040200</ele>
        <time>2021-11-13T10:09:20.749Z</time>
      </trkpt>
      <trkpt lat="47.587553" lon="8.121454">
        <ele>327.038542</ele>
        <time>2021-11-13T10:09:23.766Z</time>
      </trkpt>
      <trkpt lat="47.587457" lon="8.121156">
        <ele>327.036112</ele>
        <time>2021-11-13T10:09:28.248Z</time>
      </trkpt>
      <trkpt lat="47.587370" lon="8.120885">
        <ele>327.033903</ele>
        <time>2021-11-13T10:09:32.386Z</time>
      </trkpt>
      <trkpt lat="47.587280" lon="8.120590">
        <ele>327.031520</ele>
        <time>2021-11-13T10:09:36.922Z</time>
      </trkpt>
      <trkpt lat="47.587132" lon="8.120084">
        <ele>327.071770</ele>
        <time>2021-11-13T10:09:44.792Z</time>
      </trkpt>
      <trkpt lat="47.587014" lon="8.119573">
        <ele>327.152580</ele>
        <time>2021-11-13T10:09:52.624Z</time>
      </trkpt>
      <trkpt lat="47.586806" lon="8.118601">
        <ele>327.305150</ele>
        <time>2021-11-13T10:10:07.208Z</time>
      </trkpt>
      <trkpt lat="47.586785" lon="8.118468">
        <ele>327.325586</ele>
        <time>2021-11-13T10:10:09.160Z</time>
      </trkpt>
      <trkpt lat="47.586773" lon="8.118379">
        <ele>327.339166</ele>
        <time>2021-11-13T10:10:10.455Z</time>
      </trkpt>
      <trkpt lat="47.586696" lon="8.117684">
        <ele>327.400753</ele>
        <time>2021-11-13T10:10:20.776Z</time>
      </trkpt>
      <trkpt lat="47.586657" lon="8.116185">
        <ele>327.011634</ele>
        <time>2021-11-13T10:10:40.943Z</time>
      </trkpt>
      <trkpt lat="47.586564" lon="8.115669">
        <ele>326.873091</ele>
        <time>2021-11-13T10:10:47.501Z</time>
      </trkpt>
      <trkpt lat="47.586495" lon="8.115468">
        <ele>326.814588</ele>
        <time>2021-11-13T10:10:50.302Z</time>
      </trkpt>
      <trkpt lat="47.586309" lon="8.115027">
        <ele>326.351352</ele>
        <time>2021-11-13T10:10:56.272Z</time>
      </trkpt>
      <trkpt lat="47.586124" lon="8.114616">
        <ele>325.486484</ele>
        <time>2021-11-13T10:11:01.675Z</time>
      </trkpt>
      <trkpt lat="47.586040" lon="8.114419">
        <ele>325.078543</ele>
        <time>2021-11-13T10:11:04.160Z</time>
      </trkpt>
      <trkpt lat="47.585978" lon="8.114276">
        <ele>324.780994</ele>
        <time>2021-11-13T10:11:05.945Z</time>
      </trkpt>
      <trkpt lat="47.585864" lon="8.114008">
        <ele>324.226408</ele>
        <time>2021-11-13T10:11:09.238Z</time>
      </trkpt>
      <trkpt lat="47.585808" lon="8.113882">
        <ele>323.962290</ele>
        <time>2021-11-13T10:11:10.744Z</time>
      </trkpt>
      <trkpt lat="47.585692" lon="8.113619">
        <ele>323.412263</ele>
        <time>2021-11-13T10:11:13.893Z</time>
      </trkpt>
      <trkpt lat="47.585557" lon="8.113319">
        <ele>322.781019</ele>
        <time>2021-11-13T10:11:17.349Z</time>
      </trkpt>
      <trkpt lat="47.585485" lon="8.113157">
        <ele>322.441438</ele>
        <time>2021-11-13T10:11:19.167Z</time>
      </trkpt>
      <trkpt lat="47.585352" lon="8.112867">
        <ele>321.670044</ele>
        <time>2021-11-13T10:11:22.445Z</time>
      </trkpt>
      <trkpt lat="47.585221" lon="8.112571">
        <ele>320.646176</ele>
        <time>2021-11-13T10:11:24.758Z</time>
      </trkpt>
      <trkpt lat="47.585157" lon="8.112429">
        <ele>320.152261</ele>
        <time>2021-11-13T10:11:25.895Z</time>
      </trkpt>
      <trkpt lat="47.585029" lon="8.112132">
        <ele>319.132954</ele>
        <time>2021-11-13T10:11:28.150Z</time>
      </trkpt>
      <trkpt lat="47.584878" lon="8.111799">
        <ele>317.972499</ele>
        <time>2021-11-13T10:11:30.759Z</time>
      </trkpt>
      <trkpt lat="47.584806" lon="8.111649">
        <ele>317.440056</ele>
        <time>2021-11-13T10:11:31.928Z</time>
      </trkpt>
      <trkpt lat="47.584716" lon="8.111496">
        <ele>316.852937</ele>
        <time>2021-11-13T10:11:33.268Z</time>
      </trkpt>
      <trkpt lat="47.584579" lon="8.111319">
        <ele>316.073773</ele>
        <time>2021-11-13T10:11:34.983Z</time>
      </trkpt>
      <trkpt lat="47.584099" lon="8.110752">
        <ele>314.426175</ele>
        <time>2021-11-13T10:11:40.880Z</time>
      </trkpt>
      <trkpt lat="47.584050" lon="8.110692">
        <ele>314.446749</ele>
        <time>2021-11-13T10:11:41.487Z</time>
      </trkpt>
      <trkpt lat="47.583872" lon="8.110453">
        <ele>314.524494</ele>
        <time>2021-11-13T10:11:43.905Z</time>
      </trkpt>
      <trkpt lat="47.583574" lon="8.109890">
        <ele>314.680767</ele>
        <time>2021-11-13T10:11:49.629Z</time>
      </trkpt>
      <trkpt lat="47.583498" lon="8.109663">
        <ele>314.736106</ele>
        <time>2021-11-13T10:11:53.932Z</time>
      </trkpt>
      <trkpt lat="47.583478" lon="8.109592">
        <ele>314.752908</ele>
        <time>2021-11-13T10:11:56.024Z</time>
      </trkpt>
      <trkpt lat="47.583452" lon="8.109511">
        <ele>314.772496</ele>
        <time>2021-11-13T10:11:57.633Z</time>
      </trkpt>
      <trkpt lat="47.583405" lon="8.109406">
        <ele>314.800014</ele>
        <time>2021-11-13T10:11:59.507Z</time>
      </trkpt>
      <trkpt lat="47.583388" lon="8.109374">
        <ele>314.808909</ele>
        <time>2021-11-13T10:12:00.136Z</time>
      </trkpt>
      <trkpt lat="47.583348" lon="8.109308">
        <ele>314.828284</ele>
        <time>2021-11-13T10:12:01.605Z</time>
      </trkpt>
      <trkpt lat="47.583309" lon="8.109254">
        <ele>314.845560</ele>
        <time>2021-11-13T10:12:03.203Z</time>
      </trkpt>
      <trkpt lat="47.583159" lon="8.109095">
        <ele>314.905256</ele>
        <time>2021-11-13T10:12:08.886Z</time>
      </trkpt>
      <trkpt lat="47.583170" lon="8.109033">
        <ele>314.919255</ele>
        <time>2021-11-13T10:12:10.308Z</time>
      </trkpt>
      <trkpt lat="47.583198" lon="8.108941">
        <ele>314.976107</ele>
        <time>2021-11-13T10:12:11.891Z</time>
      </trkpt>
      <trkpt lat="47.583215" lon="8.108902">
        <ele>315.171456</ele>
        <time>2021-11-13T10:12:13.544Z</time>
      </trkpt>
      <trkpt lat="47.583269" lon="8.108776">
        <ele>315.799478</ele>
        <time>2021-11-13T10:12:18.685Z</time>
      </trkpt>
      <trkpt lat="47.583381" lon="8.108515">
        <ele>317.100856</ele>
        <time>2021-11-13T10:12:25.524Z</time>
      </trkpt>
      <trkpt lat="47.583467" lon="8.108290">
        <ele>318.188825</ele>
        <time>2021-11-13T10:12:34.831Z</time>
      </trkpt>
      <trkpt lat="47.583556" lon="8.108122">
        <ele>319.087513</ele>
        <time>2021-11-13T10:12:39.815Z</time>
      </trkpt>
      <trkpt lat="47.583630" lon="8.107975">
        <ele>319.859169</ele>
        <time>2021-11-13T10:12:44.939Z</time>
      </trkpt>
      <trkpt lat="47.583681" lon="8.107874">
        <ele>320.389939</ele>
        <time>2021-11-13T10:12:49.860Z</time>
      </trkpt>
      <trkpt lat="47.583730" lon="8.107651">
        <ele>321.376603</ele>
        <time>2021-11-13T10:12:55.230Z</time>
      </trkpt>
      <trkpt lat="47.583716" lon="8.107419">
        <ele>322.356504</ele>
        <time>2021-11-13T10:13:03.219Z</time>
      </trkpt>
      <trkpt lat="47.583602" lon="8.107067">
        <ele>323.999187</ele>
        <time>2021-11-13T10:13:12.787Z</time>
      </trkpt>
      <trkpt lat="47.583538" lon="8.106963">
        <ele>324.591434</ele>
        <time>2021-11-13T10:13:18.666Z</time>
      </trkpt>
      <trkpt lat="47.583190" lon="8.106425">
        <ele>327.068575</ele>
        <time>2021-11-13T10:13:38.431Z</time>
      </trkpt>
      <trkpt lat="47.582759" lon="8.105824">
        <ele>329.210431</ele>
        <time>2021-11-13T10:13:55.704Z</time>
      </trkpt>
      <trkpt lat="47.582400" lon="8.105317">
        <ele>331.005230</ele>
        <time>2021-11-13T10:14:08.795Z</time>
      </trkpt>
      <trkpt lat="47.581932" lon="8.104673">
        <ele>333.506018</ele>
        <time>2021-11-13T10:14:22.639Z</time>
      </trkpt>
      <trkpt lat="47.581693" lon="8.104351">
        <ele>335.016532</ele>
        <time>2021-11-13T10:14:31.194Z</time>
      </trkpt>
      <trkpt lat="47.581644" lon="8.104206">
        <ele>335.528200</ele>
        <time>2021-11-13T10:14:35.943Z</time>
      </trkpt>
      <trkpt lat="47.581609" lon="8.103948">
        <ele>336.358481</ele>
        <time>2021-11-13T10:14:41.474Z</time>
      </trkpt>
      <trkpt lat="47.581621" lon="8.103861">
        <ele>336.638643</ele>
        <time>2021-11-13T10:14:43.870Z</time>
      </trkpt>
      <trkpt lat="47.581680" lon="8.103741">
        <ele>337.107138</ele>
        <time>2021-11-13T10:14:47.811Z</time>
      </trkpt>
      <trkpt lat="47.581700" lon="8.103708">
        <ele>337.247103</ele>
        <time>2021-11-13T10:14:49.956Z</time>
      </trkpt>
      <trkpt lat="47.581790" lon="8.103613">
        <ele>337.763855</ele>
        <time>2021-11-13T10:14:53.069Z</time>
      </trkpt>
      <trkpt lat="47.582067" lon="8.103520">
        <ele>339.092255</ele>
        <time>2021-11-13T10:15:04.219Z</time>
      </trkpt>
      <trkpt lat="47.582742" lon="8.103783">
        <ele>342.920379</ele>
        <time>2021-11-13T10:15:32.864Z</time>
      </trkpt>
      <trkpt lat="47.582925" lon="8.103781">
        <ele>344.154643</ele>
        <time>2021-11-13T10:15:40.735Z</time>
      </trkpt>
      <trkpt lat="47.583203" lon="8.103671">
        <ele>346.095226</ele>
        <time>2021-11-13T10:15:54.217Z</time>
      </trkpt>
      <trkpt lat="47.583374" lon="8.103500">
        <ele>347.486360</ele>
        <time>2021-11-13T10:16:02.669Z</time>
      </trkpt>
      <trkpt lat="47.583567" lon="8.103131">
        <ele>349.610570</ele>
        <time>2021-11-13T10:16:15.552Z</time>
      </trkpt>
      <trkpt lat="47.583646" lon="8.102779">
        <ele>351.298207</ele>
        <time>2021-11-13T10:16:25.810Z</time>
      </trkpt>
      <trkpt lat="47.583644" lon="8.102396">
        <ele>353.040605</ele>
        <time>2021-11-13T10:16:36.582Z</time>
      </trkpt>
      <trkpt lat="47.583595" lon="8.102123">
        <ele>354.310435</ele>
        <time>2021-11-13T10:16:44.551Z</time>
      </trkpt>
      <trkpt lat="47.583531" lon="8.101951">
        <ele>355.191769</ele>
        <time>2021-11-13T10:16:49.947Z</time>
      </trkpt>
      <trkpt lat="47.583514" lon="8.101908">
        <ele>355.415392</ele>
        <time>2021-11-13T10:16:51.150Z</time>
      </trkpt>
      <trkpt lat="47.583260" lon="8.101238">
        <ele>358.863706</ele>
        <time>2021-11-13T10:17:11.501Z</time>
      </trkpt>
      <trkpt lat="47.583184" lon="8.101026">
        <ele>359.940873</ele>
        <time>2021-11-13T10:17:18.148Z</time>
      </trkpt>
      <trkpt lat="47.583009" lon="8.100415">
        <ele>362.919137</ele>
        <time>2021-11-13T10:17:36.439Z</time>
      </trkpt>
      <trkpt lat="47.582956" lon="8.099712">
        <ele>366.139264</ele>
        <time>2021-11-13T10:17:58.283Z</time>
      </trkpt>
      <trkpt lat="47.582991" lon="8.099169">
        <ele>368.710303</ele>
        <time>2021-11-13T10:18:14.479Z</time>
      </trkpt>
      <trkpt lat="47.583155" lon="8.098591">
        <ele>371.665866</ele>
        <time>2021-11-13T10:18:33.080Z</time>
      </trkpt>
      <trkpt lat="47.583254" lon="8.098366">
        <ele>372.932065</ele>
        <time>2021-11-13T10:18:40.735Z</time>
      </trkpt>
      <trkpt lat="47.583314" lon="8.098261">
        <ele>373.580691</ele>
        <time>2021-11-13T10:18:45.605Z</time>
      </trkpt>
      <trkpt lat="47.583497" lon="8.097983">
        <ele>375.411582</ele>
        <time>2021-11-13T10:18:56.047Z</time>
      </trkpt>
      <trkpt lat="47.585194" lon="8.096078">
        <ele>388.749546</ele>
        <time>2021-11-13T10:20:20.575Z</time>
      </trkpt>
      <trkpt lat="47.585712" lon="8.095427">
        <ele>392.501046</ele>
        <time>2021-11-13T10:20:44.725Z</time>
      </trkpt>
      <trkpt lat="47.585861" lon="8.095144">
        <ele>393.837954</ele>
        <time>2021-11-13T10:20:53.347Z</time>
      </trkpt>
      <trkpt lat="47.585991" lon="8.094838">
        <ele>395.184650</ele>
        <time>2021-11-13T10:21:02.359Z</time>
      </trkpt>
      <trkpt lat="47.586207" lon="8.094026">
        <ele>398.435067</ele>
        <time>2021-11-13T10:21:22.983Z</time>
      </trkpt>
      <trkpt lat="47.586271" lon="8.093380">
        <ele>401.395098</ele>
        <time>2021-11-13T10:21:40.894Z</time>
      </trkpt>
      <trkpt lat="47.586159" lon="8.091548">
        <ele>409.919454</ele>
        <time>2021-11-13T10:22:34.329Z</time>
      </trkpt>
      <trkpt lat="47.586169" lon="8.091329">
        <ele>410.936631</ele>
        <time>2021-11-13T10:22:41.216Z</time>
      </trkpt>
      <trkpt lat="47.586207" lon="8.091057">
        <ele>412.446904</ele>
        <time>2021-11-13T10:22:49.525Z</time>
      </trkpt>
      <trkpt lat="47.586374" lon="8.090476">
        <ele>415.935147</ele>
        <time>2021-11-13T10:23:09.159Z</time>
      </trkpt>
      <trkpt lat="47.586940" lon="8.089282">
        <ele>423.995691</ele>
        <time>2021-11-13T10:23:58.174Z</time>
      </trkpt>
      <trkpt lat="47.587101" lon="8.088498">
        <ele>428.485689</ele>
        <time>2021-11-13T10:24:23.972Z</time>
      </trkpt>
      <trkpt lat="47.587338" lon="8.086784">
        <ele>438.020407</ele>
        <time>2021-11-13T10:25:21.603Z</time>
      </trkpt>
      <trkpt lat="47.587490" lon="8.085581">
        <ele>442.220574</ele>
        <time>2021-11-13T10:25:57.375Z</time>
      </trkpt>
      <trkpt lat="47.587553" lon="8.085157">
        <ele>443.248672</ele>
        <time>2021-11-13T10:26:07.537Z</time>
      </trkpt>
      <trkpt lat="47.587632" lon="8.084818">
        <ele>444.097981</ele>
        <time>2021-11-13T10:26:14.301Z</time>
      </trkpt>
      <trkpt lat="47.587753" lon="8.084390">
        <ele>445.196905</ele>
        <time>2021-11-13T10:26:21.459Z</time>
      </trkpt>
      <trkpt lat="47.587882" lon="8.084051">
        <ele>446.118597</ele>
        <time>2021-11-13T10:26:25.766Z</time>
      </trkpt>
      <trkpt lat="47.587959" lon="8.083838">
        <ele>446.582312</ele>
        <time>2021-11-13T10:26:27.885Z</time>
      </trkpt>
      <trkpt lat="47.588010" lon="8.083700">
        <ele>446.194427</ele>
        <time>2021-11-13T10:26:29.073Z</time>
      </trkpt>
      <trkpt lat="47.588165" lon="8.083275">
        <ele>445.003465</ele>
        <time>2021-11-13T10:26:32.597Z</time>
      </trkpt>
      <trkpt lat="47.588252" lon="8.083013">
        <ele>444.283616</ele>
        <time>2021-11-13T10:26:34.613Z</time>
      </trkpt>
      <trkpt lat="47.588280" lon="8.082843">
        <ele>443.852259</ele>
        <time>2021-11-13T10:26:35.734Z</time>
      </trkpt>
      <trkpt lat="47.588296" lon="8.082646">
        <ele>443.363155</ele>
        <time>2021-11-13T10:26:37.031Z</time>
      </trkpt>
      <trkpt lat="47.588330" lon="8.081966">
        <ele>441.682388</ele>
        <time>2021-11-13T10:26:41.389Z</time>
      </trkpt>
      <trkpt lat="47.588361" lon="8.081689">
        <ele>440.990260</ele>
        <time>2021-11-13T10:26:43.119Z</time>
      </trkpt>
      <trkpt lat="47.588407" lon="8.081450">
        <ele>440.377619</ele>
        <time>2021-11-13T10:26:44.683Z</time>
      </trkpt>
      <trkpt lat="47.588550" lon="8.080930">
        <ele>439.049965</ele>
        <time>2021-11-13T10:26:48.244Z</time>
      </trkpt>
      <trkpt lat="47.588590" lon="8.080813">
        <ele>438.743714</ele>
        <time>2021-11-13T10:26:49.042Z</time>
      </trkpt>
      <trkpt lat="47.588682" lon="8.080451">
        <ele>437.840541</ele>
        <time>2021-11-13T10:26:51.590Z</time>
      </trkpt>
      <trkpt lat="47.588725" lon="8.080182">
        <ele>437.195108</ele>
        <time>2021-11-13T10:26:53.418Z</time>
      </trkpt>
      <trkpt lat="47.588723" lon="8.079889">
        <ele>436.511006</ele>
        <time>2021-11-13T10:26:55.424Z</time>
      </trkpt>
      <trkpt lat="47.588698" lon="8.079659">
        <ele>435.967097</ele>
        <time>2021-11-13T10:26:57.016Z</time>
      </trkpt>
      <trkpt lat="47.588607" lon="8.079377">
        <ele>435.237232</ele>
        <time>2021-11-13T10:26:59.259Z</time>
      </trkpt>
      <trkpt lat="47.588405" lon="8.078961">
        <ele>434.040462</ele>
        <time>2021-11-13T10:27:03.011Z</time>
      </trkpt>
      <trkpt lat="47.588322" lon="8.078847">
        <ele>433.775450</ele>
        <time>2021-11-13T10:27:04.227Z</time>
      </trkpt>
      <trkpt lat="47.588175" lon="8.078681">
        <ele>433.564353</ele>
        <time>2021-11-13T10:27:06.381Z</time>
      </trkpt>
      <trkpt lat="47.587261" lon="8.077843">
        <ele>432.336666</ele>
        <time>2021-11-13T10:27:19.630Z</time>
      </trkpt>
      <trkpt lat="47.586782" lon="8.077419">
        <ele>431.643411</ele>
        <time>2021-11-13T10:27:26.693Z</time>
      </trkpt>
      <trkpt lat="47.586044" lon="8.076710">
        <ele>429.967345</ele>
        <time>2021-11-13T10:27:37.375Z</time>
      </trkpt>
      <trkpt lat="47.585216" lon="8.075691">
        <ele>427.602554</ele>
        <time>2021-11-13T10:27:48.504Z</time>
      </trkpt>
      <trkpt lat="47.584889" lon="8.075206">
        <ele>426.090103</ele>
        <time>2021-11-13T10:27:53.136Z</time>
      </trkpt>
      <trkpt lat="47.584571" lon="8.074688">
        <ele>424.545286</ele>
        <time>2021-11-13T10:27:57.824Z</time>
      </trkpt>
      <trkpt lat="47.584025" lon="8.073868">
        <ele>422.243392</ele>
        <time>2021-11-13T10:28:05.612Z</time>
      </trkpt>
      <trkpt lat="47.583806" lon="8.073622">
        <ele>421.803042</ele>
        <time>2021-11-13T10:28:08.391Z</time>
      </trkpt>
      <trkpt lat="47.582481" lon="8.072674">
        <ele>419.418070</ele>
        <time>2021-11-13T10:28:26.115Z</time>
      </trkpt>
      <trkpt lat="47.582255" lon="8.072455">
        <ele>418.904966</ele>
        <time>2021-11-13T10:28:30.353Z</time>
      </trkpt>
      <trkpt lat="47.582001" lon="8.072163">
        <ele>418.294136</ele>
        <time>2021-11-13T10:28:35.305Z</time>
      </trkpt>
      <trkpt lat="47.581639" lon="8.071564">
        <ele>417.263177</ele>
        <time>2021-11-13T10:28:41.224Z</time>
      </trkpt>
      <trkpt lat="47.581509" lon="8.071314">
        <ele>416.858528</ele>
        <time>2021-11-13T10:28:43.497Z</time>
      </trkpt>
      <trkpt lat="47.581397" lon="8.071044">
        <ele>416.452204</ele>
        <time>2021-11-13T10:28:45.649Z</time>
      </trkpt>
      <trkpt lat="47.581302" lon="8.070775">
        <ele>415.844093</ele>
        <time>2021-11-13T10:28:47.696Z</time>
      </trkpt>
      <trkpt lat="47.581200" lon="8.070445">
        <ele>414.451183</ele>
        <time>2021-11-13T10:28:50.088Z</time>
      </trkpt>
      <trkpt lat="47.581072" lon="8.070001">
        <ele>412.598355</ele>
        <time>2021-11-13T10:28:53.140Z</time>
      </trkpt>
      <trkpt lat="47.580540" lon="8.068640">
        <ele>406.562283</ele>
        <time>2021-11-13T10:29:02.745Z</time>
      </trkpt>
      <trkpt lat="47.580436" lon="8.068266">
        <ele>405.134233</ele>
        <time>2021-11-13T10:29:05.164Z</time>
      </trkpt>
      <trkpt lat="47.580169" lon="8.066489">
        <ele>399.080784</ele>
        <time>2021-11-13T10:29:16.601Z</time>
      </trkpt>
      <trkpt lat="47.579947" lon="8.065949">
        <ele>397.047220</ele>
        <time>2021-11-13T10:29:21.009Z</time>
      </trkpt>
      <trkpt lat="47.579737" lon="8.065632">
        <ele>396.625360</ele>
        <time>2021-11-13T10:29:24.428Z</time>
      </trkpt>
      <trkpt lat="47.579627" lon="8.065529">
        <ele>396.442228</ele>
        <time>2021-11-13T10:29:25.751Z</time>
      </trkpt>
      <trkpt lat="47.579504" lon="8.065414">
        <ele>396.237541</ele>
        <time>2021-11-13T10:29:27.489Z</time>
      </trkpt>
      <trkpt lat="47.579181" lon="8.065229">
        <ele>395.750144</ele>
        <time>2021-11-13T10:29:31.529Z</time>
      </trkpt>
      <trkpt lat="47.579104" lon="8.065203">
        <ele>395.638986</ele>
        <time>2021-11-13T10:29:32.877Z</time>
      </trkpt>
      <trkpt lat="47.579003" lon="8.065169">
        <ele>395.493202</ele>
        <time>2021-11-13T10:29:34.061Z</time>
      </trkpt>
      <trkpt lat="47.578623" lon="8.065188">
        <ele>394.958024</ele>
        <time>2021-11-13T10:29:38.900Z</time>
      </trkpt>
      <trkpt lat="47.578363" lon="8.065294">
        <ele>394.578470</ele>
        <time>2021-11-13T10:29:42.812Z</time>
      </trkpt>
      <trkpt lat="47.578177" lon="8.065370">
        <ele>394.407492</ele>
        <time>2021-11-13T10:29:44.937Z</time>
      </trkpt>
      <trkpt lat="47.577839" lon="8.065448">
        <ele>394.131007</ele>
        <time>2021-11-13T10:29:49.540Z</time>
      </trkpt>
      <trkpt lat="47.577609" lon="8.065406">
        <ele>393.943700</ele>
        <time>2021-11-13T10:29:52.843Z</time>
      </trkpt>
      <trkpt lat="47.577380" lon="8.065302">
        <ele>393.750114</ele>
        <time>2021-11-13T10:29:55.825Z</time>
      </trkpt>
      <trkpt lat="47.577043" lon="8.064953">
        <ele>393.417840</ele>
        <time>2021-11-13T10:30:00.767Z</time>
      </trkpt>
      <trkpt lat="47.576978" lon="8.064848">
        <ele>393.340136</ele>
        <time>2021-11-13T10:30:01.741Z</time>
      </trkpt>
      <trkpt lat="47.576848" lon="8.064544">
        <ele>393.143879</ele>
        <time>2021-11-13T10:30:04.865Z</time>
      </trkpt>
      <trkpt lat="47.576750" lon="8.064033">
        <ele>393.181424</ele>
        <time>2021-11-13T10:30:09.543Z</time>
      </trkpt>
      <trkpt lat="47.576737" lon="8.063729">
        <ele>393.246437</ele>
        <time>2021-11-13T10:30:12.221Z</time>
      </trkpt>
      <trkpt lat="47.576746" lon="8.063401">
        <ele>393.316501</ele>
        <time>2021-11-13T10:30:15.503Z</time>
      </trkpt>
      <trkpt lat="47.576746" lon="8.063355">
        <ele>393.326319</ele>
        <time>2021-11-13T10:30:15.862Z</time>
      </trkpt>
      <trkpt lat="47.576741" lon="8.063055">
        <ele>393.390369</ele>
        <time>2021-11-13T10:30:19.416Z</time>
      </trkpt>
      <trkpt lat="47.576712" lon="8.062700">
        <ele>393.466691</ele>
        <time>2021-11-13T10:30:23.690Z</time>
      </trkpt>
      <trkpt lat="47.576551" lon="8.062025">
        <ele>393.619498</ele>
        <time>2021-11-13T10:30:33.850Z</time>
      </trkpt>
      <trkpt lat="47.576045" lon="8.061150">
        <ele>393.570333</ele>
        <time>2021-11-13T10:30:47.942Z</time>
      </trkpt>
      <trkpt lat="47.575791" lon="8.060748">
        <ele>393.520311</ele>
        <time>2021-11-13T10:30:53.656Z</time>
      </trkpt>
      <trkpt lat="47.575642" lon="8.060451">
        <ele>393.486696</ele>
        <time>2021-11-13T10:30:57.601Z</time>
      </trkpt>
      <trkpt lat="47.575626" lon="8.060407">
        <ele>393.482156</ele>
        <time>2021-11-13T10:30:57.909Z</time>
      </trkpt>
      <trkpt lat="47.575229" lon="8.059329">
        <ele>393.041780</ele>
        <time>2021-11-13T10:31:07.549Z</time>
      </trkpt>
      <trkpt lat="47.575062" lon="8.059032">
        <ele>392.753870</ele>
        <time>2021-11-13T10:31:10.409Z</time>
      </trkpt>
      <trkpt lat="47.574691" lon="8.058686">
        <ele>392.270048</ele>
        <time>2021-11-13T10:31:15.133Z</time>
      </trkpt>
      <trkpt lat="47.574360" lon="8.057968">
        <ele>391.622472</ele>
        <time>2021-11-13T10:31:22.235Z</time>
      </trkpt>
      <trkpt lat="47.574225" lon="8.057606">
        <ele>391.704389</ele>
        <time>2021-11-13T10:31:26.297Z</time>
      </trkpt>
      <trkpt lat="47.574181" lon="8.057386">
        <ele>392.105532</ele>
        <time>2021-11-13T10:31:29.797Z</time>
      </trkpt>
      <trkpt lat="47.574121" lon="8.056069">
        <ele>394.413119</ele>
        <time>2021-11-13T10:31:51.117Z</time>
      </trkpt>
      <trkpt lat="47.573993" lon="8.055472">
        <ele>395.508218</ele>
        <time>2021-11-13T10:32:04.322Z</time>
      </trkpt>
      <trkpt lat="47.573806" lon="8.055119">
        <ele>396.299059</ele>
        <time>2021-11-13T10:32:15.310Z</time>
      </trkpt>
      <trkpt lat="47.573098" lon="8.054422">
        <ele>398.569582</ele>
        <time>2021-11-13T10:32:41.154Z</time>
      </trkpt>
      <trkpt lat="47.572855" lon="8.053943">
        <ele>399.649711</ele>
        <time>2021-11-13T10:32:50.980Z</time>
      </trkpt>
      <trkpt lat="47.572769" lon="8.053639">
        <ele>400.243825</ele>
        <time>2021-11-13T10:32:55.169Z</time>
      </trkpt>
      <trkpt lat="47.572728" lon="8.053331">
        <ele>400.809633</ele>
        <time>2021-11-13T10:32:59.169Z</time>
      </trkpt>
      <trkpt lat="47.572645" lon="8.052612">
        <ele>400.605054</ele>
        <time>2021-11-13T10:33:05.973Z</time>
      </trkpt>
      <trkpt lat="47.572498" lon="8.051744">
        <ele>400.221892</ele>
        <time>2021-11-13T10:33:13.683Z</time>
      </trkpt>
      <trkpt lat="47.572428" lon="8.051523">
        <ele>400.117363</ele>
        <time>2021-11-13T10:33:15.497Z</time>
      </trkpt>
      <trkpt lat="47.572078" lon="8.050690">
        <ele>399.805661</ele>
        <time>2021-11-13T10:33:23.111Z</time>
      </trkpt>
      <trkpt lat="47.571850" lon="8.050064">
        <ele>400.070298</ele>
        <time>2021-11-13T10:33:29.454Z</time>
      </trkpt>
      <trkpt lat="47.571420" lon="8.048138">
        <ele>400.998254</ele>
        <time>2021-11-13T10:33:56.228Z</time>
      </trkpt>
      <trkpt lat="47.571393" lon="8.048046">
        <ele>401.118482</ele>
        <time>2021-11-13T10:33:58.018Z</time>
      </trkpt>
      <trkpt lat="47.571376" lon="8.047921">
        <ele>401.271291</ele>
        <time>2021-11-13T10:33:59.963Z</time>
      </trkpt>
      <trkpt lat="47.571343" lon="8.047807">
        <ele>401.419949</ele>
        <time>2021-11-13T10:34:01.607Z</time>
      </trkpt>
      <trkpt lat="47.571300" lon="8.047715">
        <ele>401.554071</ele>
        <time>2021-11-13T10:34:03.294Z</time>
      </trkpt>
      <trkpt lat="47.571299" lon="8.047673">
        <ele>401.604433</ele>
        <time>2021-11-13T10:34:03.928Z</time>
      </trkpt>
      <trkpt lat="47.571296" lon="8.047649">
        <ele>401.633684</ele>
        <time>2021-11-13T10:34:04.255Z</time>
      </trkpt>
      <trkpt lat="47.571290" lon="8.047622">
        <ele>401.667750</ele>
        <time>2021-11-13T10:34:04.788Z</time>
      </trkpt>
      <trkpt lat="47.571280" lon="8.047594">
        <ele>401.705715</ele>
        <time>2021-11-13T10:34:05.409Z</time>
      </trkpt>
      <trkpt lat="47.571226" lon="8.047517">
        <ele>401.838811</ele>
        <time>2021-11-13T10:34:07.139Z</time>
      </trkpt>
      <trkpt lat="47.571209" lon="8.047506">
        <ele>401.871759</ele>
        <time>2021-11-13T10:34:07.676Z</time>
      </trkpt>
      <trkpt lat="47.571191" lon="8.047498">
        <ele>401.905137</ele>
        <time>2021-11-13T10:34:08.140Z</time>
      </trkpt>
      <trkpt lat="47.571178" lon="8.047495">
        <ele>401.928506</ele>
        <time>2021-11-13T10:34:08.393Z</time>
      </trkpt>
      <trkpt lat="47.571161" lon="8.047494">
        <ele>401.958726</ele>
        <time>2021-11-13T10:34:08.782Z</time>
      </trkpt>
      <trkpt lat="47.570990" lon="8.047289">
        <ele>402.349375</ele>
        <time>2021-11-13T10:34:14.040Z</time>
      </trkpt>
      <trkpt lat="47.570703" lon="8.046690">
        <ele>403.229801</ele>
        <time>2021-11-13T10:34:26.041Z</time>
      </trkpt>
      <trkpt lat="47.570454" lon="8.045878">
        <ele>403.601609</ele>
        <time>2021-11-13T10:34:39.944Z</time>
      </trkpt>
      <trkpt lat="47.570410" lon="8.045595">
        <ele>403.269919</ele>
        <time>2021-11-13T10:34:42.159Z</time>
      </trkpt>
      <trkpt lat="47.570405" lon="8.045482">
        <ele>403.140583</ele>
        <time>2021-11-13T10:34:43.733Z</time>
      </trkpt>
      <trkpt lat="47.570393" lon="8.045065">
        <ele>402.663887</ele>
        <time>2021-11-13T10:34:46.868Z</time>
      </trkpt>
      <trkpt lat="47.570401" lon="8.044853">
        <ele>402.421380</ele>
        <time>2021-11-13T10:34:48.862Z</time>
      </trkpt>
      <trkpt lat="47.570407" lon="8.044709">
        <ele>402.256602</ele>
        <time>2021-11-13T10:34:50.162Z</time>
      </trkpt>
      <trkpt lat="47.570449" lon="8.044391">
        <ele>401.886516</ele>
        <time>2021-11-13T10:34:52.401Z</time>
      </trkpt>
      <trkpt lat="47.570458" lon="8.044327">
        <ele>401.811850</ele>
        <time>2021-11-13T10:34:52.871Z</time>
      </trkpt>
      <trkpt lat="47.570556" lon="8.043717">
        <ele>401.095681</ele>
        <time>2021-11-13T10:34:57.175Z</time>
      </trkpt>
      <trkpt lat="47.570553" lon="8.043603">
        <ele>400.965381</ele>
        <time>2021-11-13T10:34:57.944Z</time>
      </trkpt>
      <trkpt lat="47.570550" lon="8.043505">
        <ele>400.766442</ele>
        <time>2021-11-13T10:34:58.506Z</time>
      </trkpt>
      <trkpt lat="47.570472" lon="8.043006">
        <ele>399.016929</ele>
        <time>2021-11-13T10:35:01.832Z</time>
      </trkpt>
      <trkpt lat="47.570037" lon="8.042001">
        <ele>394.938601</ele>
        <time>2021-11-13T10:35:09.368Z</time>
      </trkpt>
      <trkpt lat="47.569947" lon="8.041607">
        <ele>393.517818</ele>
        <time>2021-11-13T10:35:11.912Z</time>
      </trkpt>
      <trkpt lat="47.569913" lon="8.041464">
        <ele>392.999945</ele>
        <time>2021-11-13T10:35:12.889Z</time>
      </trkpt>
      <trkpt lat="47.569814" lon="8.040942">
        <ele>391.241502</ele>
        <time>2021-11-13T10:35:16.379Z</time>
      </trkpt>
      <trkpt lat="47.569707" lon="8.040137">
        <ele>388.846739</ele>
        <time>2021-11-13T10:35:21.619Z</time>
      </trkpt>
      <trkpt lat="47.569695" lon="8.040052">
        <ele>388.593271</ele>
        <time>2021-11-13T10:35:22.161Z</time>
      </trkpt>
      <trkpt lat="47.569647" lon="8.039770">
        <ele>387.744391</ele>
        <time>2021-11-13T10:35:24.048Z</time>
      </trkpt>
      <trkpt lat="47.569586" lon="8.039479">
        <ele>386.854980</ele>
        <time>2021-11-13T10:35:26.033Z</time>
      </trkpt>
      <trkpt lat="47.569469" lon="8.039531">
        <ele>386.326564</ele>
        <time>2021-11-13T10:35:27.259Z</time>
      </trkpt>
      <trkpt lat="47.569259" lon="8.039574">
        <ele>385.409463</ele>
        <time>2021-11-13T10:35:29.397Z</time>
      </trkpt>
      <trkpt lat="47.569159" lon="8.039571">
        <ele>384.976768</ele>
        <time>2021-11-13T10:35:30.377Z</time>
      </trkpt>
      <trkpt lat="47.569103" lon="8.039554">
        <ele>384.729479</ele>
        <time>2021-11-13T10:35:30.954Z</time>
      </trkpt>
      <trkpt lat="47.569043" lon="8.039527">
        <ele>384.458216</ele>
        <time>2021-11-13T10:35:31.615Z</time>
      </trkpt>
      <trkpt lat="47.568992" lon="8.039490">
        <ele>384.212573</ele>
        <time>2021-11-13T10:35:32.201Z</time>
      </trkpt>
      <trkpt lat="47.568916" lon="8.039421">
        <ele>383.856725</ele>
        <time>2021-11-13T10:35:33.045Z</time>
      </trkpt>
      <trkpt lat="47.568715" lon="8.039132">
        <ele>382.841589</ele>
        <time>2021-11-13T10:35:35.853Z</time>
      </trkpt>
      <trkpt lat="47.568633" lon="8.038920">
        <ele>382.243921</ele>
        <time>2021-11-13T10:35:37.438Z</time>
      </trkpt>
      <trkpt lat="47.568562" lon="8.038275">
        <ele>380.645525</ele>
        <time>2021-11-13T10:35:41.803Z</time>
      </trkpt>
      <trkpt lat="47.568540" lon="8.037665">
        <ele>379.151457</ele>
        <time>2021-11-13T10:35:45.885Z</time>
      </trkpt>
      <trkpt lat="47.568537" lon="8.037570">
        <ele>378.918852</ele>
        <time>2021-11-13T10:35:46.519Z</time>
      </trkpt>
      <trkpt lat="47.568512" lon="8.037290">
        <ele>378.228057</ele>
        <time>2021-11-13T10:35:48.388Z</time>
      </trkpt>
      <trkpt lat="47.568395" lon="8.036764">
        <ele>376.836890</ele>
        <time>2021-11-13T10:35:52.198Z</time>
      </trkpt>
      <trkpt lat="47.568240" lon="8.036333">
        <ele>375.571543</ele>
        <time>2021-11-13T10:35:55.509Z</time>
      </trkpt>
      <trkpt lat="47.568018" lon="8.035824">
        <ele>374.001293</ele>
        <time>2021-11-13T10:35:59.540Z</time>
      </trkpt>
      <trkpt lat="47.567673" lon="8.035162">
        <ele>371.834129</ele>
        <time>2021-11-13T10:36:05.132Z</time>
      </trkpt>
      <trkpt lat="47.567313" lon="8.034591">
        <ele>369.544651</ele>
        <time>2021-11-13T10:36:10.208Z</time>
      </trkpt>
      <trkpt lat="47.567079" lon="8.034308">
        <ele>367.988387</ele>
        <time>2021-11-13T10:36:13.011Z</time>
      </trkpt>
      <trkpt lat="47.566763" lon="8.034017">
        <ele>366.071369</ele>
        <time>2021-11-13T10:36:16.511Z</time>
      </trkpt>
      <trkpt lat="47.566670" lon="8.033967">
        <ele>365.561599</ele>
        <time>2021-11-13T10:36:17.427Z</time>
      </trkpt>
      <trkpt lat="47.566321" lon="8.033776">
        <ele>363.644569</ele>
        <time>2021-11-13T10:36:20.907Z</time>
      </trkpt>
      <trkpt lat="47.566001" lon="8.033711">
        <ele>361.980249</ele>
        <time>2021-11-13T10:36:23.958Z</time>
      </trkpt>
      <trkpt lat="47.565871" lon="8.033704">
        <ele>361.310725</ele>
        <time>2021-11-13T10:36:25.103Z</time>
      </trkpt>
      <trkpt lat="47.565189" lon="8.033686">
        <ele>358.277596</ele>
        <time>2021-11-13T10:36:31.508Z</time>
      </trkpt>
      <trkpt lat="47.564933" lon="8.033469">
        <ele>356.966195</ele>
        <time>2021-11-13T10:36:34.351Z</time>
      </trkpt>
      <trkpt lat="47.564702" lon="8.033000">
        <ele>355.223973</ele>
        <time>2021-11-13T10:36:38.097Z</time>
      </trkpt>
      <trkpt lat="47.564678" lon="8.032921">
        <ele>354.964021</ele>
        <time>2021-11-13T10:36:38.613Z</time>
      </trkpt>
      <trkpt lat="47.564569" lon="8.032525">
        <ele>353.680788</ele>
        <time>2021-11-13T10:36:41.629Z</time>
      </trkpt>
      <trkpt lat="47.564511" lon="8.032311">
        <ele>353.161723</ele>
        <time>2021-11-13T10:36:43.212Z</time>
      </trkpt>
      <trkpt lat="47.564393" lon="8.032053">
        <ele>352.718248</ele>
        <time>2021-11-13T10:36:45.410Z</time>
      </trkpt>
      <trkpt lat="47.563725" lon="8.031208">
        <ele>350.866312</ele>
        <time>2021-11-13T10:36:54.812Z</time>
      </trkpt>
      <trkpt lat="47.563394" lon="8.030849">
        <ele>350.001394</ele>
        <time>2021-11-13T10:36:59.757Z</time>
      </trkpt>
      <trkpt lat="47.563345" lon="8.030793">
        <ele>349.870914</ele>
        <time>2021-11-13T10:37:00.508Z</time>
      </trkpt>
      <trkpt lat="47.563183" lon="8.030459">
        <ele>349.361143</ele>
        <time>2021-11-13T10:37:03.879Z</time>
      </trkpt>
      <trkpt lat="47.563158" lon="8.030396">
        <ele>349.289964</ele>
        <time>2021-11-13T10:37:04.503Z</time>
      </trkpt>
      <trkpt lat="47.562995" lon="8.029987">
        <ele>348.827353</ele>
        <time>2021-11-13T10:37:08.304Z</time>
      </trkpt>
      <trkpt lat="47.562908" lon="8.029661">
        <ele>348.485931</ele>
        <time>2021-11-13T10:37:11.015Z</time>
      </trkpt>
      <trkpt lat="47.562862" lon="8.029514">
        <ele>348.328122</ele>
        <time>2021-11-13T10:37:12.249Z</time>
      </trkpt>
      <trkpt lat="47.562762" lon="8.029240">
        <ele>348.024740</ele>
        <time>2021-11-13T10:37:14.667Z</time>
      </trkpt>
      <trkpt lat="47.562597" lon="8.028906">
        <ele>347.621599</ele>
        <time>2021-11-13T10:37:17.921Z</time>
      </trkpt>
      <trkpt lat="47.562497" lon="8.028737">
        <ele>347.402690</ele>
        <time>2021-11-13T10:37:19.650Z</time>
      </trkpt>
      <trkpt lat="47.562445" lon="8.028648">
        <ele>347.288035</ele>
        <time>2021-11-13T10:37:20.579Z</time>
      </trkpt>
      <trkpt lat="47.562307" lon="8.028432">
        <ele>346.998338</ele>
        <time>2021-11-13T10:37:22.920Z</time>
      </trkpt>
      <trkpt lat="47.561969" lon="8.028038">
        <ele>346.088837</ele>
        <time>2021-11-13T10:37:27.809Z</time>
      </trkpt>
      <trkpt lat="47.561018" lon="8.027383">
        <ele>343.782250</ele>
        <time>2021-11-13T10:37:39.045Z</time>
      </trkpt>
      <trkpt lat="47.560798" lon="8.027161">
        <ele>343.196831</ele>
        <time>2021-11-13T10:37:41.844Z</time>
      </trkpt>
      <trkpt lat="47.560481" lon="8.026632">
        <ele>341.371480</ele>
        <time>2021-11-13T10:37:46.790Z</time>
      </trkpt>
      <trkpt lat="47.560381" lon="8.026393">
        <ele>340.562367</ele>
        <time>2021-11-13T10:37:48.878Z</time>
      </trkpt>
      <trkpt lat="47.560303" lon="8.026133">
        <ele>339.743694</ele>
        <time>2021-11-13T10:37:50.783Z</time>
      </trkpt>
      <trkpt lat="47.560078" lon="8.025111">
        <ele>336.650627</ele>
        <time>2021-11-13T10:37:57.679Z</time>
      </trkpt>
      <trkpt lat="47.559958" lon="8.024826">
        <ele>335.684083</ele>
        <time>2021-11-13T10:37:59.761Z</time>
      </trkpt>
      <trkpt lat="47.559502" lon="8.024274">
        <ele>331.984246</ele>
        <time>2021-11-13T10:38:05.114Z</time>
      </trkpt>
      <trkpt lat="47.559393" lon="8.024159">
        <ele>331.095244</ele>
        <time>2021-11-13T10:38:06.300Z</time>
      </trkpt>
      <trkpt lat="47.558843" lon="8.023745">
        <ele>326.996591</ele>
        <time>2021-11-13T10:38:11.898Z</time>
      </trkpt>
      <trkpt lat="47.558325" lon="8.023268">
        <ele>322.983088</ele>
        <time>2021-11-13T10:38:17.360Z</time>
      </trkpt>
      <trkpt lat="47.557721" lon="8.022248">
        <ele>317.471509</ele>
        <time>2021-11-13T10:38:25.612Z</time>
      </trkpt>
      <trkpt lat="47.557374" lon="8.021813">
        <ele>314.735976</ele>
        <time>2021-11-13T10:38:29.898Z</time>
      </trkpt>
      <trkpt lat="47.557354" lon="8.021790">
        <ele>314.583609</ele>
        <time>2021-11-13T10:38:30.115Z</time>
      </trkpt>
      <trkpt lat="47.557232" lon="8.021693">
        <ele>313.750326</ele>
        <time>2021-11-13T10:38:31.486Z</time>
      </trkpt>
      <trkpt lat="47.557190" lon="8.021670">
        <ele>313.480838</ele>
        <time>2021-11-13T10:38:31.875Z</time>
      </trkpt>
      <trkpt lat="47.557042" lon="8.021611">
        <ele>312.558422</ele>
        <time>2021-11-13T10:38:33.390Z</time>
      </trkpt>
      <trkpt lat="47.556863" lon="8.021668">
        <ele>311.771338</ele>
        <time>2021-11-13T10:38:35.110Z</time>
      </trkpt>
      <trkpt lat="47.556133" lon="8.022482">
        <ele>307.887753</ele>
        <time>2021-11-13T10:38:43.840Z</time>
      </trkpt>
      <trkpt lat="47.555814" lon="8.022759">
        <ele>306.316051</ele>
        <time>2021-11-13T10:38:47.440Z</time>
      </trkpt>
      <trkpt lat="47.555384" lon="8.022959">
        <ele>304.490541</ele>
        <time>2021-11-13T10:38:51.999Z</time>
      </trkpt>
      <trkpt lat="47.555374" lon="8.022961">
        <ele>304.455675</ele>
        <time>2021-11-13T10:38:52.093Z</time>
      </trkpt>
      <trkpt lat="47.555073" lon="8.023022">
        <ele>303.405952</ele>
        <time>2021-11-13T10:38:55.209Z</time>
      </trkpt>
      <trkpt lat="47.554871" lon="8.023042">
        <ele>302.706428</ele>
        <time>2021-11-13T10:38:57.197Z</time>
      </trkpt>
      <trkpt lat="47.554701" lon="8.023055">
        <ele>302.118248</ele>
        <time>2021-11-13T10:38:58.899Z</time>
      </trkpt>
      <trkpt lat="47.554299" lon="8.023080">
        <ele>300.728000</ele>
        <time>2021-11-13T10:39:02.893Z</time>
      </trkpt>
      <trkpt lat="47.554021" lon="8.023095">
        <ele>299.766794</ele>
        <time>2021-11-13T10:39:05.729Z</time>
      </trkpt>
      <trkpt lat="47.553811" lon="8.023113">
        <ele>299.039972</ele>
        <time>2021-11-13T10:39:07.802Z</time>
      </trkpt>
      <trkpt lat="47.553732" lon="8.023128">
        <ele>298.764772</ele>
        <time>2021-11-13T10:39:08.614Z</time>
      </trkpt>
      <trkpt lat="47.553719" lon="8.022919">
        <ele>298.413738</ele>
        <time>2021-11-13T10:39:10.020Z</time>
      </trkpt>
      <trkpt lat="47.553699" lon="8.022667">
        <ele>298.030681</ele>
        <time>2021-11-13T10:39:11.718Z</time>
      </trkpt>
      <trkpt lat="47.553695" lon="8.022619">
        <ele>297.957667</ele>
        <time>2021-11-13T10:39:12.047Z</time>
      </trkpt>
      <trkpt lat="47.553685" lon="8.022501">
        <ele>297.778127</ele>
        <time>2021-11-13T10:39:12.844Z</time>
      </trkpt>
      <trkpt lat="47.553619" lon="8.021667">
        <ele>296.510438</ele>
        <time>2021-11-13T10:39:18.854Z</time>
      </trkpt>
      <trkpt lat="47.553615" lon="8.021606">
        <ele>296.417915</ele>
        <time>2021-11-13T10:39:19.345Z</time>
      </trkpt>
      <trkpt lat="47.553614" lon="8.021587">
        <ele>296.389144</ele>
        <time>2021-11-13T10:39:19.480Z</time>
      </trkpt>
      <trkpt lat="47.553607" lon="8.021497">
        <ele>296.252374</ele>
        <time>2021-11-13T10:39:20.157Z</time>
      </trkpt>
      <trkpt lat="47.553565" lon="8.021501">
        <ele>296.158232</ele>
        <time>2021-11-13T10:39:20.599Z</time>
      </trkpt>
      <trkpt lat="47.553433" lon="8.021503">
        <ele>295.862948</ele>
        <time>2021-11-13T10:39:22.041Z</time>
      </trkpt>
      <trkpt lat="47.553305" lon="8.021505">
        <ele>295.576612</ele>
        <time>2021-11-13T10:39:23.737Z</time>
      </trkpt>
      <trkpt lat="47.553291" lon="8.021502">
        <ele>295.544970</ele>
        <time>2021-11-13T10:39:23.893Z</time>
      </trkpt>
      <trkpt lat="47.553266" lon="8.021493">
        <ele>295.487421</ele>
        <time>2021-11-13T10:39:24.178Z</time>
      </trkpt>
      <trkpt lat="47.553232" lon="8.021484">
        <ele>295.410163</ele>
        <time>2021-11-13T10:39:24.580Z</time>
      </trkpt>
      <trkpt lat="47.553183" lon="8.021466">
        <ele>295.297238</ele>
        <time>2021-11-13T10:39:25.117Z</time>
      </trkpt>
      <trkpt lat="47.552959" lon="8.021335">
        <ele>294.758560</ele>
        <time>2021-11-13T10:39:27.956Z</time>
      </trkpt>
      <trkpt lat="47.552776" lon="8.021316">
        <ele>294.582918</ele>
        <time>2021-11-13T10:39:30.086Z</time>
      </trkpt>
      <trkpt lat="47.552813" lon="8.020595">
        <ele>294.356014</ele>
        <time>2021-11-13T10:39:36.363Z</time>
      </trkpt>
      <trkpt lat="47.552872" lon="8.020109">
        <ele>294.201059</ele>
        <time>2021-11-13T10:39:40.640Z</time>
      </trkpt>
      <trkpt lat="47.552879" lon="8.020034">
        <ele>294.177300</ele>
        <time>2021-11-13T10:39:41.639Z</time>
      </trkpt>
      <trkpt lat="47.552961" lon="8.019989">
        <ele>294.136643</ele>
        <time>2021-11-13T10:39:42.743Z</time>
      </trkpt>
      <trkpt lat="47.553031" lon="8.019915">
        <ele>294.096662</ele>
        <time>2021-11-13T10:39:43.867Z</time>
      </trkpt>
      <trkpt lat="47.553056" lon="8.019871">
        <ele>294.078613</ele>
        <time>2021-11-13T10:39:44.386Z</time>
      </trkpt>
      <trkpt lat="47.553064" lon="8.019820">
        <ele>294.062183</ele>
        <time>2021-11-13T10:39:44.945Z</time>
      </trkpt>
      <trkpt lat="47.553055" lon="8.019647">
        <ele>294.007735</ele>
        <time>2021-11-13T10:39:46.968Z</time>
      </trkpt>
      <trkpt lat="47.553030" lon="8.019182">
        <ele>293.861355</ele>
        <time>2021-11-13T10:39:51.612Z</time>
      </trkpt>
      <trkpt lat="47.553028" lon="8.018988">
        <ele>293.800816</ele>
        <time>2021-11-13T10:39:53.892Z</time>
      </trkpt>
      <trkpt lat="47.553012" lon="8.018748">
        <ele>293.728507</ele>
        <time>2021-11-13T10:39:56.390Z</time>
      </trkpt>
      <trkpt lat="47.553159" lon="8.017677">
        <ele>293.400815</ele>
        <time>2021-11-13T10:40:06.713Z</time>
      </trkpt>
      <trkpt lat="47.553229" lon="8.017328">
        <ele>293.291651</ele>
        <time>2021-11-13T10:40:09.663Z</time>
      </trkpt>
      <trkpt lat="47.553318" lon="8.017064">
        <ele>293.203171</ele>
        <time>2021-11-13T10:40:12.150Z</time>
      </trkpt>
      <trkpt lat="47.553715" lon="8.016236">
        <ele>292.857997</ele>
        <time>2021-11-13T10:40:20.989Z</time>
      </trkpt>
      <trkpt lat="47.553882" lon="8.015749">
        <ele>292.633986</ele>
        <time>2021-11-13T10:40:25.730Z</time>
      </trkpt>
      <trkpt lat="47.553910" lon="8.015626">
        <ele>292.580753</ele>
        <time>2021-11-13T10:40:26.750Z</time>
      </trkpt>
      <trkpt lat="47.554329" lon="8.013807">
        <ele>291.942531</ele>
        <time>2021-11-13T10:40:43.805Z</time>
      </trkpt>
      <trkpt lat="47.554393" lon="8.013577">
        <ele>291.964189</ele>
        <time>2021-11-13T10:40:45.937Z</time>
      </trkpt>
      <trkpt lat="47.554546" lon="8.013079">
        <ele>292.011825</ele>
        <time>2021-11-13T10:40:51.290Z</time>
      </trkpt>
      <trkpt lat="47.554665" lon="8.012540">
        <ele>292.061195</ele>
        <time>2021-11-13T10:40:57.277Z</time>
      </trkpt>
      <trkpt lat="47.554682" lon="8.012449">
        <ele>292.069416</ele>
        <time>2021-11-13T10:40:58.385Z</time>
      </trkpt>
      <trkpt lat="47.554818" lon="8.011865">
        <ele>292.123199</ele>
        <time>2021-11-13T10:41:05.196Z</time>
      </trkpt>
      <trkpt lat="47.555069" lon="8.010772">
        <ele>292.675456</ele>
        <time>2021-11-13T10:41:19.478Z</time>
      </trkpt>
      <trkpt lat="47.555124" lon="8.010557">
        <ele>292.815361</ele>
        <time>2021-11-13T10:41:22.544Z</time>
      </trkpt>
      <trkpt lat="47.555373" lon="8.009365">
        <ele>293.574611</ele>
        <time>2021-11-13T10:41:38.331Z</time>
      </trkpt>
      <trkpt lat="47.555492" lon="8.008854">
        <ele>293.880445</ele>
        <time>2021-11-13T10:41:45.154Z</time>
      </trkpt>
      <trkpt lat="47.555689" lon="8.008075">
        <ele>294.299149</ele>
        <time>2021-11-13T10:41:55.362Z</time>
      </trkpt>
      <trkpt lat="47.556414" lon="8.004608">
        <ele>296.010437</ele>
        <time>2021-11-13T10:42:37.932Z</time>
      </trkpt>
      <trkpt lat="47.556859" lon="8.003033">
        <ele>296.498523</ele>
        <time>2021-11-13T10:42:58.210Z</time>
      </trkpt>
      <trkpt lat="47.557421" lon="8.000151">
        <ele>296.491403</ele>
        <time>2021-11-13T10:43:28.523Z</time>
      </trkpt>
      <trkpt lat="47.557552" lon="7.999488">
        <ele>296.338348</ele>
        <time>2021-11-13T10:43:34.497Z</time>
      </trkpt>
      <trkpt lat="47.557569" lon="7.999330">
        <ele>296.302900</ele>
        <time>2021-11-13T10:43:35.823Z</time>
      </trkpt>
      <trkpt lat="47.557590" lon="7.999121">
        <ele>296.256086</ele>
        <time>2021-11-13T10:43:40.845Z</time>
      </trkpt>
      <trkpt lat="47.557595" lon="7.999065">
        <ele>296.243571</ele>
        <time>2021-11-13T10:43:41.339Z</time>
      </trkpt>
      <trkpt lat="47.557611" lon="7.998828">
        <ele>296.175349</ele>
        <time>2021-11-13T10:43:43.309Z</time>
      </trkpt>
      <trkpt lat="47.557666" lon="7.996934">
        <ele>295.408334</ele>
        <time>2021-11-13T10:43:59.633Z</time>
      </trkpt>
      <trkpt lat="47.557377" lon="7.991413">
        <ele>294.328891</ele>
        <time>2021-11-13T10:44:51.976Z</time>
      </trkpt>
      <trkpt lat="47.557298" lon="7.990679">
        <ele>294.173062</ele>
        <time>2021-11-13T10:44:58.711Z</time>
      </trkpt>
      <trkpt lat="47.557185" lon="7.988787">
        <ele>293.663022</ele>
        <time>2021-11-13T10:45:15.917Z</time>
      </trkpt>
      <trkpt lat="47.556668" lon="7.978159">
        <ele>291.467663</ele>
        <time>2021-11-13T10:46:55.790Z</time>
      </trkpt>
      <trkpt lat="47.556769" lon="7.976421">
        <ele>290.590512</ele>
        <time>2021-11-13T10:47:10.288Z</time>
      </trkpt>
      <trkpt lat="47.557045" lon="7.974526">
        <ele>289.693376</ele>
        <time>2021-11-13T10:47:26.492Z</time>
      </trkpt>
      <trkpt lat="47.557108" lon="7.974186">
        <ele>289.656613</ele>
        <time>2021-11-13T10:47:29.626Z</time>
      </trkpt>
      <trkpt lat="47.557235" lon="7.973507">
        <ele>289.583147</ele>
        <time>2021-11-13T10:47:36.572Z</time>
      </trkpt>
      <trkpt lat="47.557323" lon="7.972992">
        <ele>289.527755</ele>
        <time>2021-11-13T10:47:42.154Z</time>
      </trkpt>
      <trkpt lat="47.557419" lon="7.972636">
        <ele>289.487782</ele>
        <time>2021-11-13T10:47:46.223Z</time>
      </trkpt>
      <trkpt lat="47.557538" lon="7.972196">
        <ele>289.526992</ele>
        <time>2021-11-13T10:47:51.590Z</time>
      </trkpt>
      <trkpt lat="47.557756" lon="7.971140">
        <ele>289.746394</ele>
        <time>2021-11-13T10:48:04.472Z</time>
      </trkpt>
      <trkpt lat="47.558045" lon="7.969704">
        <ele>289.984051</ele>
        <time>2021-11-13T10:48:19.772Z</time>
      </trkpt>
      <trkpt lat="47.558225" lon="7.968807">
        <ele>289.925721</ele>
        <time>2021-11-13T10:48:28.929Z</time>
      </trkpt>
      <trkpt lat="47.558296" lon="7.968403">
        <ele>289.899699</ele>
        <time>2021-11-13T10:48:32.869Z</time>
      </trkpt>
      <trkpt lat="47.558313" lon="7.968259">
        <ele>289.890587</ele>
        <time>2021-11-13T10:48:34.103Z</time>
      </trkpt>
      <trkpt lat="47.558327" lon="7.968108">
        <ele>289.881087</ele>
        <time>2021-11-13T10:48:35.687Z</time>
      </trkpt>
      <trkpt lat="47.558430" lon="7.967788">
        <ele>289.858988</ele>
        <time>2021-11-13T10:48:38.912Z</time>
      </trkpt>
      <trkpt lat="47.558448" lon="7.967701">
        <ele>289.853316</ele>
        <time>2021-11-13T10:48:39.845Z</time>
      </trkpt>
      <trkpt lat="47.558606" lon="7.966985">
        <ele>289.888047</ele>
        <time>2021-11-13T10:48:47.679Z</time>
      </trkpt>
      <trkpt lat="47.558732" lon="7.966356">
        <ele>289.976121</ele>
        <time>2021-11-13T10:48:54.590Z</time>
      </trkpt>
      <trkpt lat="47.558949" lon="7.965326">
        <ele>290.120963</ele>
        <time>2021-11-13T10:49:06.486Z</time>
      </trkpt>
      <trkpt lat="47.559029" lon="7.964894">
        <ele>290.181095</ele>
        <time>2021-11-13T10:49:11.240Z</time>
      </trkpt>
      <trkpt lat="47.559232" lon="7.963800">
        <ele>289.884935</ele>
        <time>2021-11-13T10:49:22.268Z</time>
      </trkpt>
      <trkpt lat="47.559368" lon="7.962709">
        <ele>289.567982</ele>
        <time>2021-11-13T10:49:32.188Z</time>
      </trkpt>
      <trkpt lat="47.559408" lon="7.961845">
        <ele>289.275196</ele>
        <time>2021-11-13T10:49:39.240Z</time>
      </trkpt>
      <trkpt lat="47.559406" lon="7.960730">
        <ele>288.822855</ele>
        <time>2021-11-13T10:49:48.613Z</time>
      </trkpt>
      <trkpt lat="47.559346" lon="7.959868">
        <ele>288.471299</ele>
        <time>2021-11-13T10:49:56.606Z</time>
      </trkpt>
      <trkpt lat="47.559324" lon="7.959601">
        <ele>288.362176</ele>
        <time>2021-11-13T10:49:58.990Z</time>
      </trkpt>
      <trkpt lat="47.559224" lon="7.958738">
        <ele>288.596077</ele>
        <time>2021-11-13T10:50:08.186Z</time>
      </trkpt>
      <trkpt lat="47.558756" lon="7.956469">
        <ele>289.224443</ele>
        <time>2021-11-13T10:50:36.492Z</time>
      </trkpt>
      <trkpt lat="47.558659" lon="7.956055">
        <ele>289.294091</ele>
        <time>2021-11-13T10:50:41.500Z</time>
      </trkpt>
      <trkpt lat="47.558360" lon="7.955074">
        <ele>289.465163</ele>
        <time>2021-11-13T10:50:52.793Z</time>
      </trkpt>
      <trkpt lat="47.558201" lon="7.954539">
        <ele>289.558070</ele>
        <time>2021-11-13T10:50:58.330Z</time>
      </trkpt>
      <trkpt lat="47.558161" lon="7.954466">
        <ele>289.535536</ele>
        <time>2021-11-13T10:50:59.163Z</time>
      </trkpt>
      <trkpt lat="47.558107" lon="7.954410">
        <ele>289.501749</ele>
        <time>2021-11-13T10:51:00.106Z</time>
      </trkpt>
      <trkpt lat="47.558070" lon="7.954468">
        <ele>289.474138</ele>
        <time>2021-11-13T10:51:00.812Z</time>
      </trkpt>
      <trkpt lat="47.557935" lon="7.954571">
        <ele>289.396299</ele>
        <time>2021-11-13T10:51:02.957Z</time>
      </trkpt>
      <trkpt lat="47.557899" lon="7.954581">
        <ele>289.377523</ele>
        <time>2021-11-13T10:51:03.406Z</time>
      </trkpt>
      <trkpt lat="47.557874" lon="7.954579">
        <ele>289.364689</ele>
        <time>2021-11-13T10:51:03.705Z</time>
      </trkpt>
      <trkpt lat="47.557687" lon="7.954371">
        <ele>289.244826</ele>
        <time>2021-11-13T10:51:06.967Z</time>
      </trkpt>
      <trkpt lat="47.557517" lon="7.954117">
        <ele>289.121070</ele>
        <time>2021-11-13T10:51:10.118Z</time>
      </trkpt>
      <trkpt lat="47.557120" lon="7.953536">
        <ele>288.835035</ele>
        <time>2021-11-13T10:51:17.258Z</time>
      </trkpt>
      <trkpt lat="47.556400" lon="7.952468">
        <ele>288.455618</ele>
        <time>2021-11-13T10:51:30.256Z</time>
      </trkpt>
      <trkpt lat="47.556386" lon="7.952449">
        <ele>288.450144</ele>
        <time>2021-11-13T10:51:30.505Z</time>
      </trkpt>
      <trkpt lat="47.556339" lon="7.952382">
        <ele>288.431341</ele>
        <time>2021-11-13T10:51:31.333Z</time>
      </trkpt>
      <trkpt lat="47.555687" lon="7.951449">
        <ele>288.170019</ele>
        <time>2021-11-13T10:51:44.201Z</time>
      </trkpt>
      <trkpt lat="47.555474" lon="7.951144">
        <ele>288.235692</ele>
        <time>2021-11-13T10:51:48.942Z</time>
      </trkpt>
      <trkpt lat="47.554954" lon="7.950665">
        <ele>288.799856</ele>
        <time>2021-11-13T10:51:59.976Z</time>
      </trkpt>
      <trkpt lat="47.554759" lon="7.950515">
        <ele>289.002297</ele>
        <time>2021-11-13T10:52:04.126Z</time>
      </trkpt>
      <trkpt lat="47.554652" lon="7.950448">
        <ele>289.109328</ele>
        <time>2021-11-13T10:52:06.330Z</time>
      </trkpt>
      <trkpt lat="47.554392" lon="7.950331">
        <ele>289.359696</ele>
        <time>2021-11-13T10:52:11.571Z</time>
      </trkpt>
      <trkpt lat="47.554303" lon="7.950312">
        <ele>289.442547</ele>
        <time>2021-11-13T10:52:13.329Z</time>
      </trkpt>
      <trkpt lat="47.554303" lon="7.950312">
        <ele>289.442547</ele>
        <time>2021-11-13T10:52:13.364Z</time>
      </trkpt>
      <trkpt lat="47.554240" lon="7.950300">
        <ele>289.501072</ele>
        <time>2021-11-13T10:52:14.604Z</time>
      </trkpt>
      <trkpt lat="47.554192" lon="7.950296">
        <ele>289.545369</ele>
        <time>2021-11-13T10:52:16.595Z</time>
      </trkpt>
      <trkpt lat="47.553815" lon="7.949414">
        <ele>290.076945</ele>
        <time>2021-11-13T10:52:46.438Z</time>
      </trkpt>
      <trkpt lat="47.553771" lon="7.949315">
        <ele>290.129847</ele>
        <time>2021-11-13T10:52:49.789Z</time>
      </trkpt>
      <trkpt lat="47.553537" lon="7.948783">
        <ele>290.413247</ele>
        <time>2021-11-13T10:53:07.419Z</time>
      </trkpt>
      <trkpt lat="47.553368" lon="7.948399">
        <ele>290.617842</ele>
        <time>2021-11-13T10:53:19.864Z</time>
      </trkpt>
      <trkpt lat="47.553197" lon="7.948543">
        <ele>290.747906</ele>
        <time>2021-11-13T10:53:33.503Z</time>
      </trkpt>
      <trkpt lat="47.553118" lon="7.948619">
        <ele>290.810192</ele>
        <time>2021-11-13T10:53:37.120Z</time>
      </trkpt>
      <trkpt lat="47.552953" lon="7.948775">
        <ele>290.939622</ele>
        <time>2021-11-13T10:53:44.181Z</time>
      </trkpt>
      <trkpt lat="47.552518" lon="7.949236">
        <ele>290.877680</ele>
        <time>2021-11-13T10:54:02.738Z</time>
      </trkpt>
      <trkpt lat="47.552382" lon="7.949119">
        <ele>290.849097</ele>
        <time>2021-11-13T10:54:08.125Z</time>
      </trkpt>
      <trkpt lat="47.552351" lon="7.949099">
        <ele>290.842952</ele>
        <time>2021-11-13T10:54:09.250Z</time>
      </trkpt>
      <trkpt lat="47.552202" lon="7.949003">
        <ele>290.813422</ele>
        <time>2021-11-13T10:54:15.020Z</time>
      </trkpt>
      <trkpt lat="47.552094" lon="7.948926">
        <ele>290.791639</ele>
        <time>2021-11-13T10:54:19.261Z</time>
      </trkpt>
      <trkpt lat="47.552049" lon="7.948982">
        <ele>290.780958</ele>
        <time>2021-11-13T10:54:21.309Z</time>
      </trkpt>
      <trkpt lat="47.552010" lon="7.949039">
        <ele>290.771002</ele>
        <time>2021-11-13T10:54:23.272Z</time>
      </trkpt>
      <trkpt lat="47.551794" lon="7.949387">
        <ele>290.713007</ele>
        <time>2021-11-13T10:54:34.772Z</time>
      </trkpt>
      <trkpt lat="47.551673" lon="7.949634">
        <ele>290.675568</ele>
        <time>2021-11-13T10:54:42.485Z</time>
      </trkpt>
      <trkpt lat="47.551581" lon="7.949830">
        <ele>290.646283</ele>
        <time>2021-11-13T10:54:48.317Z</time>
      </trkpt>
      <trkpt lat="47.551525" lon="7.950027">
        <ele>290.805053</ele>
        <time>2021-11-13T10:54:53.904Z</time>
      </trkpt>
      <trkpt lat="47.551506" lon="7.950255">
        <ele>291.033454</ele>
        <time>2021-11-13T10:54:59.967Z</time>
      </trkpt>
      <trkpt lat="47.551381" lon="7.952341">
        <ele>293.115542</ele>
        <time>2021-11-13T10:56:01.627Z</time>
      </trkpt>
      <trkpt lat="47.551339" lon="7.952761">
        <ele>293.641044</ele>
        <time>2021-11-13T10:56:15.023Z</time>
      </trkpt>
      <trkpt lat="47.551334" lon="7.952777">
        <ele>293.665888</ele>
        <time>2021-11-13T10:56:15.636Z</time>
      </trkpt>
      <trkpt lat="47.551295" lon="7.952900">
        <ele>293.857369</ele>
        <time>2021-11-13T10:56:20.273Z</time>
      </trkpt>
      <trkpt lat="47.551254" lon="7.952986">
        <ele>294.005726</ele>
        <time>2021-11-13T10:56:22.513Z</time>
      </trkpt>
      <trkpt lat="47.550967" lon="7.953063">
        <ele>294.614626</ele>
        <time>2021-11-13T10:56:31.510Z</time>
      </trkpt>
      <trkpt lat="47.550656" lon="7.953072">
        <ele>295.264010</ele>
        <time>2021-11-13T10:56:40.688Z</time>
      </trkpt>
      <trkpt lat="47.550567" lon="7.953069">
        <ele>295.449859</ele>
        <time>2021-11-13T10:56:43.554Z</time>
      </trkpt>
      <trkpt lat="47.549687" lon="7.953071">
        <ele>297.155585</ele>
        <time>2021-11-13T10:57:07.408Z</time>
      </trkpt>
      <trkpt lat="47.549673" lon="7.953076">
        <ele>297.169334</ele>
        <time>2021-11-13T10:57:08.144Z</time>
      </trkpt>
      <trkpt lat="47.549640" lon="7.953086">
        <ele>297.201493</ele>
        <time>2021-11-13T10:57:09.010Z</time>
      </trkpt>
      <trkpt lat="47.549442" lon="7.953195">
        <ele>297.403160</ele>
        <time>2021-11-13T10:57:14.057Z</time>
      </trkpt>
      <trkpt lat="47.549296" lon="7.953268">
        <ele>297.550277</ele>
        <time>2021-11-13T10:57:18.022Z</time>
      </trkpt>
      <trkpt lat="47.548616" lon="7.953630">
        <ele>298.240142</ele>
        <time>2021-11-13T10:57:35.238Z</time>
      </trkpt>
      <trkpt lat="47.548335" lon="7.953779">
        <ele>298.525090</ele>
        <time>2021-11-13T10:57:41.669Z</time>
      </trkpt>
      <trkpt lat="47.548251" lon="7.953895">
        <ele>298.634725</ele>
        <time>2021-11-13T10:57:44.631Z</time>
      </trkpt>
      <trkpt lat="47.548115" lon="7.953729">
        <ele>298.780280</ele>
        <time>2021-11-13T10:57:47.473Z</time>
      </trkpt>
      <trkpt lat="47.547994" lon="7.953584">
        <ele>298.846420</ele>
        <time>2021-11-13T10:57:49.996Z</time>
      </trkpt>
      <trkpt lat="47.547871" lon="7.953437">
        <ele>298.913581</ele>
        <time>2021-11-13T10:57:52.513Z</time>
      </trkpt>
      <trkpt lat="47.547797" lon="7.953355">
        <ele>298.952854</ele>
        <time>2021-11-13T10:57:53.965Z</time>
      </trkpt>
      <trkpt lat="47.547624" lon="7.953160">
        <ele>299.045237</ele>
        <time>2021-11-13T10:57:57.438Z</time>
      </trkpt>
      <trkpt lat="47.547550" lon="7.953078">
        <ele>299.084510</ele>
        <time>2021-11-13T10:57:58.949Z</time>
      </trkpt>
      <trkpt lat="47.547458" lon="7.952975">
        <ele>299.133517</ele>
        <time>2021-11-13T10:58:00.792Z</time>
      </trkpt>
      <trkpt lat="47.547400" lon="7.952910">
        <ele>299.164425</ele>
        <time>2021-11-13T10:58:01.975Z</time>
      </trkpt>
      <trkpt lat="47.547090" lon="7.952543">
        <ele>299.333068</ele>
        <time>2021-11-13T10:58:08.407Z</time>
      </trkpt>
      <trkpt lat="47.546935" lon="7.952372">
        <ele>299.415199</ele>
        <time>2021-11-13T10:58:11.565Z</time>
      </trkpt>
      <trkpt lat="47.546776" lon="7.952185">
        <ele>299.501476</ele>
        <time>2021-11-13T10:58:15.007Z</time>
      </trkpt>
      <trkpt lat="47.546695" lon="7.952091">
        <ele>299.528789</ele>
        <time>2021-11-13T10:58:16.783Z</time>
      </trkpt>
      <trkpt lat="47.546634" lon="7.952024">
        <ele>299.532755</ele>
        <time>2021-11-13T10:58:18.106Z</time>
      </trkpt>
      <trkpt lat="47.546421" lon="7.951793">
        <ele>299.546543</ele>
        <time>2021-11-13T10:58:22.669Z</time>
      </trkpt>
      <trkpt lat="47.546231" lon="7.951558">
        <ele>299.559471</ele>
        <time>2021-11-13T10:58:26.827Z</time>
      </trkpt>
      <trkpt lat="47.546212" lon="7.951535">
        <ele>299.560752</ele>
        <time>2021-11-13T10:58:27.237Z</time>
      </trkpt>
      <trkpt lat="47.546135" lon="7.951406">
        <ele>299.566824</ele>
        <time>2021-11-13T10:58:29.000Z</time>
      </trkpt>
      <trkpt lat="47.545886" lon="7.951110">
        <ele>299.583499</ele>
        <time>2021-11-13T10:58:33.866Z</time>
      </trkpt>
      <trkpt lat="47.545824" lon="7.951061">
        <ele>299.587169</ele>
        <time>2021-11-13T10:58:34.915Z</time>
      </trkpt>
      <trkpt lat="47.545759" lon="7.950982">
        <ele>299.591560</ele>
        <time>2021-11-13T10:58:36.186Z</time>
      </trkpt>
      <trkpt lat="47.545727" lon="7.950947">
        <ele>299.593638</ele>
        <time>2021-11-13T10:58:36.923Z</time>
      </trkpt>
      <trkpt lat="47.545625" lon="7.950829">
        <ele>299.600398</ele>
        <time>2021-11-13T10:58:38.617Z</time>
      </trkpt>
      <trkpt lat="47.545567" lon="7.950765">
        <ele>299.604175</ele>
        <time>2021-11-13T10:58:39.619Z</time>
      </trkpt>
      <trkpt lat="47.545494" lon="7.950684">
        <ele>299.608939</ele>
        <time>2021-11-13T10:58:40.861Z</time>
      </trkpt>
      <trkpt lat="47.545434" lon="7.950668">
        <ele>299.612123</ele>
        <time>2021-11-13T10:58:41.849Z</time>
      </trkpt>
      <trkpt lat="47.545166" lon="7.950366">
        <ele>299.555890</ele>
        <time>2021-11-13T10:58:46.210Z</time>
      </trkpt>
      <trkpt lat="47.544901" lon="7.950044">
        <ele>299.431315</ele>
        <time>2021-11-13T10:58:50.445Z</time>
      </trkpt>
      <trkpt lat="47.544521" lon="7.949558">
        <ele>299.248845</ele>
        <time>2021-11-13T10:58:56.634Z</time>
      </trkpt>
      <trkpt lat="47.544239" lon="7.949202">
        <ele>299.114177</ele>
        <time>2021-11-13T10:59:01.542Z</time>
      </trkpt>
      <trkpt lat="47.543864" lon="7.948694">
        <ele>299.152637</ele>
        <time>2021-11-13T10:59:09.506Z</time>
      </trkpt>
      <trkpt lat="47.543760" lon="7.948548">
        <ele>299.412996</ele>
        <time>2021-11-13T10:59:11.748Z</time>
      </trkpt>
      <trkpt lat="47.543579" lon="7.948287">
        <ele>299.871986</ele>
        <time>2021-11-13T10:59:17.465Z</time>
      </trkpt>
      <trkpt lat="47.543532" lon="7.948214">
        <ele>299.995728</ele>
        <time>2021-11-13T10:59:18.591Z</time>
      </trkpt>
      <trkpt lat="47.543435" lon="7.948000">
        <ele>300.311914</ele>
        <time>2021-11-13T10:59:21.653Z</time>
      </trkpt>
      <trkpt lat="47.543407" lon="7.947938">
        <ele>300.403416</ele>
        <time>2021-11-13T10:59:23.511Z</time>
      </trkpt>
      <trkpt lat="47.543280" lon="7.947656">
        <ele>300.819242</ele>
        <time>2021-11-13T10:59:27.997Z</time>
      </trkpt>
      <trkpt lat="47.543142" lon="7.947250">
        <ele>301.376826</ele>
        <time>2021-11-13T10:59:35.461Z</time>
      </trkpt>
      <trkpt lat="47.543086" lon="7.947052">
        <ele>301.640156</ele>
        <time>2021-11-13T10:59:38.891Z</time>
      </trkpt>
      <trkpt lat="47.543056" lon="7.946935">
        <ele>301.793677</ele>
        <time>2021-11-13T10:59:41.732Z</time>
      </trkpt>
      <trkpt lat="47.543045" lon="7.946881">
        <ele>301.862866</ele>
        <time>2021-11-13T10:59:42.889Z</time>
      </trkpt>
      <trkpt lat="47.542982" lon="7.946547">
        <ele>302.303526</ele>
        <time>2021-11-13T10:59:48.289Z</time>
      </trkpt>
      <trkpt lat="47.542974" lon="7.946495">
        <ele>302.387727</ele>
        <time>2021-11-13T10:59:49.929Z</time>
      </trkpt>
      <trkpt lat="47.542960" lon="7.946400">
        <ele>302.541243</ele>
        <time>2021-11-13T10:59:51.995Z</time>
      </trkpt>
      <trkpt lat="47.542916" lon="7.945730">
        <ele>303.604014</ele>
        <time>2021-11-13T11:00:04.660Z</time>
      </trkpt>
      <trkpt lat="47.542913" lon="7.945267">
        <ele>304.335020</ele>
        <time>2021-11-13T11:00:13.156Z</time>
      </trkpt>
      <trkpt lat="47.543007" lon="7.943867">
        <ele>306.443039</ele>
        <time>2021-11-13T11:00:34.323Z</time>
      </trkpt>
      <trkpt lat="47.543161" lon="7.942213">
        <ele>306.473443</ele>
        <time>2021-11-13T11:00:52.729Z</time>
      </trkpt>
      <trkpt lat="47.543435" lon="7.940670">
        <ele>305.778963</ele>
        <time>2021-11-13T11:01:05.677Z</time>
      </trkpt>
      <trkpt lat="47.543826" lon="7.939433">
        <ele>304.335720</ele>
        <time>2021-11-13T11:01:16.078Z</time>
      </trkpt>
      <trkpt lat="47.544472" lon="7.937932">
        <ele>302.282501</ele>
        <time>2021-11-13T11:01:29.402Z</time>
      </trkpt>
      <trkpt lat="47.544705" lon="7.937395">
        <ele>301.512732</ele>
        <time>2021-11-13T11:01:34.242Z</time>
      </trkpt>
      <trkpt lat="47.544903" lon="7.936917">
        <ele>300.836471</ele>
        <time>2021-11-13T11:01:38.502Z</time>
      </trkpt>
      <trkpt lat="47.545074" lon="7.936484">
        <ele>300.299317</ele>
        <time>2021-11-13T11:01:42.333Z</time>
      </trkpt>
      <trkpt lat="47.545457" lon="7.935110">
        <ele>299.034465</ele>
        <time>2021-11-13T11:01:53.701Z</time>
      </trkpt>
      <trkpt lat="47.545674" lon="7.933625">
        <ele>298.450027</ele>
        <time>2021-11-13T11:02:06.781Z</time>
      </trkpt>
      <trkpt lat="47.545702" lon="7.933290">
        <ele>298.612085</ele>
        <time>2021-11-13T11:02:10.362Z</time>
      </trkpt>
      <trkpt lat="47.545724" lon="7.932758">
        <ele>298.867970</ele>
        <time>2021-11-13T11:02:16.628Z</time>
      </trkpt>
      <trkpt lat="47.545721" lon="7.931992">
        <ele>299.235724</ele>
        <time>2021-11-13T11:02:26.668Z</time>
      </trkpt>
      <trkpt lat="47.545696" lon="7.931497">
        <ele>299.474429</ele>
        <time>2021-11-13T11:02:33.873Z</time>
      </trkpt>
      <trkpt lat="47.545661" lon="7.930955">
        <ele>300.147733</ele>
        <time>2021-11-13T11:02:42.568Z</time>
      </trkpt>
      <trkpt lat="47.545563" lon="7.929641">
        <ele>301.782532</ele>
        <time>2021-11-13T11:03:04.908Z</time>
      </trkpt>
      <trkpt lat="47.545475" lon="7.928419">
        <ele>302.359006</ele>
        <time>2021-11-13T11:03:21.211Z</time>
      </trkpt>
      <trkpt lat="47.545421" lon="7.927686">
        <ele>301.658199</ele>
        <time>2021-11-13T11:03:27.314Z</time>
      </trkpt>
      <trkpt lat="47.545406" lon="7.927306">
        <ele>301.296415</ele>
        <time>2021-11-13T11:03:30.218Z</time>
      </trkpt>
      <trkpt lat="47.545407" lon="7.927001">
        <ele>301.006528</ele>
        <time>2021-11-13T11:03:32.505Z</time>
      </trkpt>
      <trkpt lat="47.545409" lon="7.926773">
        <ele>300.789810</ele>
        <time>2021-11-13T11:03:34.134Z</time>
      </trkpt>
      <trkpt lat="47.545417" lon="7.925848">
        <ele>299.355132</ele>
        <time>2021-11-13T11:03:40.469Z</time>
      </trkpt>
      <trkpt lat="47.545446" lon="7.925350">
        <ele>298.070018</ele>
        <time>2021-11-13T11:03:43.761Z</time>
      </trkpt>
      <trkpt lat="47.545466" lon="7.924880">
        <ele>296.859250</ele>
        <time>2021-11-13T11:03:46.814Z</time>
      </trkpt>
      <trkpt lat="47.545481" lon="7.924396">
        <ele>295.613575</ele>
        <time>2021-11-13T11:03:49.898Z</time>
      </trkpt>
      <trkpt lat="47.545521" lon="7.923709">
        <ele>293.840742</ele>
        <time>2021-11-13T11:03:54.423Z</time>
      </trkpt>
      <trkpt lat="47.545536" lon="7.923407">
        <ele>293.239787</ele>
        <time>2021-11-13T11:03:56.571Z</time>
      </trkpt>
      <trkpt lat="47.545553" lon="7.923142">
        <ele>292.931251</ele>
        <time>2021-11-13T11:03:58.402Z</time>
      </trkpt>
      <trkpt lat="47.545587" lon="7.922895">
        <ele>292.639070</ele>
        <time>2021-11-13T11:04:00.335Z</time>
      </trkpt>
      <trkpt lat="47.545641" lon="7.922610">
        <ele>292.295970</ele>
        <time>2021-11-13T11:04:02.481Z</time>
      </trkpt>
      <trkpt lat="47.545690" lon="7.922369">
        <ele>292.004239</ele>
        <time>2021-11-13T11:04:04.488Z</time>
      </trkpt>
      <trkpt lat="47.545699" lon="7.922325">
        <ele>291.950950</ele>
        <time>2021-11-13T11:04:04.782Z</time>
      </trkpt>
      <trkpt lat="47.545714" lon="7.922249">
        <ele>291.859173</ele>
        <time>2021-11-13T11:04:05.372Z</time>
      </trkpt>
      <trkpt lat="47.545778" lon="7.921947">
        <ele>291.492291</ele>
        <time>2021-11-13T11:04:08.074Z</time>
      </trkpt>
      <trkpt lat="47.545810" lon="7.921755">
        <ele>291.263068</ele>
        <time>2021-11-13T11:04:09.555Z</time>
      </trkpt>
      <trkpt lat="47.545881" lon="7.921096">
        <ele>290.489580</ele>
        <time>2021-11-13T11:04:15.017Z</time>
      </trkpt>
      <trkpt lat="47.545913" lon="7.920765">
        <ele>290.262533</ele>
        <time>2021-11-13T11:04:17.910Z</time>
      </trkpt>
      <trkpt lat="47.545973" lon="7.920313">
        <ele>290.167979</ele>
        <time>2021-11-13T11:04:22.380Z</time>
      </trkpt>
      <trkpt lat="47.546128" lon="7.919617">
        <ele>290.017545</ele>
        <time>2021-11-13T11:04:29.621Z</time>
      </trkpt>
      <trkpt lat="47.546262" lon="7.919081">
        <ele>289.900224</ele>
        <time>2021-11-13T11:04:35.669Z</time>
      </trkpt>
      <trkpt lat="47.546821" lon="7.916867">
        <ele>289.121219</ele>
        <time>2021-11-13T11:04:56.337Z</time>
      </trkpt>
      <trkpt lat="47.547032" lon="7.916218">
        <ele>288.843719</ele>
        <time>2021-11-13T11:05:02.644Z</time>
      </trkpt>
      <trkpt lat="47.547091" lon="7.916039">
        <ele>288.766981</ele>
        <time>2021-11-13T11:05:04.418Z</time>
      </trkpt>
      <trkpt lat="47.547113" lon="7.915971">
        <ele>288.737933</ele>
        <time>2021-11-13T11:05:05.008Z</time>
      </trkpt>
      <trkpt lat="47.547423" lon="7.915080">
        <ele>288.768123</ele>
        <time>2021-11-13T11:05:14.496Z</time>
      </trkpt>
      <trkpt lat="47.547994" lon="7.913433">
        <ele>288.945107</ele>
        <time>2021-11-13T11:05:34.200Z</time>
      </trkpt>
      <trkpt lat="47.548027" lon="7.913334">
        <ele>289.016724</ele>
        <time>2021-11-13T11:05:35.559Z</time>
      </trkpt>
      <trkpt lat="47.548412" lon="7.912168">
        <ele>289.858656</ele>
        <time>2021-11-13T11:05:51.962Z</time>
      </trkpt>
      <trkpt lat="47.549012" lon="7.910340">
        <ele>291.361944</ele>
        <time>2021-11-13T11:06:18.919Z</time>
      </trkpt>
      <trkpt lat="47.549102" lon="7.910058">
        <ele>291.626381</ele>
        <time>2021-11-13T11:06:23.093Z</time>
      </trkpt>
      <trkpt lat="47.549195" lon="7.909756">
        <ele>291.907782</ele>
        <time>2021-11-13T11:06:27.335Z</time>
      </trkpt>
      <trkpt lat="47.549206" lon="7.909719">
        <ele>291.942055</ele>
        <time>2021-11-13T11:06:27.994Z</time>
      </trkpt>
      <trkpt lat="47.549337" lon="7.909285">
        <ele>292.345082</ele>
        <time>2021-11-13T11:06:34.012Z</time>
      </trkpt>
      <trkpt lat="47.549520" lon="7.908678">
        <ele>292.961075</ele>
        <time>2021-11-13T11:06:42.717Z</time>
      </trkpt>
      <trkpt lat="47.549539" lon="7.908625">
        <ele>293.047649</ele>
        <time>2021-11-13T11:06:43.435Z</time>
      </trkpt>
      <trkpt lat="47.550497" lon="7.905558">
        <ele>298.651178</ele>
        <time>2021-11-13T11:07:38.259Z</time>
      </trkpt>
      <trkpt lat="47.550283" lon="7.905413">
        <ele>299.448416</ele>
        <time>2021-11-13T11:07:46.426Z</time>
      </trkpt>
      <trkpt lat="47.550067" lon="7.905245">
        <ele>300.274916</ele>
        <time>2021-11-13T11:07:55.112Z</time>
      </trkpt>
      <trkpt lat="47.549867" lon="7.905155">
        <ele>300.983068</ele>
        <time>2021-11-13T11:08:02.740Z</time>
      </trkpt>
      <trkpt lat="47.549868" lon="7.905010">
        <ele>301.314655</ele>
        <time>2021-11-13T11:08:06.145Z</time>
      </trkpt>
      <trkpt lat="47.550025" lon="7.904774">
        <ele>302.072384</ele>
        <time>2021-11-13T11:08:14.297Z</time>
      </trkpt>
      <trkpt lat="47.550302" lon="7.904164">
        <ele>303.844677</ele>
        <time>2021-11-13T11:08:32.595Z</time>
      </trkpt>
      <trkpt lat="47.550498" lon="7.903445">
        <ele>305.782405</ele>
        <time>2021-11-13T11:08:52.167Z</time>
      </trkpt>
      <trkpt lat="47.550688" lon="7.902451">
        <ele>308.364002</ele>
        <time>2021-11-13T11:09:14.716Z</time>
      </trkpt>
      <trkpt lat="47.550757" lon="7.901591">
        <ele>310.666453</ele>
        <time>2021-11-13T11:09:34.512Z</time>
      </trkpt>
      <trkpt lat="47.550769" lon="7.901362">
        <ele>311.312774</ele>
        <time>2021-11-13T11:09:40.420Z</time>
      </trkpt>
      <trkpt lat="47.550801" lon="7.900244">
        <ele>314.461529</ele>
        <time>2021-11-13T11:10:04.817Z</time>
      </trkpt>
      <trkpt lat="47.550819" lon="7.898109">
        <ele>319.736419</ele>
        <time>2021-11-13T11:10:51.858Z</time>
      </trkpt>
      <trkpt lat="47.550648" lon="7.896481">
        <ele>323.078274</ele>
        <time>2021-11-13T11:11:19.513Z</time>
      </trkpt>
      <trkpt lat="47.550639" lon="7.896345">
        <ele>323.193487</ele>
        <time>2021-11-13T11:11:21.888Z</time>
      </trkpt>
      <trkpt lat="47.550660" lon="7.896255">
        <ele>323.273774</ele>
        <time>2021-11-13T11:11:22.689Z</time>
      </trkpt>
      <trkpt lat="47.550838" lon="7.895509">
        <ele>323.940882</ele>
        <time>2021-11-13T11:11:32.857Z</time>
      </trkpt>
      <trkpt lat="47.550878" lon="7.895158">
        <ele>324.241002</ele>
        <time>2021-11-13T11:11:36.919Z</time>
      </trkpt>
      <trkpt lat="47.550908" lon="7.894308">
        <ele>324.958624</ele>
        <time>2021-11-13T11:11:47.391Z</time>
      </trkpt>
      <trkpt lat="47.550892" lon="7.893176">
        <ele>327.146181</ele>
        <time>2021-11-13T11:12:02.109Z</time>
      </trkpt>
      <trkpt lat="47.550904" lon="7.891725">
        <ele>330.276632</ele>
        <time>2021-11-13T11:12:31.871Z</time>
      </trkpt>
      <trkpt lat="47.550915" lon="7.890600">
        <ele>334.361359</ele>
        <time>2021-11-13T11:13:00.711Z</time>
      </trkpt>
      <trkpt lat="47.550833" lon="7.889069">
        <ele>340.671173</ele>
        <time>2021-11-13T11:13:43.344Z</time>
      </trkpt>
      <trkpt lat="47.550831" lon="7.888611">
        <ele>342.531302</ele>
        <time>2021-11-13T11:13:55.915Z</time>
      </trkpt>
      <trkpt lat="47.550789" lon="7.887816">
        <ele>345.711053</ele>
        <time>2021-11-13T11:14:16.526Z</time>
      </trkpt>
      <trkpt lat="47.550758" lon="7.887295">
        <ele>347.796593</ele>
        <time>2021-11-13T11:14:30.348Z</time>
      </trkpt>
      <trkpt lat="47.550677" lon="7.886476">
        <ele>351.097228</ele>
        <time>2021-11-13T11:14:51.837Z</time>
      </trkpt>
      <trkpt lat="47.550548" lon="7.885799">
        <ele>353.606991</ele>
        <time>2021-11-13T11:15:09.040Z</time>
      </trkpt>
      <trkpt lat="47.550391" lon="7.885109">
        <ele>355.921696</ele>
        <time>2021-11-13T11:15:26.677Z</time>
      </trkpt>
      <trkpt lat="47.550332" lon="7.884727">
        <ele>357.167414</ele>
        <time>2021-11-13T11:15:35.368Z</time>
      </trkpt>
      <trkpt lat="47.550234" lon="7.883221">
        <ele>361.705724</ele>
        <time>2021-11-13T11:16:08.199Z</time>
      </trkpt>
      <trkpt lat="47.549927" lon="7.881490">
        <ele>365.938447</ele>
        <time>2021-11-13T11:16:40.463Z</time>
      </trkpt>
      <trkpt lat="47.549726" lon="7.880786">
        <ele>367.858362</ele>
        <time>2021-11-13T11:16:56.439Z</time>
      </trkpt>
      <trkpt lat="47.549327" lon="7.879547">
        <ele>371.796640</ele>
        <time>2021-11-13T11:17:26.223Z</time>
      </trkpt>
      <trkpt lat="47.549318" lon="7.879398">
        <ele>372.225800</ele>
        <time>2021-11-13T11:17:29.412Z</time>
      </trkpt>
      <trkpt lat="47.549140" lon="7.879391">
        <ele>372.982630</ele>
        <time>2021-11-13T11:17:36.282Z</time>
      </trkpt>
      <trkpt lat="47.548718" lon="7.879258">
        <ele>374.816415</ele>
        <time>2021-11-13T11:17:49.953Z</time>
      </trkpt>
      <trkpt lat="47.548422" lon="7.878959">
        <ele>375.577846</ele>
        <time>2021-11-13T11:18:00.599Z</time>
      </trkpt>
      <trkpt lat="47.548234" lon="7.878638">
        <ele>376.167575</ele>
        <time>2021-11-13T11:18:09.031Z</time>
      </trkpt>
      <trkpt lat="47.547992" lon="7.877974">
        <ele>377.214693</ele>
        <time>2021-11-13T11:18:22.129Z</time>
      </trkpt>
      <trkpt lat="47.547574" lon="7.876801">
        <ele>377.909835</ele>
        <time>2021-11-13T11:18:35.892Z</time>
      </trkpt>
      <trkpt lat="47.547126" lon="7.875801">
        <ele>375.704978</ele>
        <time>2021-11-13T11:18:44.675Z</time>
      </trkpt>
      <trkpt lat="47.546309" lon="7.874154">
        <ele>369.841019</ele>
        <time>2021-11-13T11:18:57.863Z</time>
      </trkpt>
      <trkpt lat="47.546135" lon="7.873859">
        <ele>368.237275</ele>
        <time>2021-11-13T11:19:00.245Z</time>
      </trkpt>
      <trkpt lat="47.546077" lon="7.873763">
        <ele>367.709848</ele>
        <time>2021-11-13T11:19:01.056Z</time>
      </trkpt>
      <trkpt lat="47.545934" lon="7.873549">
        <ele>366.477119</ele>
        <time>2021-11-13T11:19:02.861Z</time>
      </trkpt>
      <trkpt lat="47.545746" lon="7.873302">
        <ele>364.953165</ele>
        <time>2021-11-13T11:19:05.149Z</time>
      </trkpt>
      <trkpt lat="47.545515" lon="7.873015">
        <ele>363.124749</ele>
        <time>2021-11-13T11:19:07.848Z</time>
      </trkpt>
      <trkpt lat="47.545478" lon="7.872968">
        <ele>362.829158</ele>
        <time>2021-11-13T11:19:08.290Z</time>
      </trkpt>
      <trkpt lat="47.545375" lon="7.872836">
        <ele>361.918313</ele>
        <time>2021-11-13T11:19:09.483Z</time>
      </trkpt>
      <trkpt lat="47.545131" lon="7.872664">
        <ele>360.095435</ele>
        <time>2021-11-13T11:19:11.942Z</time>
      </trkpt>
      <trkpt lat="47.544883" lon="7.872555">
        <ele>358.350338</ele>
        <time>2021-11-13T11:19:14.264Z</time>
      </trkpt>
      <trkpt lat="47.544390" lon="7.872423">
        <ele>354.970649</ele>
        <time>2021-11-13T11:19:18.729Z</time>
      </trkpt>
      <trkpt lat="47.543332" lon="7.872237">
        <ele>348.671184</ele>
        <time>2021-11-13T11:19:28.496Z</time>
      </trkpt>
      <trkpt lat="47.543251" lon="7.872152">
        <ele>348.210783</ele>
        <time>2021-11-13T11:19:29.437Z</time>
      </trkpt>
      <trkpt lat="47.543233" lon="7.872082">
        <ele>347.976255</ele>
        <time>2021-11-13T11:19:29.858Z</time>
      </trkpt>
      <trkpt lat="47.543013" lon="7.872182">
        <ele>346.908902</ele>
        <time>2021-11-13T11:19:32.098Z</time>
      </trkpt>
      <trkpt lat="47.542919" lon="7.872226">
        <ele>346.451666</ele>
        <time>2021-11-13T11:19:33.019Z</time>
      </trkpt>
      <trkpt lat="47.542814" lon="7.872280">
        <ele>345.936144</ele>
        <time>2021-11-13T11:19:34.072Z</time>
      </trkpt>
      <trkpt lat="47.542714" lon="7.872334">
        <ele>345.442472</ele>
        <time>2021-11-13T11:19:35.160Z</time>
      </trkpt>
      <trkpt lat="47.542537" lon="7.872430">
        <ele>344.568221</ele>
        <time>2021-11-13T11:19:36.892Z</time>
      </trkpt>
      <trkpt lat="47.542436" lon="7.872494">
        <ele>344.058707</ele>
        <time>2021-11-13T11:19:38.254Z</time>
      </trkpt>
      <trkpt lat="47.542394" lon="7.872341">
        <ele>343.541573</ele>
        <time>2021-11-13T11:19:39.349Z</time>
      </trkpt>
      <trkpt lat="47.542218" lon="7.871866">
        <ele>342.282591</ele>
        <time>2021-11-13T11:19:43.069Z</time>
      </trkpt>
      <trkpt lat="47.542091" lon="7.871721">
        <ele>342.282591</ele>
        <time>2021-11-13T11:19:44.604Z</time>
      </trkpt>
      <trkpt lat="47.542067" lon="7.871664">
        <ele>342.282591</ele>
        <time>2021-11-13T11:19:45.406Z</time>
      </trkpt>
      <trkpt lat="47.542039" lon="7.871556">
        <ele>342.282591</ele>
        <time>2021-11-13T11:19:46.318Z</time>
      </trkpt>
      <trkpt lat="47.541953" lon="7.871286">
        <ele>342.282591</ele>
        <time>2021-11-13T11:19:48.551Z</time>
      </trkpt>
      <trkpt lat="47.541796" lon="7.871042">
        <ele>342.282591</ele>
        <time>2021-11-13T11:19:51.165Z</time>
      </trkpt>
      <trkpt lat="47.541576" lon="7.870664">
        <ele>342.282591</ele>
        <time>2021-11-13T11:19:55.002Z</time>
      </trkpt>
      <trkpt lat="47.541410" lon="7.870791">
        <ele>342.282591</ele>
        <time>2021-11-13T11:19:57.080Z</time>
      </trkpt>
      <trkpt lat="47.541376" lon="7.870819">
        <ele>342.282591</ele>
        <time>2021-11-13T11:19:57.673Z</time>
      </trkpt>
      <trkpt lat="47.541245" lon="7.870928">
        <ele>342.282591</ele>
        <time>2021-11-13T11:19:59.866Z</time>
      </trkpt>
    </trkseg>
  </trk>
</gpx>